Darstellungsparameter: Aktuell verwendete Einstellungen:
Skalierung der Graphiken ... ?
xyx+y,   Skalierungsfaktor:      Skalierung: Modus: x, Faktor: 1
Darstellungszeitraum ... ?
Vom - - bis: - -   Zeitraum: 02.10.2009 - 01.11.2009
Min/Max/Avg-Anzeige ... ?
Zeige MMA aktuell
Zeige MMA Monat
Zeige MMA alles
Zeige --A aktuell
Zeige --A Monat
Zeige --A alles
Keine MMA-Anzeige
MMA:
Keine MMA-Graphiken
MMA-Basis: 02.10.2009 - 01.11.2009
Quicknavigation für Darstellung... ?
Tage:      1T, 2T, 3T, 5T -1T -2T -3T -5T +1T +2T +3T +5T
Wochen: 1W, 2W, 3W -1W -2W -3W +1W +2W +3W
Monate: 1M, 3M, 6M -1M -3M -6M +1M +3M +6M
Jahre:    1J, 3J, 5J, 10J -1J -3J -5J -10J +1J +3J +5J +10J
Nutze für die Darstellung ... ?
Originaldaten oder Mittelwerte auf ...
Stundenbasis Tagesbasis Wochenbasis
Monatsbasis Jahresbasis      Datenbasis: Original-Daten
Darstellen als:
Statistik (Auto) Statistik J:M      Darstellung:
Zur Graphik,    zurück zur Übersicht aller Sensoren.
 
Tabellarische Datenbersicht: ?
 
Sensor: Nr:Datum:Temp:Abs-Feuchte:Windchill:Wind:
Aussen-T/F 1 02-10-2009 00:02:02 11.7 C 7.32 g/m*3 11.7 C 0 km/h
2 02-10-2009 00:14:02 12 C 7.35 g/m*3 12 C 0 km/h
3 02-10-2009 00:26:02 11.9 C 7.41 g/m*3 11.9 C 0 km/h
4 02-10-2009 00:38:02 11.7 C 7.43 g/m*3 11.7 C 0 km/h
5 02-10-2009 00:50:02 11.5 C 7.02 g/m*3 11.5 C 0 km/h
6 02-10-2009 01:02:02 11.3 C 6.83 g/m*3 11.3 C 0 km/h
7 02-10-2009 01:14:02 11.3 C 6.83 g/m*3 11.3 C 0 km/h
8 02-10-2009 01:26:02 11.1 C 6.75 g/m*3 11.1 C 0 km/h
9 02-10-2009 01:38:02 10.8 C 6.82 g/m*3 10.8 C 0 km/h
10 02-10-2009 01:50:02 10.6 C 6.93 g/m*3 10.6 C 0 km/h
11 02-10-2009 02:02:02 10.4 C 7.04 g/m*3 10.4 C 0 km/h
12 02-10-2009 02:14:02 10.1 C 7 g/m*3 10.1 C 0 km/h
13 02-10-2009 02:26:03 10 C 7.05 g/m*3 10 C 0 km/h
14 02-10-2009 02:38:03 10 C 6.95 g/m*3 10 C 0 km/h
15 02-10-2009 02:50:03 9.9 C 7.1 g/m*3 9.9 C 0 km/h
16 02-10-2009 03:02:03 9.8 C 7.05 g/m*3 9.8 C 0 km/h
17 02-10-2009 03:14:03 9.5 C 6.92 g/m*3 9.5 C 0 km/h
18 02-10-2009 03:26:03 9.2 C 6.88 g/m*3 9.2 C 0 km/h
19 02-10-2009 03:38:03 9.1 C 7.01 g/m*3 9.1 C 0 km/h
20 02-10-2009 03:50:03 8.8 C 7.05 g/m*3 8.8 C 0 km/h
21 02-10-2009 04:02:03 8.6 C 6.96 g/m*3 8.6 C 0 km/h
22 02-10-2009 04:14:03 8.6 C 7.13 g/m*3 8.6 C 0 km/h
23 02-10-2009 04:26:03 8.4 C 7.04 g/m*3 8.4 C 0 km/h
24 02-10-2009 04:38:03 8.2 C 7.03 g/m*3 8.2 C 0 km/h
25 02-10-2009 04:50:03 8.2 C 7.03 g/m*3 8.2 C 0 km/h
Sensor: Nr:Datum:Temp:Abs-Feuchte:Windchill:Wind:
Aussen-T/F 26 02-10-2009 05:02:03 8 C 6.94 g/m*3 8 C 0 km/h
27 02-10-2009 05:14:03 7.8 C 7.02 g/m*3 7.8 C 0 km/h
28 02-10-2009 05:26:03 7.8 C 7.1 g/m*3 7.8 C 0 km/h
29 02-10-2009 05:38:03 7.6 C 7.01 g/m*3 7.6 C 0 km/h
30 02-10-2009 05:50:03 7.5 C 6.96 g/m*3 7.5 C 0 km/h
31 02-10-2009 06:02:03 7.5 C 7.04 g/m*3 7.5 C 0 km/h
32 02-10-2009 06:14:04 7.5 C 7.04 g/m*3 7.5 C 0 km/h
33 02-10-2009 06:26:04 7.3 C 6.95 g/m*3 7.3 C 0 km/h
34 02-10-2009 06:38:04 7.3 C 6.95 g/m*3 7.3 C 0 km/h
35 02-10-2009 06:50:04 7.3 C 6.95 g/m*3 7.3 C 0 km/h
36 02-10-2009 07:02:02 7.2 C 6.91 g/m*3 7.2 C 0 km/h
37 02-10-2009 07:14:02 7.1 C 6.94 g/m*3 7.1 C 0 km/h
38 02-10-2009 07:26:02 7.2 C 6.99 g/m*3 7.2 C 0 km/h
39 02-10-2009 07:38:01 7.1 C 6.94 g/m*3 7.1 C 0 km/h
40 02-10-2009 07:50:02 7.2 C 6.99 g/m*3 7.2 C 0 km/h
41 02-10-2009 08:02:01 7.5 C 7.12 g/m*3 7.5 C 0 km/h
42 02-10-2009 08:14:01 7.4 C 7 g/m*3 7.4 C 0 km/h
43 02-10-2009 08:26:02 7.5 C 6.96 g/m*3 7.5 C 0 km/h
44 02-10-2009 08:38:01 7.4 C 6.92 g/m*3 7.4 C 0 km/h
45 02-10-2009 08:50:03 7.5 C 6.96 g/m*3 7.5 C 0 km/h
46 02-10-2009 09:02:02 7.6 C 7.01 g/m*3 7.6 C 0 km/h
47 02-10-2009 09:14:02 7.9 C 7.06 g/m*3 7.9 C 0 km/h
48 02-10-2009 09:26:02 8.2 C 7.03 g/m*3 8.2 C 0 km/h
49 02-10-2009 09:38:03 8.5 C 7.09 g/m*3 8.5 C 0 km/h
50 02-10-2009 09:50:02 8.5 C 7 g/m*3 8.5 C 0 km/h
Sensor: Nr:Datum:Temp:Abs-Feuchte:Windchill:Wind:
Aussen-T/F 51 02-10-2009 10:02:02 8.7 C 7.18 g/m*3 8.7 C 0 km/h
52 02-10-2009 10:14:02 9.3 C 7.19 g/m*3 9.3 C 0 km/h
53 02-10-2009 10:26:02 10 C 6.77 g/m*3 10 C 0 km/h
54 02-10-2009 10:38:02 10.1 C 6.62 g/m*3 10.1 C 0 km/h
55 02-10-2009 10:50:01 10.6 C 6.73 g/m*3 10.6 C 0 km/h
56 02-10-2009 11:02:02 11.2 C 6.49 g/m*3 11.2 C 0 km/h
57 02-10-2009 11:14:02 11.5 C 6.51 g/m*3 11.5 C 0 km/h
58 02-10-2009 11:26:01 11.8 C 6.31 g/m*3 11.8 C 0 km/h
59 02-10-2009 11:38:01 12.1 C 6.22 g/m*3 12.1 C 0 km/h
60 02-10-2009 11:50:01 12.8 C 6.05 g/m*3 12.8 C 0 km/h
61 02-10-2009 12:02:02 13.4 C 5.81 g/m*3 13.4 C 0 km/h
62 02-10-2009 12:14:02 13.6 C 5.65 g/m*3 13.6 C 0 km/h
63 02-10-2009 12:26:01 14.1 C 5.58 g/m*3 14.1 C 0 km/h
64 02-10-2009 12:38:02 14.3 C 5.28 g/m*3 14.3 C 0 km/h
65 02-10-2009 12:50:01 14.6 C 5.13 g/m*3 14.6 C 0 km/h
66 02-10-2009 13:02:02 14.5 C 4.97 g/m*3 14.5 C 0 km/h
67 02-10-2009 13:14:02 14.6 C 4.76 g/m*3 14.6 C 0 km/h
68 02-10-2009 13:26:01 14.6 C 5.01 g/m*3 14.6 C 0 km/h
69 02-10-2009 13:38:02 14.7 C 5.04 g/m*3 14.7 C 0 km/h
70 02-10-2009 13:50:01 14.1 C 4.98 g/m*3 14.1 C 0 km/h
71 02-10-2009 14:02:02 13.9 C 4.92 g/m*3 13.9 C 0 km/h
72 02-10-2009 14:14:02 13.9 C 5.15 g/m*3 13.9 C 0 km/h
73 02-10-2009 14:26:02 13.8 C 5.24 g/m*3 13.8 C 0 km/h
74 02-10-2009 14:38:01 13.8 C 5.36 g/m*3 13.8 C 0 km/h
75 02-10-2009 14:50:02 14.2 C 5.37 g/m*3 14.2 C 0 km/h
Sensor: Nr:Datum:Temp:Abs-Feuchte:Windchill:Wind:
Aussen-T/F 76 02-10-2009 15:02:01 14.4 C 5.44 g/m*3 14.4 C 0 km/h
77 02-10-2009 15:14:01 14.8 C 5.32 g/m*3 14.8 C 0 km/h
78 02-10-2009 15:26:02 15.2 C 5.45 g/m*3 15.2 C 0 km/h
79 02-10-2009 15:38:01 15.3 C 5.62 g/m*3 15.3 C 0 km/h
80 02-10-2009 15:50:03 14.9 C 5.48 g/m*3 14.9 C 0 km/h
81 02-10-2009 16:02:02 14.8 C 5.57 g/m*3 14.8 C 0 km/h
82 02-10-2009 16:14:02 15 C 5.39 g/m*3 15 C 0 km/h
83 02-10-2009 16:26:02 15 C 5.51 g/m*3 15 C 0 km/h
84 02-10-2009 16:38:02 14.9 C 5.61 g/m*3 14.9 C 0 km/h
85 02-10-2009 16:50:02 14.9 C 5.74 g/m*3 14.9 C 0 km/h
86 02-10-2009 17:02:01 14.8 C 5.7 g/m*3 14.8 C 0 km/h
87 02-10-2009 17:14:01 14.9 C 5.74 g/m*3 14.9 C 0 km/h
88 02-10-2009 17:26:02 14.8 C 5.57 g/m*3 14.8 C 0 km/h
89 02-10-2009 17:38:02 14.7 C 5.41 g/m*3 14.7 C 0 km/h
90 02-10-2009 17:50:01 14.7 C 5.54 g/m*3 14.7 C 0 km/h
91 02-10-2009 18:02:02 14.5 C 5.47 g/m*3 14.5 C 0 km/h
92 02-10-2009 18:14:02 14.4 C 5.69 g/m*3 14.4 C 0 km/h
93 02-10-2009 18:26:01 14.4 C 5.69 g/m*3 14.4 C 0 km/h
94 02-10-2009 18:38:02 14.6 C 5.76 g/m*3 14.6 C 0 km/h
95 02-10-2009 18:50:02 14.1 C 5.7 g/m*3 14.1 C 0 km/h
96 02-10-2009 19:02:02 14 C 5.79 g/m*3 14 C 0 km/h
97 02-10-2009 19:14:02 13.8 C 5.96 g/m*3 13.8 C 0 km/h
98 02-10-2009 19:26:01 13.7 C 6.04 g/m*3 13.7 C 0 km/h
99 02-10-2009 19:38:02 13.6 C 6 g/m*3 13.6 C 0 km/h
100 02-10-2009 19:50:02 13.5 C 6.08 g/m*3 13.5 C 0 km/h
Sensor: Nr:Datum:Temp:Abs-Feuchte:Windchill:Wind:
Aussen-T/F 101 02-10-2009 20:02:02 13.4 C 6.16 g/m*3 13.4 C 0 km/h
102 02-10-2009 20:14:02 13.1 C 6.16 g/m*3 13.1 C 0 km/h
103 02-10-2009 20:26:01 12.9 C 6.31 g/m*3 12.9 C 0 km/h
104 02-10-2009 20:38:02 12.7 C 6.35 g/m*3 12.7 C 0 km/h
105 02-10-2009 20:50:02 12.6 C 6.31 g/m*3 12.6 C 0 km/h
106 02-10-2009 21:02:02 12.6 C 6.42 g/m*3 12.6 C 0 km/h
107 02-10-2009 21:14:03 12.3 C 6.41 g/m*3 12.3 C 0 km/h
108 02-10-2009 21:26:01 12.2 C 6.47 g/m*3 12.2 C 0 km/h
109 02-10-2009 21:38:02 12 C 6.5 g/m*3 12 C 0 km/h
110 02-10-2009 21:50:02 11.9 C 6.57 g/m*3 11.9 C 0 km/h
111 02-10-2009 22:02:02 11.7 C 6.48 g/m*3 11.7 C 0 km/h
112 02-10-2009 22:14:02 11.5 C 6.61 g/m*3 11.5 C 0 km/h
113 02-10-2009 22:26:02 11 C 6.41 g/m*3 11 C 0 km/h
114 02-10-2009 22:39:04 10.8 C 6.52 g/m*3 10.8 C 0 km/h
115 02-10-2009 22:51:04 10.7 C 6.58 g/m*3 10.7 C 0 km/h
116 02-10-2009 23:03:04 10.7 C 6.68 g/m*3 10.7 C 0 km/h
117 02-10-2009 23:15:04 10.5 C 6.6 g/m*3 10.5 C 0 km/h
118 02-10-2009 23:27:05 10.2 C 6.57 g/m*3 10.2 C 0 km/h
119 02-10-2009 23:39:05 10 C 6.58 g/m*3 10 C 0 km/h
120 02-10-2009 23:51:05 9.8 C 6.68 g/m*3 9.8 C 0 km/h
121 03-10-2009 00:03:05 9.6 C 6.69 g/m*3 9.6 C 0 km/h
122 03-10-2009 00:15:05 9.5 C 6.64 g/m*3 9.5 C 0 km/h
123 03-10-2009 00:27:05 9.2 C 6.7 g/m*3 9.2 C 0 km/h
124 03-10-2009 00:39:05 9 C 6.79 g/m*3 9 C 0 km/h
125 03-10-2009 00:51:05 9.1 C 6.83 g/m*3 9.1 C 0 km/h
Sensor: Nr:Datum:Temp:Abs-Feuchte:Windchill:Wind:
Aussen-T/F 126 03-10-2009 01:03:05 8.9 C 6.83 g/m*3 8.9 C 0 km/h
127 03-10-2009 01:15:05 8.7 C 6.83 g/m*3 8.7 C 0 km/h
128 03-10-2009 01:27:05 8.6 C 6.87 g/m*3 8.6 C 0 km/h
129 03-10-2009 01:39:05 8.4 C 6.79 g/m*3 8.4 C 0 km/h
130 03-10-2009 01:51:05 8.4 C 6.87 g/m*3 8.4 C 0 km/h
131 03-10-2009 02:03:05 8.1 C 6.74 g/m*3 8.1 C 0 km/h
132 03-10-2009 02:15:05 8.1 C 6.82 g/m*3 8.1 C 0 km/h
133 03-10-2009 02:27:05 8 C 6.78 g/m*3 8 C 0 km/h
134 03-10-2009 02:39:05 7.7 C 6.73 g/m*3 7.7 C 0 km/h
135 03-10-2009 02:51:05 7.5 C 6.72 g/m*3 7.5 C 0 km/h
136 03-10-2009 03:03:06 7.4 C 6.76 g/m*3 7.4 C 0 km/h
137 03-10-2009 03:15:06 7.3 C 6.79 g/m*3 7.3 C 0 km/h
138 03-10-2009 03:27:06 7.3 C 6.79 g/m*3 7.3 C 0 km/h
139 03-10-2009 03:39:06 7.4 C 6.84 g/m*3 7.4 C 0 km/h
140 03-10-2009 03:51:06 7.1 C 6.79 g/m*3 7.1 C 0 km/h
141 03-10-2009 04:03:06 6.9 C 6.77 g/m*3 6.9 C 0 km/h
142 03-10-2009 04:15:06 6.9 C 6.77 g/m*3 6.9 C 0 km/h
143 03-10-2009 04:27:06 6.9 C 6.77 g/m*3 6.9 C 0 km/h
144 03-10-2009 04:39:06 6.8 C 6.73 g/m*3 6.8 C 0 km/h
145 03-10-2009 04:51:06 6.6 C 6.72 g/m*3 6.6 C 0 km/h
146 03-10-2009 05:03:06 6.5 C 6.67 g/m*3 6.5 C 0 km/h
147 03-10-2009 05:15:06 6.4 C 6.63 g/m*3 6.4 C 0 km/h
148 03-10-2009 05:27:06 6.4 C 6.63 g/m*3 6.4 C 0 km/h
149 03-10-2009 05:39:06 6.4 C 6.71 g/m*3 6.4 C 0 km/h
150 03-10-2009 05:51:06 6.7 C 6.91 g/m*3 6.7 C 0 km/h
Sensor: Nr:Datum:Temp:Abs-Feuchte:Windchill:Wind:
Aussen-T/F 151 03-10-2009 06:03:06 7 C 6.97 g/m*3 7 C 0 km/h
152 03-10-2009 06:15:06 7.2 C 7.06 g/m*3 7.2 C 0 km/h
153 03-10-2009 06:27:06 7.3 C 7.03 g/m*3 7.3 C 0 km/h
154 03-10-2009 06:39:06 7.4 C 7.08 g/m*3 7.4 C 0 km/h
155 03-10-2009 06:51:06 7.4 C 7 g/m*3 7.4 C 0 km/h
156 03-10-2009 07:03:07 7.4 C 6.92 g/m*3 7.4 C 0 km/h
157 03-10-2009 07:15:07 7.4 C 6.92 g/m*3 7.4 C 0 km/h
158 03-10-2009 07:27:07 7.5 C 6.96 g/m*3 7.5 C 0 km/h
159 03-10-2009 07:39:07 7.5 C 6.88 g/m*3 7.5 C 0 km/h
160 03-10-2009 07:51:07 7.6 C 7.01 g/m*3 7.6 C 0 km/h
161 03-10-2009 08:03:07 8.1 C 7.16 g/m*3 8.1 C 0 km/h
162 03-10-2009 08:15:04 8.7 C 7.01 g/m*3 8.7 C 0 km/h
163 03-10-2009 08:27:04 9.1 C 6.83 g/m*3 9.1 C 0 km/h
164 03-10-2009 08:39:04 9.4 C 6.78 g/m*3 9.4 C 0 km/h
165 03-10-2009 08:51:02 9.6 C 6.6 g/m*3 9.6 C 0 km/h
166 03-10-2009 09:03:01 9.8 C 6.68 g/m*3 9.8 C 0 km/h
167 03-10-2009 09:15:01 10 C 6.48 g/m*3 10 C 0 km/h
168 03-10-2009 09:27:01 10.2 C 6.47 g/m*3 10.2 C 0 km/h
169 03-10-2009 09:39:02 10.4 C 6.55 g/m*3 10.4 C 0 km/h
170 03-10-2009 09:51:02 10.6 C 6.54 g/m*3 10.6 C 0 km/h
171 03-10-2009 10:03:02 10.8 C 6.52 g/m*3 10.8 C 0 km/h
172 03-10-2009 10:15:02 11 C 6.51 g/m*3 11 C 0 km/h
173 03-10-2009 10:27:02 11.4 C 6.57 g/m*3 11.4 C 0 km/h
174 03-10-2009 10:39:02 11.8 C 6.53 g/m*3 11.8 C 0 km/h
175 03-10-2009 10:51:02 12.1 C 6.43 g/m*3 12.1 C 0 km/h
Sensor: Nr:Datum:Temp:Abs-Feuchte:Windchill:Wind:
Aussen-T/F 176 03-10-2009 11:03:02 12.5 C 6.49 g/m*3 12.5 C 0 km/h
177 03-10-2009 11:15:02 13.1 C 6.28 g/m*3 13.1 C 0 km/h
178 03-10-2009 11:27:02 13.4 C 6.28 g/m*3 13.4 C 0 km/h
179 03-10-2009 11:39:02 13.6 C 6.12 g/m*3 13.6 C 0 km/h
180 03-10-2009 11:51:02 13.8 C 6.08 g/m*3 13.8 C 0 km/h
181 03-10-2009 12:03:02 14.1 C 6.07 g/m*3 14.1 C 0 km/h
182 03-10-2009 12:15:03 14.4 C 6.06 g/m*3 14.4 C 0 km/h
183 03-10-2009 12:27:03 14.7 C 6.17 g/m*3 14.7 C 0 km/h
184 03-10-2009 12:39:02 15.1 C 6.19 g/m*3 15.1 C 0 km/h
185 03-10-2009 12:51:02 15.4 C 6.04 g/m*3 15.4 C 0 km/h
186 03-10-2009 13:03:02 15.1 C 6.06 g/m*3 15.1 C 0 km/h
187 03-10-2009 13:15:03 15.1 C 6.06 g/m*3 15.1 C 0 km/h
188 03-10-2009 13:27:03 14.9 C 6.12 g/m*3 14.9 C 0 km/h
189 03-10-2009 13:39:02 15.3 C 6.14 g/m*3 15.3 C 0 km/h
190 03-10-2009 13:51:02 15.2 C 6.1 g/m*3 15.2 C 0 km/h
191 03-10-2009 14:03:02 15.3 C 6.01 g/m*3 15.3 C 0 km/h
192 03-10-2009 14:15:02 15.3 C 6.14 g/m*3 15.3 C 0 km/h
193 03-10-2009 14:27:03 15.8 C 6.06 g/m*3 15.8 C 0 km/h
194 03-10-2009 14:39:02 16.1 C 6.03 g/m*3 16.1 C 0 km/h
195 03-10-2009 14:51:02 15.8 C 6.06 g/m*3 15.8 C 0 km/h
196 03-10-2009 15:03:01 15.8 C 6.06 g/m*3 15.8 C 0 km/h
197 03-10-2009 15:15:02 15.9 C 6.09 g/m*3 15.9 C 0 km/h
198 03-10-2009 15:27:02 16.3 C 5.97 g/m*3 16.3 C 0 km/h
199 03-10-2009 15:39:02 16.1 C 6.03 g/m*3 16.1 C 0 km/h
200 03-10-2009 15:51:02 15.7 C 6.15 g/m*3 15.7 C 0 km/h
Sensor: Nr:Datum:Temp:Abs-Feuchte:Windchill:Wind:
Aussen-T/F 201 03-10-2009 16:03:03 15.7 C 6.15 g/m*3 15.7 C 0 km/h
202 03-10-2009 16:15:02 15.6 C 6.12 g/m*3 15.6 C 0 km/h
203 03-10-2009 16:27:02 15.4 C 6.04 g/m*3 15.4 C 0 km/h
204 03-10-2009 16:39:02 15.3 C 6.01 g/m*3 15.3 C 0 km/h
205 03-10-2009 16:51:02 15.2 C 6.1 g/m*3 15.2 C 0 km/h
206 03-10-2009 17:03:02 15.2 C 6.1 g/m*3 15.2 C 0 km/h
207 03-10-2009 17:15:01 15.4 C 6.04 g/m*3 15.4 C 0 km/h
208 03-10-2009 17:27:01 15.5 C 6.08 g/m*3 15.5 C 0 km/h
209 03-10-2009 17:39:02 15.6 C 6.12 g/m*3 15.6 C 0 km/h
210 03-10-2009 17:51:02 15.5 C 6.08 g/m*3 15.5 C 0 km/h
211 03-10-2009 18:03:02 15.4 C 6.04 g/m*3 15.4 C 0 km/h
212 03-10-2009 18:15:01 15.4 C 6.04 g/m*3 15.4 C 0 km/h
213 03-10-2009 18:27:01 15.7 C 6.15 g/m*3 15.7 C 0 km/h
214 03-10-2009 18:39:02 15.7 C 6.15 g/m*3 15.7 C 0 km/h
215 03-10-2009 18:51:01 15.3 C 6.14 g/m*3 15.3 C 0 km/h
216 03-10-2009 19:03:02 15 C 6.15 g/m*3 15 C 0 km/h
217 03-10-2009 19:15:02 14.8 C 6.46 g/m*3 14.8 C 0 km/h
218 03-10-2009 19:27:02 14.6 C 6.51 g/m*3 14.6 C 0 km/h
219 03-10-2009 19:39:02 14.5 C 6.47 g/m*3 14.5 C 0 km/h
220 03-10-2009 19:51:02 14.6 C 6.63 g/m*3 14.6 C 0 km/h
221 03-10-2009 20:03:01 14.3 C 6.63 g/m*3 14.3 C 0 km/h
222 03-10-2009 20:15:02 13.9 C 6.71 g/m*3 13.9 C 0 km/h
223 03-10-2009 20:27:02 13.4 C 6.74 g/m*3 13.4 C 0 km/h
224 03-10-2009 20:39:01 13 C 6.8 g/m*3 13 C 0 km/h
225 03-10-2009 20:51:02 12.8 C 6.94 g/m*3 12.8 C 0 km/h
Sensor: Nr:Datum:Temp:Abs-Feuchte:Windchill:Wind:
Aussen-T/F 226 03-10-2009 21:03:02 13 C 6.92 g/m*3 13 C 0 km/h
227 03-10-2009 21:15:01 13 C 6.92 g/m*3 13 C 0 km/h
228 03-10-2009 21:27:01 12.9 C 7.1 g/m*3 12.9 C 0 km/h
229 03-10-2009 21:39:01 13.1 C 6.96 g/m*3 13.1 C 0 km/h
230 03-10-2009 21:51:01 13.1 C 6.96 g/m*3 13.1 C 0 km/h
231 03-10-2009 22:03:01 13.1 C 6.96 g/m*3 13.1 C 0 km/h
232 03-10-2009 22:15:02 13.2 C 7.12 g/m*3 13.2 C 0 km/h
233 03-10-2009 22:27:02 13.3 C 6.93 g/m*3 13.3 C 0 km/h
234 03-10-2009 22:39:01 13.4 C 6.97 g/m*3 13.4 C 0 km/h
235 03-10-2009 22:52:03 13.7 C 6.63 g/m*3 13.7 C 0 km/h
236 03-10-2009 23:04:03 14 C 6.39 g/m*3 14 C 0 km/h
237 03-10-2009 23:16:03 14 C 6.39 g/m*3 14 C 0 km/h
238 03-10-2009 23:28:03 14 C 6.39 g/m*3 14 C 0 km/h
239 03-10-2009 23:40:03 14 C 6.39 g/m*3 14 C 0 km/h
240 03-10-2009 23:52:03 13.9 C 6.47 g/m*3 13.9 C 0 km/h
241 04-10-2009 00:04:03 13.9 C 6.47 g/m*3 13.9 C 0 km/h
242 04-10-2009 00:16:03 13.8 C 6.55 g/m*3 13.8 C 0 km/h
243 04-10-2009 00:28:03 13.8 C 6.43 g/m*3 13.8 C 0 km/h
244 04-10-2009 00:40:03 13.7 C 6.51 g/m*3 13.7 C 0 km/h
245 04-10-2009 00:52:03 13.5 C 6.43 g/m*3 13.5 C 0 km/h
246 04-10-2009 01:04:04 13.2 C 6.32 g/m*3 13.2 C 0 km/h
247 04-10-2009 01:16:04 13.2 C 6.32 g/m*3 13.2 C 0 km/h
248 04-10-2009 01:28:04 13.2 C 6.32 g/m*3 13.2 C 0 km/h
249 04-10-2009 01:40:04 12.9 C 6.31 g/m*3 12.9 C 0 km/h
250 04-10-2009 01:52:04 13 C 6.35 g/m*3 13 C 0 km/h
Sensor: Nr:Datum:Temp:Abs-Feuchte:Windchill:Wind:
Aussen-T/F 251 04-10-2009 02:04:04 13.2 C 6.32 g/m*3 13.2 C 0 km/h
252 04-10-2009 02:16:04 13.3 C 6.24 g/m*3 13.3 C 0 km/h
253 04-10-2009 02:28:04 13.3 C 6.35 g/m*3 13.3 C 0 km/h
254 04-10-2009 02:40:04 13.2 C 6.32 g/m*3 13.2 C 0 km/h
255 04-10-2009 02:52:04 13.1 C 6.28 g/m*3 13.1 C 0 km/h
256 04-10-2009 03:04:04 12.9 C 6.42 g/m*3 12.9 C 0 km/h
257 04-10-2009 03:16:04 12.8 C 6.38 g/m*3 12.8 C 0 km/h
258 04-10-2009 03:28:04 12.7 C 6.35 g/m*3 12.7 C 0 km/h
259 04-10-2009 03:40:04 12.6 C 6.42 g/m*3 12.6 C 0 km/h
260 04-10-2009 03:52:04 12.8 C 6.38 g/m*3 12.8 C 0 km/h
261 04-10-2009 04:04:04 12.7 C 6.46 g/m*3 12.7 C 0 km/h
262 04-10-2009 04:16:04 12.6 C 6.53 g/m*3 12.6 C 0 km/h
263 04-10-2009 04:28:04 12.7 C 6.46 g/m*3 12.7 C 0 km/h
264 04-10-2009 04:40:04 12.8 C 6.5 g/m*3 12.8 C 0 km/h
265 04-10-2009 04:52:04 12.7 C 6.57 g/m*3 12.7 C 0 km/h
266 04-10-2009 05:04:04 12.6 C 6.53 g/m*3 12.6 C 0 km/h
267 04-10-2009 05:16:05 12.9 C 6.65 g/m*3 12.9 C 0 km/h
268 04-10-2009 05:28:05 13 C 6.58 g/m*3 13 C 0 km/h
269 04-10-2009 05:40:05 13.1 C 6.5 g/m*3 13.1 C 0 km/h
270 04-10-2009 05:52:05 13.2 C 6.54 g/m*3 13.2 C 0 km/h
271 04-10-2009 06:04:05 13.1 C 6.5 g/m*3 13.1 C 0 km/h
272 04-10-2009 06:16:05 13.1 C 6.5 g/m*3 13.1 C 0 km/h
273 04-10-2009 06:28:05 13.1 C 6.5 g/m*3 13.1 C 0 km/h
274 04-10-2009 06:40:05 13 C 6.46 g/m*3 13 C 0 km/h
275 04-10-2009 06:52:05 12.8 C 6.61 g/m*3 12.8 C 0 km/h
Sensor: Nr:Datum:Temp:Abs-Feuchte:Windchill:Wind:
Aussen-T/F 276 04-10-2009 07:04:05 12.9 C 6.65 g/m*3 12.9 C 0 km/h
277 04-10-2009 07:16:05 13 C 6.46 g/m*3 13 C 0 km/h
278 04-10-2009 07:28:05 13 C 6.58 g/m*3 13 C 0 km/h
279 04-10-2009 07:40:05 12.9 C 6.65 g/m*3 12.9 C 0 km/h
280 04-10-2009 07:52:05 12.8 C 6.61 g/m*3 12.8 C 0 km/h
281 04-10-2009 08:04:05 12.9 C 6.76 g/m*3 12.9 C 0 km/h
282 04-10-2009 08:16:05 12.9 C 6.76 g/m*3 12.9 C 0 km/h
283 04-10-2009 08:28:05 13 C 6.69 g/m*3 13 C 0 km/h
284 04-10-2009 08:40:03 13.1 C 6.62 g/m*3 13.1 C 0 km/h
285 04-10-2009 08:52:02 13.3 C 6.7 g/m*3 13.3 C 0 km/h
286 04-10-2009 09:04:02 13.5 C 6.78 g/m*3 13.5 C 0 km/h
287 04-10-2009 09:16:02 13.7 C 6.87 g/m*3 13.7 C 0 km/h
288 04-10-2009 09:28:02 13.8 C 6.91 g/m*3 13.8 C 0 km/h
289 04-10-2009 09:40:02 13.8 C 6.91 g/m*3 13.8 C 0 km/h
290 04-10-2009 09:52:01 13.9 C 7.07 g/m*3 13.9 C 0 km/h
291 04-10-2009 10:04:02 14.1 C 7.04 g/m*3 14.1 C 0 km/h
292 04-10-2009 10:16:01 14.2 C 6.96 g/m*3 14.2 C 0 km/h
293 04-10-2009 10:28:01 14.6 C 7.13 g/m*3 14.6 C 0 km/h
294 04-10-2009 10:40:01 14.8 C 7.09 g/m*3 14.8 C 0 km/h
295 04-10-2009 10:52:01 14.8 C 7.09 g/m*3 14.8 C 0 km/h
296 04-10-2009 11:04:02 14.7 C 7.18 g/m*3 14.7 C 0 km/h
297 04-10-2009 11:16:01 14.9 C 7.26 g/m*3 14.9 C 0 km/h
298 04-10-2009 11:28:01 15.3 C 7.31 g/m*3 15.3 C 0 km/h
299 04-10-2009 11:40:02 15 C 7.18 g/m*3 15 C 0 km/h
300 04-10-2009 11:52:01 14.8 C 7.47 g/m*3 14.8 C 0 km/h
Sensor: Nr:Datum:Temp:Abs-Feuchte:Windchill:Wind:
Aussen-T/F 301 04-10-2009 12:04:02 14.8 C 7.47 g/m*3 14.8 C 0 km/h
302 04-10-2009 12:16:02 14.7 C 7.55 g/m*3 14.7 C 0 km/h
303 04-10-2009 12:28:02 14.7 C 7.55 g/m*3 14.7 C 0 km/h
304 04-10-2009 12:40:01 14.9 C 7.65 g/m*3 14.9 C 0 km/h
305 04-10-2009 12:52:01 15.3 C 7.84 g/m*3 15.3 C 0 km/h
306 04-10-2009 13:04:01 15.6 C 7.58 g/m*3 15.6 C 0 km/h
307 04-10-2009 13:16:02 15.8 C 7.54 g/m*3 15.8 C 0 km/h
308 04-10-2009 13:28:02 15.5 C 7.67 g/m*3 15.5 C 0 km/h
309 04-10-2009 13:40:01 15.4 C 7.62 g/m*3 15.4 C 0 km/h
310 04-10-2009 13:52:02 15.6 C 7.58 g/m*3 15.6 C 0 km/h
311 04-10-2009 14:04:01 15.8 C 7.81 g/m*3 15.8 C 0 km/h
312 04-10-2009 14:16:01 15.9 C 7.72 g/m*3 15.9 C 0 km/h
313 04-10-2009 14:28:01 15.8 C 7.67 g/m*3 15.8 C 0 km/h
314 04-10-2009 14:40:01 15.6 C 7.58 g/m*3 15.6 C 0 km/h
315 04-10-2009 14:52:02 15.9 C 7.72 g/m*3 15.9 C 0 km/h
316 04-10-2009 15:04:02 16.2 C 7.58 g/m*3 16.2 C 0 km/h
317 04-10-2009 15:16:02 16 C 7.63 g/m*3 16 C 0 km/h
318 04-10-2009 15:28:02 15.8 C 7.81 g/m*3 15.8 C 0 km/h
319 04-10-2009 15:40:02 15.8 C 7.81 g/m*3 15.8 C 0 km/h
320 04-10-2009 15:52:02 15.8 C 7.81 g/m*3 15.8 C 0 km/h
321 04-10-2009 16:04:01 15.6 C 7.98 g/m*3 15.6 C 0 km/h
322 04-10-2009 16:16:01 14.6 C 8.76 g/m*3 14.6 C 0 km/h
323 04-10-2009 16:28:01 13.6 C 9.53 g/m*3 13.6 C 0 km/h
324 04-10-2009 16:40:02 13.2 C 9.76 g/m*3 13.2 C 0 km/h
325 04-10-2009 16:52:02 13.3 C 10.05 g/m*3 13.3 C 0 km/h
Sensor: Nr:Datum:Temp:Abs-Feuchte:Windchill:Wind:
Aussen-T/F 326 04-10-2009 17:04:02 13.3 C 10.17 g/m*3 13.3 C 0 km/h
327 04-10-2009 17:16:01 13.2 C 10.1 g/m*3 13.2 C 0 km/h
328 04-10-2009 17:28:01 13.3 C 10.28 g/m*3 13.3 C 0 km/h
329 04-10-2009 17:40:02 13.2 C 10.22 g/m*3 13.2 C 0 km/h
330 04-10-2009 17:52:02 13.2 C 10.22 g/m*3 13.2 C 0 km/h
331 04-10-2009 18:04:02 13.1 C 10.27 g/m*3 13.1 C 0 km/h
332 04-10-2009 18:16:02 13.1 C 10.27 g/m*3 13.1 C 0 km/h
333 04-10-2009 18:28:02 12.9 C 10.14 g/m*3 12.9 C 0 km/h
334 04-10-2009 18:40:02 12.8 C 10.08 g/m*3 12.8 C 0 km/h
335 04-10-2009 18:52:02 12.9 C 10.14 g/m*3 12.9 C 0 km/h
336 04-10-2009 19:04:02 12.9 C 10.14 g/m*3 12.9 C 0 km/h
337 04-10-2009 19:16:03 12.9 C 10.14 g/m*3 12.9 C 0 km/h
338 04-10-2009 19:28:03 13 C 10.21 g/m*3 13 C 0 km/h
339 04-10-2009 19:40:02 13 C 10.21 g/m*3 13 C 0 km/h
340 04-10-2009 19:52:02 13 C 10.09 g/m*3 13 C 0 km/h
341 04-10-2009 20:04:02 12.9 C 10.03 g/m*3 12.9 C 0 km/h
342 04-10-2009 20:16:02 12.6 C 9.85 g/m*3 12.6 C 0 km/h
343 04-10-2009 20:28:02 12.5 C 9.78 g/m*3 12.5 C 0 km/h
344 04-10-2009 20:40:02 12.4 C 9.83 g/m*3 12.4 C 0 km/h
345 04-10-2009 20:52:02 12.2 C 9.71 g/m*3 12.2 C 0 km/h
346 04-10-2009 21:04:02 12.2 C 9.71 g/m*3 12.2 C 0 km/h
347 04-10-2009 21:16:01 12.2 C 9.82 g/m*3 12.2 C 0 km/h
348 04-10-2009 21:28:01 12.2 C 9.82 g/m*3 12.2 C 0 km/h
349 04-10-2009 21:40:02 12.2 C 9.82 g/m*3 12.2 C 0 km/h
350 04-10-2009 21:52:01 12.2 C 9.82 g/m*3 12.2 C 0 km/h
Sensor: Nr:Datum:Temp:Abs-Feuchte:Windchill:Wind:
Aussen-T/F 351 04-10-2009 22:04:02 12.2 C 9.82 g/m*3 12.2 C 0 km/h
352 04-10-2009 22:16:02 12.2 C 9.93 g/m*3 12.2 C 0 km/h
353 04-10-2009 22:28:02 12.1 C 9.87 g/m*3 12.1 C 0 km/h
354 04-10-2009 22:41:03 12.1 C 9.87 g/m*3 12.1 C 0 km/h
355 04-10-2009 22:53:03 12.1 C 9.87 g/m*3 12.1 C 0 km/h
356 04-10-2009 23:05:03 12.1 C 9.87 g/m*3 12.1 C 0 km/h
357 04-10-2009 23:17:03 12.1 C 9.87 g/m*3 12.1 C 0 km/h
358 04-10-2009 23:29:03 12.1 C 9.87 g/m*3 12.1 C 0 km/h
359 04-10-2009 23:41:03 12.1 C 9.76 g/m*3 12.1 C 0 km/h
360 04-10-2009 23:53:03 12.1 C 9.76 g/m*3 12.1 C 0 km/h
361 05-10-2009 00:05:03 11.9 C 9.74 g/m*3 11.9 C 0 km/h
362 05-10-2009 00:17:04 11.9 C 9.74 g/m*3 11.9 C 0 km/h
363 05-10-2009 00:29:04 11.9 C 9.74 g/m*3 11.9 C 0 km/h
364 05-10-2009 00:41:04 11.9 C 9.74 g/m*3 11.9 C 0 km/h
365 05-10-2009 00:53:04 11.8 C 9.68 g/m*3 11.8 C 0 km/h
366 05-10-2009 01:05:04 11.7 C 9.62 g/m*3 11.7 C 0 km/h
367 05-10-2009 01:17:04 11.7 C 9.62 g/m*3 11.7 C 0 km/h
368 05-10-2009 01:29:04 11.6 C 9.56 g/m*3 11.6 C 0 km/h
369 05-10-2009 01:41:04 11.6 C 9.56 g/m*3 11.6 C 0 km/h
370 05-10-2009 01:53:04 11.5 C 9.61 g/m*3 11.5 C 0 km/h
371 05-10-2009 02:05:04 11.3 C 9.49 g/m*3 11.3 C 0 km/h
372 05-10-2009 02:17:04 11.2 C 9.43 g/m*3 11.2 C 0 km/h
373 05-10-2009 02:29:04 11.2 C 9.43 g/m*3 11.2 C 0 km/h
374 05-10-2009 02:41:04 11 C 9.31 g/m*3 11 C 0 km/h
375 05-10-2009 02:53:04 11 C 9.31 g/m*3 11 C 0 km/h
Sensor: Nr:Datum:Temp:Abs-Feuchte:Windchill:Wind:
Aussen-T/F 376 05-10-2009 03:05:04 11 C 9.31 g/m*3 11 C 0 km/h
377 05-10-2009 03:17:04 11.1 C 9.47 g/m*3 11.1 C 0 km/h
378 05-10-2009 03:29:04 11.1 C 9.47 g/m*3 11.1 C 0 km/h
379 05-10-2009 03:41:04 11.1 C 9.47 g/m*3 11.1 C 0 km/h
380 05-10-2009 03:53:04 11.2 C 9.53 g/m*3 11.2 C 0 km/h
381 05-10-2009 04:05:04 11.3 C 9.59 g/m*3 11.3 C 0 km/h
382 05-10-2009 04:17:04 11.2 C 9.53 g/m*3 11.2 C 0 km/h
383 05-10-2009 04:29:05 11.2 C 9.53 g/m*3 11.2 C 0 km/h
384 05-10-2009 04:41:05 11.1 C 9.47 g/m*3 11.1 C 0 km/h
385 05-10-2009 04:53:05 11.1 C 9.47 g/m*3 11.1 C 0 km/h
386 05-10-2009 05:05:05 11 C 9.41 g/m*3 11 C 0 km/h
387 05-10-2009 05:17:05 11 C 9.41 g/m*3 11 C 0 km/h
388 05-10-2009 05:29:05 11 C 9.41 g/m*3 11 C 0 km/h
389 05-10-2009 05:41:05 11 C 9.41 g/m*3 11 C 0 km/h
390 05-10-2009 05:53:05 11 C 9.51 g/m*3 11 C 0 km/h
391 05-10-2009 06:05:05 11 C 9.41 g/m*3 11 C 0 km/h
392 05-10-2009 06:17:05 11.1 C 9.57 g/m*3 11.1 C 0 km/h
393 05-10-2009 06:29:05 11.1 C 9.57 g/m*3 11.1 C 0 km/h
394 05-10-2009 06:41:05 11.1 C 9.57 g/m*3 11.1 C 0 km/h
395 05-10-2009 06:53:05 11.1 C 9.57 g/m*3 11.1 C 0 km/h
396 05-10-2009 07:05:03 11.1 C 9.57 g/m*3 11.1 C 0 km/h
397 05-10-2009 07:17:03 11.1 C 9.57 g/m*3 11.1 C 0 km/h
398 05-10-2009 07:29:03 11.1 C 9.57 g/m*3 11.1 C 0 km/h
399 05-10-2009 07:41:03 11.2 C 9.63 g/m*3 11.2 C 0 km/h
400 05-10-2009 07:53:02 11.2 C 9.63 g/m*3 11.2 C 0 km/h
Sensor: Nr:Datum:Temp:Abs-Feuchte:Windchill:Wind:
Aussen-T/F 401 05-10-2009 08:05:02 11.3 C 9.69 g/m*3 11.3 C 0 km/h
402 05-10-2009 08:17:03 11.4 C 9.75 g/m*3 11.4 C 0 km/h
403 05-10-2009 08:29:03 11.4 C 9.75 g/m*3 11.4 C 0 km/h
404 05-10-2009 08:41:02 11.6 C 9.87 g/m*3 11.6 C 0 km/h
405 05-10-2009 08:53:01 11.8 C 10 g/m*3 11.8 C 0 km/h
406 05-10-2009 09:05:01 11.9 C 10.06 g/m*3 11.9 C 0 km/h
407 05-10-2009 09:17:02 12.1 C 10.19 g/m*3 12.1 C 0 km/h
408 05-10-2009 09:29:02 12.2 C 10.25 g/m*3 12.2 C 0 km/h
409 05-10-2009 09:41:01 12.3 C 10.32 g/m*3 12.3 C 0 km/h
410 05-10-2009 09:53:02 12.4 C 10.38 g/m*3 12.4 C 0 km/h
411 05-10-2009 10:05:01 12.8 C 10.64 g/m*3 12.8 C 0 km/h
412 05-10-2009 10:17:02 13 C 10.66 g/m*3 13 C 0 km/h
413 05-10-2009 10:29:02 13.2 C 10.79 g/m*3 13.2 C 0 km/h
414 05-10-2009 10:41:01 13.2 C 10.68 g/m*3 13.2 C 0 km/h
415 05-10-2009 10:53:02 13.4 C 10.69 g/m*3 13.4 C 0 km/h
416 05-10-2009 11:05:02 13.3 C 10.4 g/m*3 13.3 C 0 km/h
417 05-10-2009 11:17:02 13.4 C 10 g/m*3 13.4 C 0 km/h
418 05-10-2009 11:29:02 13.8 C 10.13 g/m*3 13.8 C 0 km/h
419 05-10-2009 11:41:02 14.2 C 10.26 g/m*3 14.2 C 0 km/h
420 05-10-2009 11:53:02 14.1 C 10.07 g/m*3 14.1 C 0 km/h
421 05-10-2009 12:05:01 14.6 C 10.39 g/m*3 14.6 C 0 km/h
422 05-10-2009 12:17:02 15.2 C 10.25 g/m*3 15.2 C 0 km/h
423 05-10-2009 12:29:02 15.4 C 9.99 g/m*3 15.4 C 0 km/h
424 05-10-2009 12:41:02 15.5 C 9.91 g/m*3 15.5 C 0 km/h
425 05-10-2009 12:53:02 15.4 C 9.85 g/m*3 15.4 C 0 km/h
Sensor: Nr:Datum:Temp:Abs-Feuchte:Windchill:Wind:
Aussen-T/F 426 05-10-2009 13:05:03 15.3 C 10.06 g/m*3 15.3 C 0 km/h
427 05-10-2009 13:17:02 14.9 C 10.07 g/m*3 14.9 C 0 km/h
428 05-10-2009 13:29:02 14.8 C 10.26 g/m*3 14.8 C 0 km/h
429 05-10-2009 13:41:02 14.7 C 10.2 g/m*3 14.7 C 0 km/h
430 05-10-2009 13:53:01 14.7 C 10.45 g/m*3 14.7 C 0 km/h
431 05-10-2009 14:05:02 14.7 C 10.45 g/m*3 14.7 C 0 km/h
432 05-10-2009 14:17:01 14.6 C 10.51 g/m*3 14.6 C 0 km/h
433 05-10-2009 14:29:01 14.4 C 10.26 g/m*3 14.4 C 0 km/h
434 05-10-2009 14:41:02 14.3 C 10.2 g/m*3 14.3 C 0 km/h
435 05-10-2009 14:53:01 14.1 C 10.19 g/m*3 14.1 C 0 km/h
436 05-10-2009 15:05:02 14 C 10.13 g/m*3 14 C 0 km/h
437 05-10-2009 15:17:02 13.6 C 10 g/m*3 13.6 C 0 km/h
438 05-10-2009 15:29:02 13.5 C 10.18 g/m*3 13.5 C 0 km/h
439 05-10-2009 15:41:01 13.5 C 10.29 g/m*3 13.5 C 0 km/h
440 05-10-2009 15:53:01 13.7 C 10.54 g/m*3 13.7 C 0 km/h
441 05-10-2009 16:05:02 13.8 C 10.6 g/m*3 13.8 C 0 km/h
442 05-10-2009 16:17:02 13.5 C 10.53 g/m*3 13.5 C 0 km/h
443 05-10-2009 16:29:02 13.4 C 10.46 g/m*3 13.4 C 0 km/h
444 05-10-2009 16:41:01 13.2 C 10.33 g/m*3 13.2 C 0 km/h
445 05-10-2009 16:53:02 13.1 C 10.38 g/m*3 13.1 C 0 km/h
446 05-10-2009 17:05:01 13 C 10.32 g/m*3 13 C 0 km/h
447 05-10-2009 17:17:02 12.7 C 10.24 g/m*3 12.7 C 0 km/h
448 05-10-2009 17:29:02 12.4 C 10.05 g/m*3 12.4 C 0 km/h
449 05-10-2009 17:41:01 12.3 C 9.99 g/m*3 12.3 C 0 km/h
450 05-10-2009 17:53:02 12.1 C 9.87 g/m*3 12.1 C 0 km/h
Sensor: Nr:Datum:Temp:Abs-Feuchte:Windchill:Wind:
Aussen-T/F 451 05-10-2009 18:05:02 12.2 C 9.82 g/m*3 12.2 C 0 km/h
452 05-10-2009 18:17:02 12 C 9.8 g/m*3 12 C 0 km/h
453 05-10-2009 18:29:02 12 C 9.8 g/m*3 12 C 0 km/h
454 05-10-2009 18:41:02 12 C 9.8 g/m*3 12 C 0 km/h
455 05-10-2009 18:53:02 12 C 9.91 g/m*3 12 C 0 km/h
456 05-10-2009 19:05:01 12 C 9.91 g/m*3 12 C 0 km/h
457 05-10-2009 19:17:01 12 C 9.91 g/m*3 12 C 0 km/h
458 05-10-2009 19:29:01 12 C 9.91 g/m*3 12 C 0 km/h
459 05-10-2009 19:41:02 12 C 10.02 g/m*3 12 C 0 km/h
460 05-10-2009 19:53:02 12 C 10.02 g/m*3 12 C 0 km/h
461 05-10-2009 20:05:02 12 C 10.02 g/m*3 12 C 0 km/h
462 05-10-2009 20:17:02 12 C 10.02 g/m*3 12 C 0 km/h
463 05-10-2009 20:29:02 12 C 10.02 g/m*3 12 C 0 km/h
464 05-10-2009 20:41:02 12 C 10.02 g/m*3 12 C 0 km/h
465 05-10-2009 20:53:01 12.3 C 10.32 g/m*3 12.3 C 0 km/h
466 05-10-2009 21:05:01 12.2 C 10.25 g/m*3 12.2 C 0 km/h
467 05-10-2009 21:17:02 12.1 C 10.19 g/m*3 12.1 C 0 km/h
468 05-10-2009 21:29:02 12.1 C 10.19 g/m*3 12.1 C 0 km/h
469 05-10-2009 21:41:01 12.2 C 10.25 g/m*3 12.2 C 0 km/h
470 05-10-2009 21:53:03 12.2 C 10.25 g/m*3 12.2 C 0 km/h
471 05-10-2009 22:05:02 12.2 C 10.25 g/m*3 12.2 C 0 km/h
472 05-10-2009 22:18:02 12.3 C 10.32 g/m*3 12.3 C 0 km/h
473 05-10-2009 22:30:02 12.3 C 10.32 g/m*3 12.3 C 0 km/h
474 05-10-2009 22:42:03 12.3 C 10.32 g/m*3 12.3 C 0 km/h
475 05-10-2009 22:54:03 12.4 C 10.38 g/m*3 12.4 C 0 km/h
Sensor: Nr:Datum:Temp:Abs-Feuchte:Windchill:Wind:
Aussen-T/F 476 05-10-2009 23:06:03 12.4 C 10.38 g/m*3 12.4 C 0 km/h
477 05-10-2009 23:18:03 12.4 C 10.38 g/m*3 12.4 C 0 km/h
478 05-10-2009 23:30:03 12.4 C 10.38 g/m*3 12.4 C 0 km/h
479 05-10-2009 23:42:03 12.5 C 10.44 g/m*3 12.5 C 0 km/h
480 05-10-2009 23:54:03 12.5 C 10.44 g/m*3 12.5 C 0 km/h
481 06-10-2009 00:06:03 12.6 C 10.51 g/m*3 12.6 C 0 km/h
482 06-10-2009 00:18:03 12.6 C 10.51 g/m*3 12.6 C 0 km/h
483 06-10-2009 00:30:03 12.6 C 10.51 g/m*3 12.6 C 0 km/h
484 06-10-2009 00:42:03 12.7 C 10.58 g/m*3 12.7 C 0 km/h
485 06-10-2009 00:54:03 12.6 C 10.51 g/m*3 12.6 C 0 km/h
486 06-10-2009 01:06:03 12.6 C 10.51 g/m*3 12.6 C 0 km/h
487 06-10-2009 01:18:03 12.7 C 10.58 g/m*3 12.7 C 0 km/h
488 06-10-2009 01:30:03 12.8 C 10.64 g/m*3 12.8 C 0 km/h
489 06-10-2009 01:42:03 12.8 C 10.64 g/m*3 12.8 C 0 km/h
490 06-10-2009 01:54:03 12.9 C 10.71 g/m*3 12.9 C 0 km/h
491 06-10-2009 02:06:03 12.9 C 10.71 g/m*3 12.9 C 0 km/h
492 06-10-2009 02:18:03 12.8 C 10.64 g/m*3 12.8 C 0 km/h
493 06-10-2009 02:30:03 12.9 C 10.71 g/m*3 12.9 C 0 km/h
494 06-10-2009 02:42:04 13 C 10.77 g/m*3 13 C 0 km/h
495 06-10-2009 02:54:04 13 C 10.77 g/m*3 13 C 0 km/h
496 06-10-2009 03:06:04 13 C 10.77 g/m*3 13 C 0 km/h
497 06-10-2009 03:18:04 12.9 C 10.71 g/m*3 12.9 C 0 km/h
498 06-10-2009 03:30:04 13.1 C 10.84 g/m*3 13.1 C 0 km/h
499 06-10-2009 03:42:04 13.2 C 10.91 g/m*3 13.2 C 0 km/h
500 06-10-2009 03:54:04 13.5 C 11.11 g/m*3 13.5 C 0 km/h
Sensor: Nr:Datum:Temp:Abs-Feuchte:Windchill:Wind:
Aussen-T/F 501 06-10-2009 04:06:04 13.7 C 11.25 g/m*3 13.7 C 0 km/h
502 06-10-2009 04:18:04 14.4 C 11.74 g/m*3 14.4 C 0 km/h
503 06-10-2009 04:30:04 14.9 C 12.11 g/m*3 14.9 C 0 km/h
504 06-10-2009 04:42:04 14.3 C 11.67 g/m*3 14.3 C 0 km/h
505 06-10-2009 04:54:04 14.2 C 11.6 g/m*3 14.2 C 0 km/h
506 06-10-2009 05:06:04 14.5 C 11.82 g/m*3 14.5 C 0 km/h
507 06-10-2009 05:18:04 14.7 C 11.96 g/m*3 14.7 C 0 km/h
508 06-10-2009 05:30:04 15.2 C 12.33 g/m*3 15.2 C 0 km/h
509 06-10-2009 05:42:04 15.3 C 12.41 g/m*3 15.3 C 0 km/h
510 06-10-2009 05:54:04 15.2 C 12.33 g/m*3 15.2 C 0 km/h
511 06-10-2009 06:06:04 15.2 C 12.33 g/m*3 15.2 C 0 km/h
512 06-10-2009 06:18:04 15.2 C 12.33 g/m*3 15.2 C 0 km/h
513 06-10-2009 06:30:05 15.2 C 12.33 g/m*3 15.2 C 0 km/h
514 06-10-2009 06:42:05 15.2 C 12.33 g/m*3 15.2 C 0 km/h
515 06-10-2009 06:54:05 15.2 C 12.33 g/m*3 15.2 C 0 km/h
516 06-10-2009 07:06:01 15.3 C 12.41 g/m*3 15.3 C 0 km/h
517 06-10-2009 07:18:02 15.4 C 12.35 g/m*3 15.4 C 0 km/h
518 06-10-2009 07:30:02 15.4 C 12.22 g/m*3 15.4 C 0 km/h
519 06-10-2009 07:42:01 15.3 C 12.01 g/m*3 15.3 C 0 km/h
520 06-10-2009 07:54:02 15.2 C 11.94 g/m*3 15.2 C 0 km/h
521 06-10-2009 08:06:02 15.1 C 11.87 g/m*3 15.1 C 0 km/h
522 06-10-2009 08:18:02 15.1 C 11.87 g/m*3 15.1 C 0 km/h
523 06-10-2009 08:30:02 15 C 11.8 g/m*3 15 C 0 km/h
524 06-10-2009 08:42:02 15.2 C 11.94 g/m*3 15.2 C 0 km/h
525 06-10-2009 08:54:02 15.3 C 12.14 g/m*3 15.3 C 0 km/h
Sensor: Nr:Datum:Temp:Abs-Feuchte:Windchill:Wind:
Aussen-T/F 526 06-10-2009 09:06:02 15.3 C 12.01 g/m*3 15.3 C 0 km/h
527 06-10-2009 09:18:02 15.2 C 11.94 g/m*3 15.2 C 0 km/h
528 06-10-2009 09:30:02 15.1 C 11.87 g/m*3 15.1 C 0 km/h
529 06-10-2009 09:42:02 15.4 C 12.09 g/m*3 15.4 C 0 km/h
530 06-10-2009 09:54:02 15.7 C 12.31 g/m*3 15.7 C 0 km/h
531 06-10-2009 10:06:02 15.8 C 12.25 g/m*3 15.8 C 0 km/h
532 06-10-2009 10:18:02 16.3 C 12.49 g/m*3 16.3 C 0 km/h
533 06-10-2009 10:30:02 16.5 C 12.5 g/m*3 16.5 C 0 km/h
534 06-10-2009 10:42:02 16.7 C 12.51 g/m*3 16.7 C 0 km/h
535 06-10-2009 10:54:02 17 C 11.14 g/m*3 17 C 0 km/h
536 06-10-2009 11:06:03 17.6 C 10.5 g/m*3 17.6 C 0 km/h
537 06-10-2009 11:18:03 17.7 C 10.41 g/m*3 17.7 C 0 km/h
538 06-10-2009 11:30:03 17.9 C 10.54 g/m*3 17.9 C 0 km/h
539 06-10-2009 11:42:03 17.8 C 10.17 g/m*3 17.8 C 0 km/h
540 06-10-2009 11:54:02 18.1 C 10.2 g/m*3 18.1 C 0 km/h
541 06-10-2009 12:06:02 18.2 C 10.1 g/m*3 18.2 C 0 km/h
542 06-10-2009 12:18:03 18 C 10.29 g/m*3 18 C 0 km/h
543 06-10-2009 12:30:03 17.9 C 10.38 g/m*3 17.9 C 0 km/h
544 06-10-2009 12:42:02 17.9 C 10.54 g/m*3 17.9 C 0 km/h
545 06-10-2009 12:54:02 17.8 C 10.93 g/m*3 17.8 C 0 km/h
546 06-10-2009 13:06:02 17.8 C 11.23 g/m*3 17.8 C 0 km/h
547 06-10-2009 13:18:03 17.8 C 11.23 g/m*3 17.8 C 0 km/h
548 06-10-2009 13:30:03 17.2 C 11.28 g/m*3 17.2 C 0 km/h
549 06-10-2009 13:42:02 17 C 11.43 g/m*3 17 C 0 km/h
550 06-10-2009 13:54:02 16.9 C 11.65 g/m*3 16.9 C 0 km/h
Sensor: Nr:Datum:Temp:Abs-Feuchte:Windchill:Wind:
Aussen-T/F 551 06-10-2009 14:06:02 17.1 C 11.79 g/m*3 17.1 C 0 km/h
552 06-10-2009 14:18:02 17.4 C 12 g/m*3 17.4 C 0 km/h
553 06-10-2009 14:30:02 17.4 C 12.15 g/m*3 17.4 C 0 km/h
554 06-10-2009 14:42:02 17 C 12.01 g/m*3 17 C 0 km/h
555 06-10-2009 14:54:02 16.8 C 12.15 g/m*3 16.8 C 0 km/h
556 06-10-2009 15:06:01 16.8 C 12.3 g/m*3 16.8 C 0 km/h
557 06-10-2009 15:18:02 16.9 C 12.51 g/m*3 16.9 C 0 km/h
558 06-10-2009 15:30:02 17.1 C 12.66 g/m*3 17.1 C 0 km/h
559 06-10-2009 15:42:02 17 C 12.59 g/m*3 17 C 0 km/h
560 06-10-2009 15:54:02 17.3 C 12.96 g/m*3 17.3 C 0 km/h
561 06-10-2009 16:06:03 17.5 C 13.12 g/m*3 17.5 C 0 km/h
562 06-10-2009 16:18:02 17.4 C 13.04 g/m*3 17.4 C 0 km/h
563 06-10-2009 16:30:02 17.2 C 12.89 g/m*3 17.2 C 0 km/h
564 06-10-2009 16:42:03 17.1 C 12.96 g/m*3 17.1 C 0 km/h
565 06-10-2009 16:54:02 17.2 C 13.03 g/m*3 17.2 C 0 km/h
566 06-10-2009 17:06:02 17.1 C 12.96 g/m*3 17.1 C 0 km/h
567 06-10-2009 17:18:01 17 C 12.88 g/m*3 17 C 0 km/h
568 06-10-2009 17:30:01 17.1 C 12.96 g/m*3 17.1 C 0 km/h
569 06-10-2009 17:42:02 17.1 C 13.1 g/m*3 17.1 C 0 km/h
570 06-10-2009 17:54:02 17.1 C 13.1 g/m*3 17.1 C 0 km/h
571 06-10-2009 18:06:02 16.8 C 13.01 g/m*3 16.8 C 0 km/h
572 06-10-2009 18:18:01 16.8 C 13.01 g/m*3 16.8 C 0 km/h
573 06-10-2009 18:30:01 16.7 C 13.07 g/m*3 16.7 C 0 km/h
574 06-10-2009 18:42:02 16.7 C 13.07 g/m*3 16.7 C 0 km/h
575 06-10-2009 18:54:02 16.7 C 13.07 g/m*3 16.7 C 0 km/h
Sensor: Nr:Datum:Temp:Abs-Feuchte:Windchill:Wind:
Aussen-T/F 576 06-10-2009 19:06:02 16.7 C 13.22 g/m*3 16.7 C 0 km/h
577 06-10-2009 19:18:02 17.2 C 13.62 g/m*3 17.2 C 0 km/h
578 06-10-2009 19:30:02 17.5 C 13.87 g/m*3 17.5 C 0 km/h
579 06-10-2009 19:42:02 18.1 C 14.06 g/m*3 18.1 C 0 km/h
580 06-10-2009 19:54:01 18.2 C 13.68 g/m*3 18.2 C 0 km/h
581 06-10-2009 20:06:02 18.4 C 13.53 g/m*3 18.4 C 0 km/h
582 06-10-2009 20:18:02 18.3 C 13.29 g/m*3 18.3 C 0 km/h
583 06-10-2009 20:30:02 18.4 C 13.37 g/m*3 18.4 C 0 km/h
584 06-10-2009 20:42:02 18.4 C 13.21 g/m*3 18.4 C 0 km/h
585 06-10-2009 20:54:01 18.5 C 13.13 g/m*3 18.5 C 0 km/h
586 06-10-2009 21:06:02 18.4 C 13.05 g/m*3 18.4 C 0 km/h
587 06-10-2009 21:18:02 18.3 C 12.98 g/m*3 18.3 C 0 km/h
588 06-10-2009 21:30:02 18.4 C 13.05 g/m*3 18.4 C 0 km/h
589 06-10-2009 21:42:02 18.5 C 13.13 g/m*3 18.5 C 0 km/h
590 06-10-2009 21:54:02 18.5 C 13.13 g/m*3 18.5 C 0 km/h
591 06-10-2009 22:06:01 18.4 C 13.05 g/m*3 18.4 C 0 km/h
592 06-10-2009 22:19:03 18.3 C 13.13 g/m*3 18.3 C 0 km/h
593 06-10-2009 22:31:04 18.3 C 13.13 g/m*3 18.3 C 0 km/h
594 06-10-2009 22:43:04 18.3 C 13.13 g/m*3 18.3 C 0 km/h
595 06-10-2009 22:55:04 18.3 C 13.13 g/m*3 18.3 C 0 km/h
596 06-10-2009 23:07:04 18.3 C 13.13 g/m*3 18.3 C 0 km/h
597 06-10-2009 23:19:04 18.1 C 13.13 g/m*3 18.1 C 0 km/h
598 06-10-2009 23:31:04 18 C 13.21 g/m*3 18 C 0 km/h
599 06-10-2009 23:43:04 17.8 C 13.2 g/m*3 17.8 C 0 km/h
600 06-10-2009 23:55:04 17.7 C 13.13 g/m*3 17.7 C 0 km/h
Sensor: Nr:Datum:Temp:Abs-Feuchte:Windchill:Wind:
Aussen-T/F 601 07-10-2009 00:07:04 17.8 C 13.36 g/m*3 17.8 C 0 km/h
602 07-10-2009 00:19:04 17.9 C 13.44 g/m*3 17.9 C 0 km/h
603 07-10-2009 00:31:04 17.8 C 13.2 g/m*3 17.8 C 0 km/h
604 07-10-2009 00:43:04 17.7 C 13.13 g/m*3 17.7 C 0 km/h
605 07-10-2009 00:55:04 18 C 13.21 g/m*3 18 C 0 km/h
606 07-10-2009 01:07:04 17.9 C 13.28 g/m*3 17.9 C 0 km/h
607 07-10-2009 01:19:04 18 C 13.06 g/m*3 18 C 0 km/h
608 07-10-2009 01:31:04 18.1 C 13.13 g/m*3 18.1 C 0 km/h
609 07-10-2009 01:43:04 17.8 C 13.05 g/m*3 17.8 C 0 km/h
610 07-10-2009 01:55:04 17.5 C 12.97 g/m*3 17.5 C 0 km/h
611 07-10-2009 02:07:04 17.1 C 12.66 g/m*3 17.1 C 0 km/h
612 07-10-2009 02:19:05 17.1 C 12.96 g/m*3 17.1 C 0 km/h
613 07-10-2009 02:31:05 17 C 12.88 g/m*3 17 C 0 km/h
614 07-10-2009 02:43:05 17.2 C 13.18 g/m*3 17.2 C 0 km/h
615 07-10-2009 02:55:05 17 C 13.02 g/m*3 17 C 0 km/h
616 07-10-2009 03:07:05 16.9 C 13.09 g/m*3 16.9 C 0 km/h
617 07-10-2009 03:19:05 16.7 C 12.93 g/m*3 16.7 C 0 km/h
618 07-10-2009 03:31:05 16.5 C 12.92 g/m*3 16.5 C 0 km/h
619 07-10-2009 03:43:05 16.5 C 12.92 g/m*3 16.5 C 0 km/h
620 07-10-2009 03:55:05 16.3 C 12.76 g/m*3 16.3 C 0 km/h
621 07-10-2009 04:07:05 16.1 C 12.61 g/m*3 16.1 C 0 km/h
622 07-10-2009 04:19:05 16.2 C 12.69 g/m*3 16.2 C 0 km/h
623 07-10-2009 04:31:05 16.4 C 12.98 g/m*3 16.4 C 0 km/h
624 07-10-2009 04:43:05 16.4 C 12.98 g/m*3 16.4 C 0 km/h
625 07-10-2009 04:55:05 16.3 C 12.9 g/m*3 16.3 C 0 km/h
Sensor: Nr:Datum:Temp:Abs-Feuchte:Windchill:Wind:
Aussen-T/F 626 07-10-2009 05:07:05 16.3 C 12.9 g/m*3 16.3 C 0 km/h
627 07-10-2009 05:19:05 16.4 C 13.12 g/m*3 16.4 C 0 km/h
628 07-10-2009 05:31:05 16.3 C 13.04 g/m*3 16.3 C 0 km/h
629 07-10-2009 05:43:05 16.2 C 12.96 g/m*3 16.2 C 0 km/h
630 07-10-2009 05:55:05 15.9 C 12.73 g/m*3 15.9 C 0 km/h
631 07-10-2009 06:07:06 15.8 C 12.65 g/m*3 15.8 C 0 km/h
632 07-10-2009 06:19:06 15.5 C 12.43 g/m*3 15.5 C 0 km/h
633 07-10-2009 06:31:06 15.4 C 12.35 g/m*3 15.4 C 0 km/h
634 07-10-2009 06:43:06 15.2 C 12.2 g/m*3 15.2 C 0 km/h
635 07-10-2009 06:55:06 15.4 C 12.35 g/m*3 15.4 C 0 km/h
636 07-10-2009 07:07:06 15.4 C 12.35 g/m*3 15.4 C 0 km/h
637 07-10-2009 07:19:03 15.5 C 12.56 g/m*3 15.5 C 0 km/h
638 07-10-2009 07:31:03 15.6 C 12.63 g/m*3 15.6 C 0 km/h
639 07-10-2009 07:43:03 16.1 C 13.02 g/m*3 16.1 C 0 km/h
640 07-10-2009 07:55:01 16.6 C 13.42 g/m*3 16.6 C 0 km/h
641 07-10-2009 08:07:02 16.8 C 13.58 g/m*3 16.8 C 0 km/h
642 07-10-2009 08:19:01 16.8 C 13.58 g/m*3 16.8 C 0 km/h
643 07-10-2009 08:31:01 17.2 C 13.91 g/m*3 17.2 C 0 km/h
644 07-10-2009 08:43:01 17.2 C 13.91 g/m*3 17.2 C 0 km/h
645 07-10-2009 08:55:01 17.5 C 14.16 g/m*3 17.5 C 0 km/h
646 07-10-2009 09:07:02 17.6 C 14.25 g/m*3 17.6 C 0 km/h
647 07-10-2009 09:19:01 17.9 C 14.5 g/m*3 17.9 C 0 km/h
648 07-10-2009 09:31:01 18.1 C 14.52 g/m*3 18.1 C 0 km/h
649 07-10-2009 09:43:01 17.8 C 14.27 g/m*3 17.8 C 0 km/h
650 07-10-2009 09:55:01 18.3 C 14.38 g/m*3 18.3 C 0 km/h
Sensor: Nr:Datum:Temp:Abs-Feuchte:Windchill:Wind:
Aussen-T/F 651 07-10-2009 10:07:02 18.7 C 14.41 g/m*3 18.7 C 0 km/h
652 07-10-2009 10:19:02 19 C 14.01 g/m*3 19 C 0 km/h
653 07-10-2009 10:31:01 19.5 C 13.59 g/m*3 19.5 C 0 km/h
654 07-10-2009 10:43:01 20.2 C 12.94 g/m*3 20.2 C 0 km/h
655 07-10-2009 10:55:02 20.5 C 12.99 g/m*3 20.5 C 0 km/h
656 07-10-2009 11:07:01 20.5 C 12.63 g/m*3 20.5 C 0 km/h
657 07-10-2009 11:19:01 20.5 C 12.63 g/m*3 20.5 C 0 km/h
658 07-10-2009 11:31:02 20.6 C 12.53 g/m*3 20.6 C 0 km/h
659 07-10-2009 11:43:02 20.9 C 12.57 g/m*3 20.9 C 0 km/h
660 07-10-2009 11:55:01 21.3 C 12.49 g/m*3 21.3 C 0 km/h
661 07-10-2009 12:07:02 21.3 C 12.3 g/m*3 21.3 C 0 km/h
662 07-10-2009 12:19:01 21.5 C 12.82 g/m*3 21.5 C 0 km/h
663 07-10-2009 12:31:02 21.8 C 12.66 g/m*3 21.8 C 0 km/h
664 07-10-2009 12:43:02 22 C 12.81 g/m*3 22 C 0 km/h
665 07-10-2009 12:55:01 22.5 C 12.78 g/m*3 22.5 C 0 km/h
666 07-10-2009 13:07:02 23.1 C 12.2 g/m*3 23.1 C 0 km/h
667 07-10-2009 13:19:01 23.1 C 12.2 g/m*3 23.1 C 0 km/h
668 07-10-2009 13:31:02 23.4 C 12.62 g/m*3 23.4 C 0 km/h
669 07-10-2009 13:43:02 23.8 C 12.05 g/m*3 23.8 C 0 km/h
670 07-10-2009 13:55:01 24.3 C 11.51 g/m*3 24.3 C 0 km/h
671 07-10-2009 14:07:02 24.9 C 11.22 g/m*3 24.9 C 0 km/h
672 07-10-2009 14:19:02 24.8 C 10.47 g/m*3 24.8 C 0 km/h
673 07-10-2009 14:31:01 24.6 C 10.58 g/m*3 24.6 C 0 km/h
674 07-10-2009 14:43:01 24.3 C 10.4 g/m*3 24.3 C 0 km/h
675 07-10-2009 14:55:02 24.5 C 10.74 g/m*3 24.5 C 0 km/h
Sensor: Nr:Datum:Temp:Abs-Feuchte:Windchill:Wind:
Aussen-T/F 676 07-10-2009 15:07:01 24.6 C 10.8 g/m*3 24.6 C 0 km/h
677 07-10-2009 15:19:02 24.5 C 11.64 g/m*3 24.5 C 0 km/h
678 07-10-2009 15:31:01 24.3 C 11.06 g/m*3 24.3 C 0 km/h
679 07-10-2009 15:43:01 24.4 C 11.35 g/m*3 24.4 C 0 km/h
680 07-10-2009 15:55:03 24.6 C 11.7 g/m*3 24.6 C 0 km/h
681 07-10-2009 16:07:02 24.1 C 11.82 g/m*3 24.1 C 0 km/h
682 07-10-2009 16:19:02 24 C 11.1 g/m*3 24 C 0 km/h
683 07-10-2009 16:31:03 23.9 C 10.6 g/m*3 23.9 C 0 km/h
684 07-10-2009 16:43:03 24 C 11.31 g/m*3 24 C 0 km/h
685 07-10-2009 16:55:02 23.8 C 11.83 g/m*3 23.8 C 0 km/h
686 07-10-2009 17:07:01 23.3 C 12.55 g/m*3 23.3 C 0 km/h
687 07-10-2009 17:19:02 23 C 12.74 g/m*3 23 C 0 km/h
688 07-10-2009 17:31:02 22.8 C 13 g/m*3 22.8 C 0 km/h
689 07-10-2009 17:43:02 22.5 C 13.38 g/m*3 22.5 C 0 km/h
690 07-10-2009 17:55:01 22 C 13.39 g/m*3 22 C 0 km/h
691 07-10-2009 18:07:02 21.7 C 13.35 g/m*3 21.7 C 0 km/h
692 07-10-2009 18:19:01 21.4 C 13.31 g/m*3 21.4 C 0 km/h
693 07-10-2009 18:31:01 21 C 13.37 g/m*3 21 C 0 km/h
694 07-10-2009 18:43:02 20.8 C 13.4 g/m*3 20.8 C 0 km/h
695 07-10-2009 18:55:01 20.4 C 13.09 g/m*3 20.4 C 0 km/h
696 07-10-2009 19:07:02 20.3 C 13.01 g/m*3 20.3 C 0 km/h
697 07-10-2009 19:19:01 20.1 C 13.04 g/m*3 20.1 C 0 km/h
698 07-10-2009 19:31:02 20.1 C 13.04 g/m*3 20.1 C 0 km/h
699 07-10-2009 19:43:02 20 C 12.96 g/m*3 20 C 0 km/h
700 07-10-2009 19:55:01 19.9 C 13.06 g/m*3 19.9 C 0 km/h
Sensor: Nr:Datum:Temp:Abs-Feuchte:Windchill:Wind:
Aussen-T/F 701 07-10-2009 20:07:02 19.9 C 13.23 g/m*3 19.9 C 0 km/h
702 07-10-2009 20:19:01 19.7 C 13.08 g/m*3 19.7 C 0 km/h
703 07-10-2009 20:31:02 19.7 C 13.25 g/m*3 19.7 C 0 km/h
704 07-10-2009 20:43:02 19.4 C 13.01 g/m*3 19.4 C 0 km/h
705 07-10-2009 20:55:01 19.5 C 13.09 g/m*3 19.5 C 0 km/h
706 07-10-2009 21:07:01 19.5 C 13.09 g/m*3 19.5 C 0 km/h
707 07-10-2009 21:19:02 19.5 C 12.59 g/m*3 19.5 C 0 km/h
708 07-10-2009 21:31:02 19.6 C 12.15 g/m*3 19.6 C 0 km/h
709 07-10-2009 21:43:02 19.7 C 11.89 g/m*3 19.7 C 0 km/h
710 07-10-2009 21:55:02 19.7 C 11.72 g/m*3 19.7 C 0 km/h
711 07-10-2009 22:07:02 19.6 C 11.48 g/m*3 19.6 C 0 km/h
712 07-10-2009 22:19:02 19.7 C 11.55 g/m*3 19.7 C 0 km/h
713 07-10-2009 22:31:02 20 C 11.06 g/m*3 20 C 0 km/h
714 07-10-2009 22:43:02 20.3 C 11.08 g/m*3 20.3 C 0 km/h
715 07-10-2009 22:55:01 20.2 C 11.02 g/m*3 20.2 C 0 km/h
716 07-10-2009 23:07:01 20 C 11.23 g/m*3 20 C 0 km/h
717 07-10-2009 23:19:02 20 C 11.23 g/m*3 20 C 0 km/h
718 07-10-2009 23:31:01 19.8 C 11.61 g/m*3 19.8 C 0 km/h
719 07-10-2009 23:43:01 19.6 C 11.82 g/m*3 19.6 C 0 km/h
720 07-10-2009 23:55:01 19 C 12.06 g/m*3 19 C 0 km/h
721 08-10-2009 00:07:01 18.5 C 12.66 g/m*3 18.5 C 0 km/h
722 08-10-2009 00:20:02 18.3 C 12.82 g/m*3 18.3 C 0 km/h
723 08-10-2009 00:32:03 18.5 C 12.02 g/m*3 18.5 C 0 km/h
724 08-10-2009 00:44:03 19.3 C 11.94 g/m*3 19.3 C 0 km/h
725 08-10-2009 00:56:03 18.5 C 12.66 g/m*3 18.5 C 0 km/h
Sensor: Nr:Datum:Temp:Abs-Feuchte:Windchill:Wind:
Aussen-T/F 726 08-10-2009 01:08:03 18.1 C 12.98 g/m*3 18.1 C 0 km/h
727 08-10-2009 01:20:03 17.9 C 13.28 g/m*3 17.9 C 0 km/h
728 08-10-2009 01:32:03 17.7 C 13.28 g/m*3 17.7 C 0 km/h
729 08-10-2009 01:44:03 17.5 C 13.27 g/m*3 17.5 C 0 km/h
730 08-10-2009 01:56:03 17.3 C 13.11 g/m*3 17.3 C 0 km/h
731 08-10-2009 02:08:03 17.3 C 13.11 g/m*3 17.3 C 0 km/h
732 08-10-2009 02:20:03 17.2 C 13.18 g/m*3 17.2 C 0 km/h
733 08-10-2009 02:32:03 17.2 C 13.18 g/m*3 17.2 C 0 km/h
734 08-10-2009 02:44:03 17.2 C 13.18 g/m*3 17.2 C 0 km/h
735 08-10-2009 02:56:03 17.4 C 13.34 g/m*3 17.4 C 0 km/h
736 08-10-2009 03:08:03 17.9 C 13.13 g/m*3 17.9 C 0 km/h
737 08-10-2009 03:20:03 18.5 C 12.5 g/m*3 18.5 C 0 km/h
738 08-10-2009 03:32:03 18.4 C 12.27 g/m*3 18.4 C 0 km/h
739 08-10-2009 03:44:03 18.4 C 12.11 g/m*3 18.4 C 0 km/h
740 08-10-2009 03:56:03 18.4 C 11.95 g/m*3 18.4 C 0 km/h
741 08-10-2009 04:08:03 18.6 C 12.1 g/m*3 18.6 C 0 km/h
742 08-10-2009 04:20:04 18.8 C 11.92 g/m*3 18.8 C 0 km/h
743 08-10-2009 04:32:04 18.7 C 11.85 g/m*3 18.7 C 0 km/h
744 08-10-2009 04:44:04 18.7 C 11.69 g/m*3 18.7 C 0 km/h
745 08-10-2009 04:56:04 18.7 C 11.69 g/m*3 18.7 C 0 km/h
746 08-10-2009 05:08:04 18.8 C 11.76 g/m*3 18.8 C 0 km/h
747 08-10-2009 05:20:04 19 C 11.57 g/m*3 19 C 0 km/h
748 08-10-2009 05:32:04 18.9 C 11.66 g/m*3 18.9 C 0 km/h
749 08-10-2009 05:44:04 19 C 11.57 g/m*3 19 C 0 km/h
750 08-10-2009 05:56:04 19.1 C 11.64 g/m*3 19.1 C 0 km/h
Sensor: Nr:Datum:Temp:Abs-Feuchte:Windchill:Wind:
Aussen-T/F 751 08-10-2009 06:08:04 19.1 C 11.64 g/m*3 19.1 C 0 km/h
752 08-10-2009 06:20:04 18.9 C 11.66 g/m*3 18.9 C 0 km/h
753 08-10-2009 06:32:04 18.8 C 11.76 g/m*3 18.8 C 0 km/h
754 08-10-2009 06:44:04 18.6 C 11.62 g/m*3 18.6 C 0 km/h
755 08-10-2009 06:56:04 18.5 C 11.71 g/m*3 18.5 C 0 km/h
756 08-10-2009 07:08:04 18.5 C 11.71 g/m*3 18.5 C 0 km/h
757 08-10-2009 07:20:03 18.7 C 11.69 g/m*3 18.7 C 0 km/h
758 08-10-2009 07:32:02 18.8 C 11.43 g/m*3 18.8 C 0 km/h
759 08-10-2009 07:44:02 18.8 C 11.27 g/m*3 18.8 C 0 km/h
760 08-10-2009 07:56:03 18.8 C 11.27 g/m*3 18.8 C 0 km/h
761 08-10-2009 08:08:02 18.6 C 11.46 g/m*3 18.6 C 0 km/h
762 08-10-2009 08:20:02 18.6 C 11.3 g/m*3 18.6 C 0 km/h
763 08-10-2009 08:32:02 18.7 C 11.37 g/m*3 18.7 C 0 km/h
764 08-10-2009 08:44:02 18.6 C 11.46 g/m*3 18.6 C 0 km/h
765 08-10-2009 08:56:02 17.8 C 11.69 g/m*3 17.8 C 0 km/h
766 08-10-2009 09:08:02 17.5 C 12.08 g/m*3 17.5 C 0 km/h
767 08-10-2009 09:20:02 17.7 C 11.77 g/m*3 17.7 C 0 km/h
768 08-10-2009 09:32:02 17.2 C 11.13 g/m*3 17.2 C 0 km/h
769 08-10-2009 09:44:02 16.4 C 10.75 g/m*3 16.4 C 0 km/h
770 08-10-2009 09:56:02 15.9 C 10.43 g/m*3 15.9 C 0 km/h
771 08-10-2009 10:08:01 15.8 C 10.23 g/m*3 15.8 C 0 km/h
772 08-10-2009 10:20:01 15.6 C 9.97 g/m*3 15.6 C 0 km/h
773 08-10-2009 10:32:02 15.3 C 9.79 g/m*3 15.3 C 0 km/h
774 08-10-2009 10:44:02 15.2 C 9.86 g/m*3 15.2 C 0 km/h
775 08-10-2009 10:56:02 15.2 C 9.73 g/m*3 15.2 C 0 km/h
Sensor: Nr:Datum:Temp:Abs-Feuchte:Windchill:Wind:
Aussen-T/F 776 08-10-2009 11:08:02 14.8 C 9.63 g/m*3 14.8 C 0 km/h
777 08-10-2009 11:20:02 14.6 C 9.51 g/m*3 14.6 C 0 km/h
778 08-10-2009 11:32:02 14.6 C 9.39 g/m*3 14.6 C 0 km/h
779 08-10-2009 11:44:02 14.8 C 9.37 g/m*3 14.8 C 0 km/h
780 08-10-2009 11:56:01 15.1 C 9.03 g/m*3 15.1 C 0 km/h
781 08-10-2009 12:08:02 14.9 C 8.92 g/m*3 14.9 C 0 km/h
782 08-10-2009 12:20:01 15.3 C 8.88 g/m*3 15.3 C 0 km/h
783 08-10-2009 12:32:02 15.3 C 8.49 g/m*3 15.3 C 0 km/h
784 08-10-2009 12:44:03 15.8 C 8.88 g/m*3 15.8 C 0 km/h
785 08-10-2009 12:56:02 16 C 8.31 g/m*3 16 C 0 km/h
786 08-10-2009 13:08:02 16.3 C 8.6 g/m*3 16.3 C 0 km/h
787 08-10-2009 13:20:01 16.9 C 8.92 g/m*3 16.9 C 0 km/h
788 08-10-2009 13:32:02 17.7 C 8.6 g/m*3 17.7 C 0 km/h
789 08-10-2009 13:44:02 16.8 C 8.44 g/m*3 16.8 C 0 km/h
790 08-10-2009 13:56:02 17.6 C 8.85 g/m*3 17.6 C 0 km/h
791 08-10-2009 14:08:02 17 C 8.25 g/m*3 17 C 0 km/h
792 08-10-2009 14:20:02 17.4 C 8.45 g/m*3 17.4 C 0 km/h
793 08-10-2009 14:32:02 17.4 C 8.3 g/m*3 17.4 C 0 km/h
794 08-10-2009 14:44:02 18 C 8.29 g/m*3 18 C 0 km/h
795 08-10-2009 14:56:02 17.9 C 8.4 g/m*3 17.9 C 0 km/h
796 08-10-2009 15:08:03 18.2 C 8.39 g/m*3 18.2 C 0 km/h
797 08-10-2009 15:20:02 18.6 C 8.12 g/m*3 18.6 C 0 km/h
798 08-10-2009 15:32:02 18 C 7.99 g/m*3 18 C 0 km/h
799 08-10-2009 15:44:02 17.5 C 8.2 g/m*3 17.5 C 0 km/h
800 08-10-2009 15:56:02 17.4 C 8.3 g/m*3 17.4 C 0 km/h
Sensor: Nr:Datum:Temp:Abs-Feuchte:Windchill:Wind:
Aussen-T/F 801 08-10-2009 16:08:02 17.8 C 8.35 g/m*3 17.8 C 0 km/h
802 08-10-2009 16:20:02 17.8 C 8.35 g/m*3 17.8 C 0 km/h
803 08-10-2009 16:32:01 17.3 C 8.25 g/m*3 17.3 C 0 km/h
804 08-10-2009 16:44:01 17.2 C 8.35 g/m*3 17.2 C 0 km/h
805 08-10-2009 16:56:02 16.8 C 8.44 g/m*3 16.8 C 0 km/h
806 08-10-2009 17:08:01 16.4 C 8.1 g/m*3 16.4 C 0 km/h
807 08-10-2009 17:20:02 16.2 C 8.27 g/m*3 16.2 C 0 km/h
808 08-10-2009 17:32:02 16.1 C 8.09 g/m*3 16.1 C 0 km/h
809 08-10-2009 17:44:02 15.8 C 8.35 g/m*3 15.8 C 0 km/h
810 08-10-2009 17:56:02 15.5 C 8.33 g/m*3 15.5 C 0 km/h
811 08-10-2009 18:08:01 15.5 C 8.33 g/m*3 15.5 C 0 km/h
812 08-10-2009 18:20:01 15.4 C 8.28 g/m*3 15.4 C 0 km/h
813 08-10-2009 18:32:02 15.1 C 8.26 g/m*3 15.1 C 0 km/h
814 08-10-2009 18:44:02 15.1 C 8.26 g/m*3 15.1 C 0 km/h
815 08-10-2009 18:56:02 15 C 8.21 g/m*3 15 C 0 km/h
816 08-10-2009 19:08:02 15.1 C 8.39 g/m*3 15.1 C 0 km/h
817 08-10-2009 19:20:02 15.1 C 8.39 g/m*3 15.1 C 0 km/h
818 08-10-2009 19:32:02 14.9 C 8.28 g/m*3 14.9 C 0 km/h
819 08-10-2009 19:44:02 14.6 C 8.26 g/m*3 14.6 C 0 km/h
820 08-10-2009 19:56:02 14.3 C 8.35 g/m*3 14.3 C 0 km/h
821 08-10-2009 20:08:03 13.9 C 8.39 g/m*3 13.9 C 0 km/h
822 08-10-2009 20:20:02 13.8 C 8.46 g/m*3 13.8 C 0 km/h
823 08-10-2009 20:32:02 13.6 C 8.47 g/m*3 13.6 C 0 km/h
824 08-10-2009 20:44:02 13.4 C 8.49 g/m*3 13.4 C 0 km/h
825 08-10-2009 20:56:01 13.1 C 8.44 g/m*3 13.1 C 0 km/h
Sensor: Nr:Datum:Temp:Abs-Feuchte:Windchill:Wind:
Aussen-T/F 826 08-10-2009 21:08:01 13.2 C 8.61 g/m*3 13.2 C 0 km/h
827 08-10-2009 21:20:02 13.3 C 8.66 g/m*3 13.3 C 0 km/h
828 08-10-2009 21:32:01 13.1 C 8.44 g/m*3 13.1 C 0 km/h
829 08-10-2009 21:44:01 12.8 C 8.51 g/m*3 12.8 C 0 km/h
830 08-10-2009 21:56:02 12.5 C 8.47 g/m*3 12.5 C 0 km/h
831 08-10-2009 22:08:01 12.3 C 8.47 g/m*3 12.3 C 0 km/h
832 08-10-2009 22:20:01 12.1 C 8.47 g/m*3 12.1 C 0 km/h
833 08-10-2009 22:32:01 12 C 8.53 g/m*3 12 C 0 km/h
834 08-10-2009 22:44:01 11.7 C 8.47 g/m*3 11.7 C 0 km/h
835 08-10-2009 22:57:03 11.7 C 8.58 g/m*3 11.7 C 0 km/h
836 08-10-2009 23:09:03 11.5 C 8.57 g/m*3 11.5 C 0 km/h
837 08-10-2009 23:21:03 11.4 C 8.52 g/m*3 11.4 C 0 km/h
838 08-10-2009 23:33:04 11.3 C 8.47 g/m*3 11.3 C 0 km/h
839 08-10-2009 23:45:04 11.2 C 8.41 g/m*3 11.2 C 0 km/h
840 08-10-2009 23:57:04 11.2 C 8.51 g/m*3 11.2 C 0 km/h
841 09-10-2009 00:09:04 11.2 C 8.51 g/m*3 11.2 C 0 km/h
842 09-10-2009 00:21:04 11.1 C 8.46 g/m*3 11.1 C 0 km/h
843 09-10-2009 00:33:04 10.8 C 8.3 g/m*3 10.8 C 0 km/h
844 09-10-2009 00:45:04 10.8 C 8.3 g/m*3 10.8 C 0 km/h
845 09-10-2009 00:57:04 11.1 C 8.46 g/m*3 11.1 C 0 km/h
846 09-10-2009 01:09:04 11.2 C 8.51 g/m*3 11.2 C 0 km/h
847 09-10-2009 01:21:04 11.1 C 8.36 g/m*3 11.1 C 0 km/h
848 09-10-2009 01:33:04 10.7 C 8.15 g/m*3 10.7 C 0 km/h
849 09-10-2009 01:45:04 10.4 C 8 g/m*3 10.4 C 0 km/h
850 09-10-2009 01:57:04 10.2 C 7.99 g/m*3 10.2 C 0 km/h
Sensor: Nr:Datum:Temp:Abs-Feuchte:Windchill:Wind:
Aussen-T/F 851 09-10-2009 02:09:04 9.8 C 7.89 g/m*3 9.8 C 0 km/h
852 09-10-2009 02:21:04 9.6 C 7.79 g/m*3 9.6 C 0 km/h
853 09-10-2009 02:33:04 9.6 C 7.88 g/m*3 9.6 C 0 km/h
854 09-10-2009 02:45:04 9.3 C 7.73 g/m*3 9.3 C 0 km/h
855 09-10-2009 02:57:04 9.1 C 7.63 g/m*3 9.1 C 0 km/h
856 09-10-2009 03:09:04 9.1 C 7.72 g/m*3 9.1 C 0 km/h
857 09-10-2009 03:21:05 9 C 7.67 g/m*3 9 C 0 km/h
858 09-10-2009 03:33:05 8.9 C 7.8 g/m*3 8.9 C 0 km/h
859 09-10-2009 03:45:05 8.8 C 7.75 g/m*3 8.8 C 0 km/h
860 09-10-2009 03:57:05 8.7 C 7.7 g/m*3 8.7 C 0 km/h
861 09-10-2009 04:09:05 8.6 C 7.65 g/m*3 8.6 C 0 km/h
862 09-10-2009 04:21:05 8.4 C 7.55 g/m*3 8.4 C 0 km/h
863 09-10-2009 04:33:05 8.3 C 7.5 g/m*3 8.3 C 0 km/h
864 09-10-2009 04:45:05 8.2 C 7.45 g/m*3 8.2 C 0 km/h
865 09-10-2009 04:57:05 8.1 C 7.41 g/m*3 8.1 C 0 km/h
866 09-10-2009 05:09:05 8.1 C 7.49 g/m*3 8.1 C 0 km/h
867 09-10-2009 05:21:05 8 C 7.44 g/m*3 8 C 0 km/h
868 09-10-2009 05:33:05 7.9 C 7.47 g/m*3 7.9 C 0 km/h
869 09-10-2009 05:45:05 7.7 C 7.3 g/m*3 7.7 C 0 km/h
870 09-10-2009 05:57:05 7.6 C 7.25 g/m*3 7.6 C 0 km/h
871 09-10-2009 06:09:05 7.5 C 7.2 g/m*3 7.5 C 0 km/h
872 09-10-2009 06:21:05 7.5 C 7.28 g/m*3 7.5 C 0 km/h
873 09-10-2009 06:33:05 7.4 C 7.16 g/m*3 7.4 C 0 km/h
874 09-10-2009 06:45:01 7.2 C 7.06 g/m*3 7.2 C 0 km/h
875 09-10-2009 06:57:01 7.2 C 7.06 g/m*3 7.2 C 0 km/h
Sensor: Nr:Datum:Temp:Abs-Feuchte:Windchill:Wind:
Aussen-T/F 876 09-10-2009 07:09:02 6.9 C 7.01 g/m*3 6.9 C 0 km/h
877 09-10-2009 07:21:02 6.7 C 6.91 g/m*3 6.7 C 0 km/h
878 09-10-2009 07:33:02 6.7 C 6.91 g/m*3 6.7 C 0 km/h
879 09-10-2009 07:45:01 6.7 C 6.99 g/m*3 6.7 C 0 km/h
880 09-10-2009 07:57:01 6.7 C 6.99 g/m*3 6.7 C 0 km/h
881 09-10-2009 08:09:02 6.6 C 6.95 g/m*3 6.6 C 0 km/h
882 09-10-2009 08:21:02 6.8 C 7.04 g/m*3 6.8 C 0 km/h
883 09-10-2009 08:33:01 7.4 C 7.32 g/m*3 7.4 C 0 km/h
884 09-10-2009 08:45:02 7.5 C 7.44 g/m*3 7.5 C 0 km/h
885 09-10-2009 08:57:02 7.5 C 7.36 g/m*3 7.5 C 0 km/h
886 09-10-2009 09:09:01 7.4 C 7.32 g/m*3 7.4 C 0 km/h
887 09-10-2009 09:21:02 7.5 C 7.36 g/m*3 7.5 C 0 km/h
888 09-10-2009 09:33:01 7.5 C 7.36 g/m*3 7.5 C 0 km/h
889 09-10-2009 09:45:02 7.5 C 7.36 g/m*3 7.5 C 0 km/h
890 09-10-2009 09:57:02 7.6 C 7.41 g/m*3 7.6 C 0 km/h
891 09-10-2009 10:09:02 7.6 C 7.41 g/m*3 7.6 C 0 km/h
892 09-10-2009 10:21:02 7.9 C 7.56 g/m*3 7.9 C 0 km/h
893 09-10-2009 10:33:03 8.4 C 7.8 g/m*3 8.4 C 0 km/h
894 09-10-2009 10:45:02 9 C 8.02 g/m*3 9 C 0 km/h
895 09-10-2009 10:57:03 9.5 C 8.28 g/m*3 9.5 C 0 km/h
896 09-10-2009 11:09:01 9.9 C 8.5 g/m*3 9.9 C 0 km/h
897 09-10-2009 11:21:02 10.4 C 8.58 g/m*3 10.4 C 0 km/h
898 09-10-2009 11:33:02 10.8 C 8.6 g/m*3 10.8 C 0 km/h
899 09-10-2009 11:45:02 11.1 C 8.26 g/m*3 11.1 C 0 km/h
900 09-10-2009 11:57:02 11.8 C 7.68 g/m*3 11.8 C 0 km/h
Sensor: Nr:Datum:Temp:Abs-Feuchte:Windchill:Wind:
Aussen-T/F 901 09-10-2009 12:09:03 12.4 C 6.88 g/m*3 12.4 C 0 km/h
902 09-10-2009 12:21:02 12.8 C 6.61 g/m*3 12.8 C 0 km/h
903 09-10-2009 12:33:02 13.3 C 6.7 g/m*3 13.3 C 0 km/h
904 09-10-2009 12:45:01 13.7 C 6.51 g/m*3 13.7 C 0 km/h
905 09-10-2009 12:57:01 14.2 C 6.35 g/m*3 14.2 C 0 km/h
906 09-10-2009 13:09:02 14.7 C 6.42 g/m*3 14.7 C 0 km/h
907 09-10-2009 13:21:01 15.2 C 6.1 g/m*3 15.2 C 0 km/h
908 09-10-2009 13:33:02 15.8 C 6.33 g/m*3 15.8 C 0 km/h
909 09-10-2009 13:45:01 16.3 C 6.24 g/m*3 16.3 C 0 km/h
910 09-10-2009 13:57:01 17.1 C 6.55 g/m*3 17.1 C 0 km/h
911 09-10-2009 14:09:02 17.5 C 6.41 g/m*3 17.5 C 0 km/h
912 09-10-2009 14:21:01 17.9 C 6.26 g/m*3 17.9 C 0 km/h
913 09-10-2009 14:33:02 18.1 C 6.18 g/m*3 18.1 C 0 km/h
914 09-10-2009 14:45:01 18.9 C 6.32 g/m*3 18.9 C 0 km/h
915 09-10-2009 14:57:01 18.7 C 6.24 g/m*3 18.7 C 0 km/h
916 09-10-2009 15:09:02 18.5 C 6.17 g/m*3 18.5 C 0 km/h
917 09-10-2009 15:21:01 18.4 C 6.13 g/m*3 18.4 C 0 km/h
918 09-10-2009 15:33:02 18.2 C 5.91 g/m*3 18.2 C 0 km/h
919 09-10-2009 15:45:01 18.2 C 6.22 g/m*3 18.2 C 0 km/h
920 09-10-2009 15:57:01 17.9 C 5.95 g/m*3 17.9 C 0 km/h
921 09-10-2009 16:09:02 17.8 C 6.07 g/m*3 17.8 C 0 km/h
922 09-10-2009 16:21:02 17.8 C 6.22 g/m*3 17.8 C 0 km/h
923 09-10-2009 16:33:01 17.8 C 6.22 g/m*3 17.8 C 0 km/h
924 09-10-2009 16:45:01 17.7 C 6.19 g/m*3 17.7 C 0 km/h
925 09-10-2009 16:57:01 17.4 C 6.22 g/m*3 17.4 C 0 km/h
Sensor: Nr:Datum:Temp:Abs-Feuchte:Windchill:Wind:
Aussen-T/F 926 09-10-2009 17:09:01 17.2 C 6.3 g/m*3 17.2 C 0 km/h
927 09-10-2009 17:21:02 17.2 C 6.15 g/m*3 17.2 C 0 km/h
928 09-10-2009 17:33:01 18.2 C 6.22 g/m*3 18.2 C 0 km/h
929 09-10-2009 17:45:02 17.9 C 5.8 g/m*3 17.9 C 0 km/h
930 09-10-2009 17:57:02 18.1 C 6.33 g/m*3 18.1 C 0 km/h
931 09-10-2009 18:09:01 17.7 C 6.64 g/m*3 17.7 C 0 km/h
932 09-10-2009 18:21:02 17.3 C 6.78 g/m*3 17.3 C 0 km/h
933 09-10-2009 18:33:01 15.8 C 6.73 g/m*3 15.8 C 0 km/h
934 09-10-2009 18:45:02 14.3 C 6.76 g/m*3 14.3 C 0 km/h
935 09-10-2009 18:57:02 13.5 C 6.9 g/m*3 13.5 C 0 km/h
936 09-10-2009 19:09:02 13.1 C 6.96 g/m*3 13.1 C 0 km/h
937 09-10-2009 19:21:02 13 C 7.14 g/m*3 13 C 0 km/h
938 09-10-2009 19:33:01 13.3 C 7.16 g/m*3 13.3 C 0 km/h
939 09-10-2009 19:45:02 13.5 C 7.25 g/m*3 13.5 C 0 km/h
940 09-10-2009 19:57:02 13.4 C 7.32 g/m*3 13.4 C 0 km/h
941 09-10-2009 20:09:01 13.2 C 7.35 g/m*3 13.2 C 0 km/h
942 09-10-2009 20:21:01 13.2 C 7.23 g/m*3 13.2 C 0 km/h
943 09-10-2009 20:33:02 13.2 C 7.35 g/m*3 13.2 C 0 km/h
944 09-10-2009 20:45:02 13.2 C 7.46 g/m*3 13.2 C 0 km/h
945 09-10-2009 20:57:02 13 C 7.26 g/m*3 13 C 0 km/h
946 09-10-2009 21:09:02 13.1 C 7.53 g/m*3 13.1 C 0 km/h
947 09-10-2009 21:21:02 13.2 C 7.46 g/m*3 13.2 C 0 km/h
948 09-10-2009 21:34:03 13 C 7.26 g/m*3 13 C 0 km/h
949 09-10-2009 21:46:04 13.2 C 7.12 g/m*3 13.2 C 0 km/h
950 09-10-2009 21:58:04 13.1 C 7.19 g/m*3 13.1 C 0 km/h
Sensor: Nr:Datum:Temp:Abs-Feuchte:Windchill:Wind:
Aussen-T/F 951 09-10-2009 22:10:04 13.1 C 7.19 g/m*3 13.1 C 0 km/h
952 09-10-2009 22:22:04 13.1 C 7.19 g/m*3 13.1 C 0 km/h
953 09-10-2009 22:34:04 13.1 C 7.3 g/m*3 13.1 C 0 km/h
954 09-10-2009 22:46:04 12.4 C 7.76 g/m*3 12.4 C 0 km/h
955 09-10-2009 22:58:04 11.9 C 8.15 g/m*3 11.9 C 0 km/h
956 09-10-2009 23:10:04 12 C 8.31 g/m*3 12 C 0 km/h
957 09-10-2009 23:22:04 11.9 C 8.47 g/m*3 11.9 C 0 km/h
958 09-10-2009 23:34:04 12 C 8.31 g/m*3 12 C 0 km/h
959 09-10-2009 23:46:04 12 C 8.31 g/m*3 12 C 0 km/h
960 09-10-2009 23:58:04 11.8 C 8.31 g/m*3 11.8 C 0 km/h
961 10-10-2009 00:10:04 11.7 C 8.26 g/m*3 11.7 C 0 km/h
962 10-10-2009 00:22:04 11.8 C 8.31 g/m*3 11.8 C 0 km/h
963 10-10-2009 00:34:04 11.8 C 8.31 g/m*3 11.8 C 0 km/h
964 10-10-2009 00:46:04 11.8 C 8.21 g/m*3 11.8 C 0 km/h
965 10-10-2009 00:58:04 11.8 C 8.1 g/m*3 11.8 C 0 km/h
966 10-10-2009 01:10:04 11.7 C 8.05 g/m*3 11.7 C 0 km/h
967 10-10-2009 01:22:04 11.7 C 8.16 g/m*3 11.7 C 0 km/h
968 10-10-2009 01:34:05 11.8 C 8.1 g/m*3 11.8 C 0 km/h
969 10-10-2009 01:46:05 11.8 C 8.1 g/m*3 11.8 C 0 km/h
970 10-10-2009 01:58:05 11.8 C 8.1 g/m*3 11.8 C 0 km/h
971 10-10-2009 02:10:05 11.8 C 8.1 g/m*3 11.8 C 0 km/h
972 10-10-2009 02:22:05 11.9 C 8.15 g/m*3 11.9 C 0 km/h
973 10-10-2009 02:34:05 11.8 C 8.1 g/m*3 11.8 C 0 km/h
974 10-10-2009 02:46:05 11.8 C 8.1 g/m*3 11.8 C 0 km/h
975 10-10-2009 02:58:05 11.7 C 8.05 g/m*3 11.7 C 0 km/h
Sensor: Nr:Datum:Temp:Abs-Feuchte:Windchill:Wind:
Aussen-T/F 976 10-10-2009 03:10:05 11.7 C 8.05 g/m*3 11.7 C 0 km/h
977 10-10-2009 03:22:05 11.6 C 8.11 g/m*3 11.6 C 0 km/h
978 10-10-2009 03:34:05 11.6 C 8.11 g/m*3 11.6 C 0 km/h
979 10-10-2009 03:46:05 11.7 C 8.16 g/m*3 11.7 C 0 km/h
980 10-10-2009 03:58:05 11.7 C 8.16 g/m*3 11.7 C 0 km/h
981 10-10-2009 04:10:05 11.8 C 8.21 g/m*3 11.8 C 0 km/h
982 10-10-2009 04:22:05 11.7 C 8.26 g/m*3 11.7 C 0 km/h
983 10-10-2009 04:34:05 11.3 C 8.57 g/m*3 11.3 C 0 km/h
984 10-10-2009 04:46:05 11.2 C 8.92 g/m*3 11.2 C 0 km/h
985 10-10-2009 04:58:05 11.2 C 9.02 g/m*3 11.2 C 0 km/h
986 10-10-2009 05:10:05 11.2 C 9.12 g/m*3 11.2 C 0 km/h
987 10-10-2009 05:22:06 11.2 C 9.22 g/m*3 11.2 C 0 km/h
988 10-10-2009 05:34:06 11.3 C 9.28 g/m*3 11.3 C 0 km/h
989 10-10-2009 05:46:06 11.3 C 9.28 g/m*3 11.3 C 0 km/h
990 10-10-2009 05:58:06 11.2 C 9.33 g/m*3 11.2 C 0 km/h
991 10-10-2009 06:10:06 11.2 C 9.33 g/m*3 11.2 C 0 km/h
992 10-10-2009 06:22:06 11.3 C 9.49 g/m*3 11.3 C 0 km/h
993 10-10-2009 06:34:06 11.2 C 9.43 g/m*3 11.2 C 0 km/h
994 10-10-2009 06:46:06 11.3 C 9.49 g/m*3 11.3 C 0 km/h
995 10-10-2009 06:58:06 11.3 C 9.49 g/m*3 11.3 C 0 km/h
996 10-10-2009 07:10:06 11.4 C 9.55 g/m*3 11.4 C 0 km/h
997 10-10-2009 07:22:06 11.4 C 9.65 g/m*3 11.4 C 0 km/h
998 10-10-2009 07:34:06 11.5 C 9.71 g/m*3 11.5 C 0 km/h
999 10-10-2009 07:46:06 11.6 C 9.77 g/m*3 11.6 C 0 km/h
1000 10-10-2009 07:58:06 11.5 C 9.71 g/m*3 11.5 C 0 km/h
Sensor: Nr:Datum:Temp:Abs-Feuchte:Windchill:Wind:
Aussen-T/F 1001 10-10-2009 08:10:06 11.6 C 9.77 g/m*3 11.6 C 0 km/h
1002 10-10-2009 08:22:06 11.7 C 9.83 g/m*3 11.7 C 0 km/h
1003 10-10-2009 08:34:06 11.8 C 10 g/m*3 11.8 C 0 km/h
1004 10-10-2009 08:46:06 11.9 C 10.06 g/m*3 11.9 C 0 km/h
1005 10-10-2009 08:58:06 12.1 C 10.08 g/m*3 12.1 C 0 km/h
1006 10-10-2009 09:10:07 12.1 C 10.08 g/m*3 12.1 C 0 km/h
1007 10-10-2009 09:22:07 12.1 C 10.19 g/m*3 12.1 C 0 km/h
1008 10-10-2009 09:34:02 12.2 C 10.25 g/m*3 12.2 C 0 km/h
1009 10-10-2009 09:46:02 12.2 C 10.25 g/m*3 12.2 C 0 km/h
1010 10-10-2009 09:58:02 12.4 C 10.38 g/m*3 12.4 C 0 km/h
1011 10-10-2009 10:10:01 12.7 C 10.58 g/m*3 12.7 C 0 km/h
1012 10-10-2009 10:22:01 12.9 C 10.71 g/m*3 12.9 C 0 km/h
1013 10-10-2009 10:34:01 13.1 C 10.84 g/m*3 13.1 C 0 km/h
1014 10-10-2009 10:46:02 13.3 C 10.98 g/m*3 13.3 C 0 km/h
1015 10-10-2009 10:58:02 13.6 C 11.18 g/m*3 13.6 C 0 km/h
1016 10-10-2009 11:10:02 13.8 C 11.2 g/m*3 13.8 C 0 km/h
1017 10-10-2009 11:22:02 14.2 C 11.48 g/m*3 14.2 C 0 km/h
1018 10-10-2009 11:34:02 14.7 C 11.58 g/m*3 14.7 C 0 km/h
1019 10-10-2009 11:46:02 14.9 C 11.47 g/m*3 14.9 C 0 km/h
1020 10-10-2009 11:58:02 15.2 C 11.42 g/m*3 15.2 C 0 km/h
1021 10-10-2009 12:10:01 15.6 C 11.57 g/m*3 15.6 C 0 km/h
1022 10-10-2009 12:22:01 15.9 C 11.38 g/m*3 15.9 C 0 km/h
1023 10-10-2009 12:34:02 15.9 C 11.24 g/m*3 15.9 C 0 km/h
1024 10-10-2009 12:46:02 15.6 C 11.17 g/m*3 15.6 C 0 km/h
1025 10-10-2009 12:58:02 15.5 C 11.37 g/m*3 15.5 C 0 km/h
Sensor: Nr:Datum:Temp:Abs-Feuchte:Windchill:Wind:
Aussen-T/F 1026 10-10-2009 13:10:02 15.6 C 11.57 g/m*3 15.6 C 0 km/h
1027 10-10-2009 13:22:02 16.4 C 11.72 g/m*3 16.4 C 0 km/h
1028 10-10-2009 13:34:02 16.2 C 11.45 g/m*3 16.2 C 0 km/h
1029 10-10-2009 13:46:01 15.7 C 11.11 g/m*3 15.7 C 0 km/h
1030 10-10-2009 13:58:01 16.2 C 11.17 g/m*3 16.2 C 0 km/h
1031 10-10-2009 14:10:02 16.5 C 11.23 g/m*3 16.5 C 0 km/h
1032 10-10-2009 14:22:01 16.3 C 10.96 g/m*3 16.3 C 0 km/h
1033 10-10-2009 14:34:01 16.3 C 10.41 g/m*3 16.3 C 0 km/h
1034 10-10-2009 14:46:01 16.8 C 10.44 g/m*3 16.8 C 0 km/h
1035 10-10-2009 14:58:01 18.1 C 10.51 g/m*3 18.1 C 0 km/h
1036 10-10-2009 15:10:02 18.7 C 9.77 g/m*3 18.7 C 0 km/h
1037 10-10-2009 15:22:01 18.9 C 9.23 g/m*3 18.9 C 0 km/h
1038 10-10-2009 15:34:01 18.9 C 9.07 g/m*3 18.9 C 0 km/h
1039 10-10-2009 15:46:01 18.8 C 9.02 g/m*3 18.8 C 0 km/h
1040 10-10-2009 15:58:01 18.8 C 8.7 g/m*3 18.8 C 0 km/h
1041 10-10-2009 16:10:02 19 C 8.64 g/m*3 19 C 0 km/h
1042 10-10-2009 16:22:02 18.5 C 8.54 g/m*3 18.5 C 0 km/h
1043 10-10-2009 16:34:01 17.8 C 8.35 g/m*3 17.8 C 0 km/h
1044 10-10-2009 16:46:01 17 C 8.68 g/m*3 17 C 0 km/h
1045 10-10-2009 16:58:01 17 C 8.97 g/m*3 17 C 0 km/h
1046 10-10-2009 17:10:01 16.9 C 9.21 g/m*3 16.9 C 0 km/h
1047 10-10-2009 17:22:02 17.5 C 8.95 g/m*3 17.5 C 0 km/h
1048 10-10-2009 17:34:01 17.6 C 8.7 g/m*3 17.6 C 0 km/h
1049 10-10-2009 17:46:02 16.9 C 8.92 g/m*3 16.9 C 0 km/h
1050 10-10-2009 17:58:02 16.6 C 9.18 g/m*3 16.6 C 0 km/h
Sensor: Nr:Datum:Temp:Abs-Feuchte:Windchill:Wind:
Aussen-T/F 1051 10-10-2009 18:10:01 16.4 C 9.21 g/m*3 16.4 C 0 km/h
1052 10-10-2009 18:22:02 16.1 C 9.32 g/m*3 16.1 C 0 km/h
1053 10-10-2009 18:34:01 15.2 C 9.35 g/m*3 15.2 C 0 km/h
1054 10-10-2009 18:46:02 13.8 C 9.89 g/m*3 13.8 C 0 km/h
1055 10-10-2009 18:58:02 13.7 C 10.18 g/m*3 13.7 C 0 km/h
1056 10-10-2009 19:10:02 13.5 C 10.29 g/m*3 13.5 C 0 km/h
1057 10-10-2009 19:22:02 13.1 C 10.04 g/m*3 13.1 C 0 km/h
1058 10-10-2009 19:34:02 13 C 10.09 g/m*3 13 C 0 km/h
1059 10-10-2009 19:46:02 12.8 C 10.08 g/m*3 12.8 C 0 km/h
1060 10-10-2009 19:58:02 12.8 C 10.19 g/m*3 12.8 C 0 km/h
1061 10-10-2009 20:10:01 12.6 C 10.07 g/m*3 12.6 C 0 km/h
1062 10-10-2009 20:22:02 12.5 C 10.11 g/m*3 12.5 C 0 km/h
1063 10-10-2009 20:34:02 12.2 C 9.82 g/m*3 12.2 C 0 km/h
1064 10-10-2009 20:46:02 12.2 C 9.93 g/m*3 12.2 C 0 km/h
1065 10-10-2009 20:58:02 12.1 C 9.87 g/m*3 12.1 C 0 km/h
1066 10-10-2009 21:10:02 11.9 C 9.85 g/m*3 11.9 C 0 km/h
1067 10-10-2009 21:22:01 11.7 C 9.73 g/m*3 11.7 C 0 km/h
1068 10-10-2009 21:34:02 11.5 C 9.61 g/m*3 11.5 C 0 km/h
1069 10-10-2009 21:46:02 11.4 C 9.55 g/m*3 11.4 C 0 km/h
1070 10-10-2009 21:58:02 11.2 C 9.43 g/m*3 11.2 C 0 km/h
1071 10-10-2009 22:10:03 11.2 C 9.43 g/m*3 11.2 C 0 km/h
1072 10-10-2009 22:22:02 11.1 C 9.37 g/m*3 11.1 C 0 km/h
1073 10-10-2009 22:34:02 11 C 9.31 g/m*3 11 C 0 km/h
1074 10-10-2009 22:46:02 11 C 9.31 g/m*3 11 C 0 km/h
1075 10-10-2009 22:58:02 10.8 C 9.19 g/m*3 10.8 C 0 km/h
Sensor: Nr:Datum:Temp:Abs-Feuchte:Windchill:Wind:
Aussen-T/F 1076 10-10-2009 23:11:03 10.7 C 9.13 g/m*3 10.7 C 0 km/h
1077 10-10-2009 23:23:03 10.6 C 9.08 g/m*3 10.6 C 0 km/h
1078 10-10-2009 23:35:03 10.9 C 9.25 g/m*3 10.9 C 0 km/h
1079 10-10-2009 23:47:03 11.2 C 9.43 g/m*3 11.2 C 0 km/h
1080 10-10-2009 23:59:03 11.3 C 9.38 g/m*3 11.3 C 0 km/h
1081 11-10-2009 00:11:03 11.3 C 9.28 g/m*3 11.3 C 0 km/h
1082 11-10-2009 00:23:03 11.4 C 9.34 g/m*3 11.4 C 0 km/h
1083 11-10-2009 00:35:03 11.5 C 9.3 g/m*3 11.5 C 0 km/h
1084 11-10-2009 00:47:03 11.7 C 9.31 g/m*3 11.7 C 0 km/h
1085 11-10-2009 00:59:03 11.7 C 9.2 g/m*3 11.7 C 0 km/h
1086 11-10-2009 01:11:03 11.7 C 9.1 g/m*3 11.7 C 0 km/h
1087 11-10-2009 01:23:03 11.8 C 8.95 g/m*3 11.8 C 0 km/h
1088 11-10-2009 01:35:03 11.9 C 8.9 g/m*3 11.9 C 0 km/h
1089 11-10-2009 01:47:03 11.9 C 8.9 g/m*3 11.9 C 0 km/h
1090 11-10-2009 01:59:03 11.9 C 8.9 g/m*3 11.9 C 0 km/h
1091 11-10-2009 02:11:03 12 C 8.85 g/m*3 12 C 0 km/h
1092 11-10-2009 02:23:03 12 C 8.74 g/m*3 12 C 0 km/h
1093 11-10-2009 02:35:04 12.2 C 8.63 g/m*3 12.2 C 0 km/h
1094 11-10-2009 02:47:04 12.2 C 8.52 g/m*3 12.2 C 0 km/h
1095 11-10-2009 02:59:04 12.2 C 8.42 g/m*3 12.2 C 0 km/h
1096 11-10-2009 03:11:04 12.3 C 8.36 g/m*3 12.3 C 0 km/h
1097 11-10-2009 03:23:04 12.4 C 8.3 g/m*3 12.4 C 0 km/h
1098 11-10-2009 03:35:04 12.3 C 8.25 g/m*3 12.3 C 0 km/h
1099 11-10-2009 03:47:04 12.2 C 8.31 g/m*3 12.2 C 0 km/h
1100 11-10-2009 03:59:04 12.1 C 8.36 g/m*3 12.1 C 0 km/h
Sensor: Nr:Datum:Temp:Abs-Feuchte:Windchill:Wind:
Aussen-T/F 1101 11-10-2009 04:11:04 12 C 8.21 g/m*3 12 C 0 km/h
1102 11-10-2009 04:23:04 11.9 C 8.26 g/m*3 11.9 C 0 km/h
1103 11-10-2009 04:35:04 11.8 C 8.21 g/m*3 11.8 C 0 km/h
1104 11-10-2009 04:47:04 11.8 C 8.21 g/m*3 11.8 C 0 km/h
1105 11-10-2009 04:59:04 11.7 C 8.16 g/m*3 11.7 C 0 km/h
1106 11-10-2009 05:11:04 11.6 C 8.11 g/m*3 11.6 C 0 km/h
1107 11-10-2009 05:23:04 11.2 C 8.01 g/m*3 11.2 C 0 km/h
1108 11-10-2009 05:35:04 11 C 8.11 g/m*3 11 C 0 km/h
1109 11-10-2009 05:47:04 11 C 8.21 g/m*3 11 C 0 km/h
1110 11-10-2009 05:59:04 10.9 C 8.26 g/m*3 10.9 C 0 km/h
1111 11-10-2009 06:11:04 10.8 C 8.2 g/m*3 10.8 C 0 km/h
1112 11-10-2009 06:23:04 10.7 C 8.25 g/m*3 10.7 C 0 km/h
1113 11-10-2009 06:35:04 10.5 C 8.24 g/m*3 10.5 C 0 km/h
1114 11-10-2009 06:47:05 10.6 C 8.39 g/m*3 10.6 C 0 km/h
1115 11-10-2009 06:59:05 10.5 C 8.34 g/m*3 10.5 C 0 km/h
1116 11-10-2009 07:11:05 10.3 C 8.24 g/m*3 10.3 C 0 km/h
1117 11-10-2009 07:23:05 10.3 C 8.33 g/m*3 10.3 C 0 km/h
1118 11-10-2009 07:35:05 10.4 C 8.48 g/m*3 10.4 C 0 km/h
1119 11-10-2009 07:47:05 10.6 C 8.59 g/m*3 10.6 C 0 km/h
1120 11-10-2009 07:59:05 10.6 C 8.59 g/m*3 10.6 C 0 km/h
1121 11-10-2009 08:11:05 10.6 C 8.49 g/m*3 10.6 C 0 km/h
1122 11-10-2009 08:23:03 10.7 C 8.64 g/m*3 10.7 C 0 km/h
1123 11-10-2009 08:35:03 11 C 8.71 g/m*3 11 C 0 km/h
1124 11-10-2009 08:47:02 11.2 C 8.62 g/m*3 11.2 C 0 km/h
1125 11-10-2009 08:59:02 11.4 C 8.62 g/m*3 11.4 C 0 km/h
Sensor: Nr:Datum:Temp:Abs-Feuchte:Windchill:Wind:
Aussen-T/F 1126 11-10-2009 09:11:03 11.4 C 8.52 g/m*3 11.4 C 0 km/h
1127 11-10-2009 09:23:02 11.6 C 8.63 g/m*3 11.6 C 0 km/h
1128 11-10-2009 09:35:02 11.8 C 8.63 g/m*3 11.8 C 0 km/h
1129 11-10-2009 09:47:02 11.9 C 8.68 g/m*3 11.9 C 0 km/h
1130 11-10-2009 09:59:02 12.2 C 8.74 g/m*3 12.2 C 0 km/h
1131 11-10-2009 10:11:02 12.3 C 8.58 g/m*3 12.3 C 0 km/h
1132 11-10-2009 10:23:02 12.5 C 8.69 g/m*3 12.5 C 0 km/h
1133 11-10-2009 10:35:02 12.6 C 8.74 g/m*3 12.6 C 0 km/h
1134 11-10-2009 10:47:01 12.7 C 8.79 g/m*3 12.7 C 0 km/h
1135 11-10-2009 10:59:01 13 C 8.85 g/m*3 13 C 0 km/h
1136 11-10-2009 11:11:03 13.1 C 8.9 g/m*3 13.1 C 0 km/h
1137 11-10-2009 11:23:01 13.1 C 8.79 g/m*3 13.1 C 0 km/h
1138 11-10-2009 11:35:02 13.2 C 8.84 g/m*3 13.2 C 0 km/h
1139 11-10-2009 11:47:02 13.4 C 8.83 g/m*3 13.4 C 0 km/h
1140 11-10-2009 11:59:02 13.5 C 8.77 g/m*3 13.5 C 0 km/h
1141 11-10-2009 12:11:03 13.7 C 8.76 g/m*3 13.7 C 0 km/h
1142 11-10-2009 12:23:03 13.8 C 8.7 g/m*3 13.8 C 0 km/h
1143 11-10-2009 12:35:03 14 C 8.68 g/m*3 14 C 0 km/h
1144 11-10-2009 12:47:02 14 C 8.68 g/m*3 14 C 0 km/h
1145 11-10-2009 12:59:02 13.9 C 8.75 g/m*3 13.9 C 0 km/h
1146 11-10-2009 13:11:02 13.9 C 8.63 g/m*3 13.9 C 0 km/h
1147 11-10-2009 13:23:02 14.3 C 8.6 g/m*3 14.3 C 0 km/h
1148 11-10-2009 13:35:01 14.8 C 8.49 g/m*3 14.8 C 0 km/h
1149 11-10-2009 13:47:02 14.9 C 8.41 g/m*3 14.9 C 0 km/h
1150 11-10-2009 13:59:02 14.8 C 8.49 g/m*3 14.8 C 0 km/h
Sensor: Nr:Datum:Temp:Abs-Feuchte:Windchill:Wind:
Aussen-T/F 1151 11-10-2009 14:11:03 14.4 C 8.53 g/m*3 14.4 C 0 km/h
1152 11-10-2009 14:23:01 13.6 C 8.94 g/m*3 13.6 C 0 km/h
1153 11-10-2009 14:35:02 13.1 C 9.24 g/m*3 13.1 C 0 km/h
1154 11-10-2009 14:47:03 13.2 C 9.64 g/m*3 13.2 C 0 km/h
1155 11-10-2009 14:59:03 13.7 C 9.95 g/m*3 13.7 C 0 km/h
1156 11-10-2009 15:11:03 14.5 C 9.83 g/m*3 14.5 C 0 km/h
1157 11-10-2009 15:23:02 14.8 C 9.5 g/m*3 14.8 C 0 km/h
1158 11-10-2009 15:35:02 14.9 C 9.18 g/m*3 14.9 C 0 km/h
1159 11-10-2009 15:47:02 14.7 C 8.94 g/m*3 14.7 C 0 km/h
1160 11-10-2009 15:59:02 14.3 C 8.85 g/m*3 14.3 C 0 km/h
1161 11-10-2009 16:11:02 14.3 C 8.97 g/m*3 14.3 C 0 km/h
1162 11-10-2009 16:23:02 13.8 C 8.94 g/m*3 13.8 C 0 km/h
1163 11-10-2009 16:35:02 13.2 C 9.3 g/m*3 13.2 C 0 km/h
1164 11-10-2009 16:47:02 12.9 C 9.47 g/m*3 12.9 C 0 km/h
1165 11-10-2009 16:59:02 12.8 C 9.63 g/m*3 12.8 C 0 km/h
1166 11-10-2009 17:11:02 12.6 C 9.51 g/m*3 12.6 C 0 km/h
1167 11-10-2009 17:23:01 12.5 C 9.46 g/m*3 12.5 C 0 km/h
1168 11-10-2009 17:35:02 12.7 C 9.68 g/m*3 12.7 C 0 km/h
1169 11-10-2009 17:47:02 12.8 C 9.63 g/m*3 12.8 C 0 km/h
1170 11-10-2009 17:59:02 12.6 C 9.51 g/m*3 12.6 C 0 km/h
1171 11-10-2009 18:11:02 12.6 C 9.51 g/m*3 12.6 C 0 km/h
1172 11-10-2009 18:23:01 12.7 C 9.46 g/m*3 12.7 C 0 km/h
1173 11-10-2009 18:35:02 12.7 C 9.46 g/m*3 12.7 C 0 km/h
1174 11-10-2009 18:47:01 12.7 C 9.46 g/m*3 12.7 C 0 km/h
1175 11-10-2009 18:59:01 12.5 C 9.35 g/m*3 12.5 C 0 km/h
Sensor: Nr:Datum:Temp:Abs-Feuchte:Windchill:Wind:
Aussen-T/F 1176 11-10-2009 19:11:02 12.4 C 9.29 g/m*3 12.4 C 0 km/h
1177 11-10-2009 19:23:02 12.5 C 9.35 g/m*3 12.5 C 0 km/h
1178 11-10-2009 19:35:02 12.4 C 9.18 g/m*3 12.4 C 0 km/h
1179 11-10-2009 19:47:02 12.4 C 9.07 g/m*3 12.4 C 0 km/h
1180 11-10-2009 19:59:02 12.4 C 8.85 g/m*3 12.4 C 0 km/h
1181 11-10-2009 20:11:02 12.5 C 8.8 g/m*3 12.5 C 0 km/h
1182 11-10-2009 20:23:02 12.8 C 8.51 g/m*3 12.8 C 0 km/h
1183 11-10-2009 20:35:01 12.7 C 8.35 g/m*3 12.7 C 0 km/h
1184 11-10-2009 20:47:02 12.5 C 8.25 g/m*3 12.5 C 0 km/h
1185 11-10-2009 20:59:02 12.4 C 8.41 g/m*3 12.4 C 0 km/h
1186 11-10-2009 21:11:02 12.4 C 8.41 g/m*3 12.4 C 0 km/h
1187 11-10-2009 21:23:01 12.5 C 8.58 g/m*3 12.5 C 0 km/h
1188 11-10-2009 21:35:02 12.5 C 8.58 g/m*3 12.5 C 0 km/h
1189 11-10-2009 21:48:02 12.4 C 8.63 g/m*3 12.4 C 0 km/h
1190 11-10-2009 22:00:03 12.1 C 8.79 g/m*3 12.1 C 0 km/h
1191 11-10-2009 22:12:03 11.9 C 8.9 g/m*3 11.9 C 0 km/h
1192 11-10-2009 22:24:03 11.7 C 8.99 g/m*3 11.7 C 0 km/h
1193 11-10-2009 22:36:03 11.6 C 9.15 g/m*3 11.6 C 0 km/h
1194 11-10-2009 22:48:03 11.6 C 9.15 g/m*3 11.6 C 0 km/h
1195 11-10-2009 23:00:03 11.5 C 9.19 g/m*3 11.5 C 0 km/h
1196 11-10-2009 23:12:03 11.5 C 9.19 g/m*3 11.5 C 0 km/h
1197 11-10-2009 23:24:03 11.3 C 9.08 g/m*3 11.3 C 0 km/h
1198 11-10-2009 23:36:03 11.4 C 9.24 g/m*3 11.4 C 0 km/h
1199 11-10-2009 23:48:03 11.5 C 9.3 g/m*3 11.5 C 0 km/h
1200 12-10-2009 00:00:03 11.4 C 9.24 g/m*3 11.4 C 0 km/h
Sensor: Nr:Datum:Temp:Abs-Feuchte:Windchill:Wind:
Aussen-T/F 1201 12-10-2009 00:12:03 11.4 C 9.24 g/m*3 11.4 C 0 km/h
1202 12-10-2009 00:24:03 11 C 8.41 g/m*3 11 C 0 km/h
1203 12-10-2009 00:36:03 10.8 C 7.71 g/m*3 10.8 C 0 km/h
1204 12-10-2009 00:48:03 10.4 C 7.52 g/m*3 10.4 C 0 km/h
1205 12-10-2009 01:00:03 10.2 C 7.52 g/m*3 10.2 C 0 km/h
1206 12-10-2009 01:12:03 9.9 C 7.56 g/m*3 9.9 C 0 km/h
1207 12-10-2009 01:24:03 9.7 C 7.65 g/m*3 9.7 C 0 km/h
1208 12-10-2009 01:36:03 9.6 C 7.69 g/m*3 9.6 C 0 km/h
1209 12-10-2009 01:48:03 9.6 C 7.79 g/m*3 9.6 C 0 km/h
1210 12-10-2009 02:00:04 9.7 C 7.93 g/m*3 9.7 C 0 km/h
1211 12-10-2009 02:12:04 9.8 C 7.89 g/m*3 9.8 C 0 km/h
1212 12-10-2009 02:24:04 10.1 C 7.75 g/m*3 10.1 C 0 km/h
1213 12-10-2009 02:36:04 10.3 C 7.66 g/m*3 10.3 C 0 km/h
1214 12-10-2009 02:48:04 10.2 C 7.61 g/m*3 10.2 C 0 km/h
1215 12-10-2009 03:00:04 10.4 C 7.71 g/m*3 10.4 C 0 km/h
1216 12-10-2009 03:12:04 10.3 C 7.66 g/m*3 10.3 C 0 km/h
1217 12-10-2009 03:24:04 10.4 C 7.71 g/m*3 10.4 C 0 km/h
1218 12-10-2009 03:36:04 10.5 C 7.57 g/m*3 10.5 C 0 km/h
1219 12-10-2009 03:48:04 10.8 C 7.41 g/m*3 10.8 C 0 km/h
1220 12-10-2009 04:00:04 10.7 C 7.17 g/m*3 10.7 C 0 km/h
1221 12-10-2009 04:12:04 10.4 C 7.04 g/m*3 10.4 C 0 km/h
1222 12-10-2009 04:24:04 10.3 C 6.99 g/m*3 10.3 C 0 km/h
1223 12-10-2009 04:36:04 10.3 C 6.99 g/m*3 10.3 C 0 km/h
1224 12-10-2009 04:48:04 10.4 C 6.94 g/m*3 10.4 C 0 km/h
1225 12-10-2009 05:00:04 10.4 C 6.84 g/m*3 10.4 C 0 km/h
Sensor: Nr:Datum:Temp:Abs-Feuchte:Windchill:Wind:
Aussen-T/F 1226 12-10-2009 05:12:04 10 C 6.95 g/m*3 10 C 0 km/h
1227 12-10-2009 05:24:04 10 C 7.05 g/m*3 10 C 0 km/h
1228 12-10-2009 05:36:04 10 C 6.95 g/m*3 10 C 0 km/h
1229 12-10-2009 05:48:04 10 C 6.86 g/m*3 10 C 0 km/h
1230 12-10-2009 06:00:05 10.3 C 6.9 g/m*3 10.3 C 0 km/h
1231 12-10-2009 06:12:05 10.4 C 6.75 g/m*3 10.4 C 0 km/h
1232 12-10-2009 06:24:05 10.5 C 6.79 g/m*3 10.5 C 0 km/h
1233 12-10-2009 06:36:05 10.5 C 6.69 g/m*3 10.5 C 0 km/h
1234 12-10-2009 06:48:05 10.5 C 6.69 g/m*3 10.5 C 0 km/h
1235 12-10-2009 07:00:05 10.4 C 6.65 g/m*3 10.4 C 0 km/h
1236 12-10-2009 07:12:02 10.4 C 6.65 g/m*3 10.4 C 0 km/h
1237 12-10-2009 07:24:02 10.5 C 6.69 g/m*3 10.5 C 0 km/h
1238 12-10-2009 07:36:02 10.5 C 6.69 g/m*3 10.5 C 0 km/h
1239 12-10-2009 07:48:02 10.5 C 6.69 g/m*3 10.5 C 0 km/h
1240 12-10-2009 08:00:02 10.5 C 6.69 g/m*3 10.5 C 0 km/h
1241 12-10-2009 08:12:02 10.5 C 6.69 g/m*3 10.5 C 0 km/h
1242 12-10-2009 08:24:02 10.5 C 6.79 g/m*3 10.5 C 0 km/h
1243 12-10-2009 08:36:01 10.5 C 6.89 g/m*3 10.5 C 0 km/h
1244 12-10-2009 08:48:02 9.9 C 7.1 g/m*3 9.9 C 0 km/h
1245 12-10-2009 09:00:02 9.6 C 7.42 g/m*3 9.6 C 0 km/h
1246 12-10-2009 09:12:01 9.7 C 7.56 g/m*3 9.7 C 0 km/h
1247 12-10-2009 09:24:02 9.8 C 7.61 g/m*3 9.8 C 0 km/h
1248 12-10-2009 09:36:01 9.7 C 7.56 g/m*3 9.7 C 0 km/h
1249 12-10-2009 09:48:02 9.7 C 7.65 g/m*3 9.7 C 0 km/h
1250 12-10-2009 10:00:02 10 C 7.52 g/m*3 10 C 0 km/h
Sensor: Nr:Datum:Temp:Abs-Feuchte:Windchill:Wind:
Aussen-T/F 1251 12-10-2009 10:12:01 9.9 C 7.38 g/m*3 9.9 C 0 km/h
1252 12-10-2009 10:24:02 9.9 C 7.28 g/m*3 9.9 C 0 km/h
1253 12-10-2009 10:36:01 10 C 6.95 g/m*3 10 C 0 km/h
1254 12-10-2009 10:48:02 10.1 C 7 g/m*3 10.1 C 0 km/h
1255 12-10-2009 11:00:02 10.5 C 6.6 g/m*3 10.5 C 0 km/h
1256 12-10-2009 11:12:02 10.7 C 6.58 g/m*3 10.7 C 0 km/h
1257 12-10-2009 11:24:02 10.9 C 6.27 g/m*3 10.9 C 0 km/h
1258 12-10-2009 11:36:03 11.2 C 5.88 g/m*3 11.2 C 0 km/h
1259 12-10-2009 11:48:02 11.2 C 5.37 g/m*3 11.2 C 0 km/h
1260 12-10-2009 12:00:03 10.8 C 5.44 g/m*3 10.8 C 0 km/h
1261 12-10-2009 12:12:01 10.6 C 5.37 g/m*3 10.6 C 0 km/h
1262 12-10-2009 12:24:02 10.8 C 5.63 g/m*3 10.8 C 0 km/h
1263 12-10-2009 12:36:02 11.5 C 5.58 g/m*3 11.5 C 0 km/h
1264 12-10-2009 12:48:02 11.5 C 5.37 g/m*3 11.5 C 0 km/h
1265 12-10-2009 13:00:02 11.4 C 5.34 g/m*3 11.4 C 0 km/h
1266 12-10-2009 13:12:03 11.5 C 5.27 g/m*3 11.5 C 0 km/h
1267 12-10-2009 13:24:02 11.9 C 5.82 g/m*3 11.9 C 0 km/h
1268 12-10-2009 13:36:02 12.1 C 5.58 g/m*3 12.1 C 0 km/h
1269 12-10-2009 13:48:01 12.3 C 4.89 g/m*3 12.3 C 0 km/h
1270 12-10-2009 14:00:01 13 C 4.65 g/m*3 13 C 0 km/h
1271 12-10-2009 14:12:02 12.8 C 4.59 g/m*3 12.8 C 0 km/h
1272 12-10-2009 14:24:01 12.8 C 4.48 g/m*3 12.8 C 0 km/h
1273 12-10-2009 14:36:02 13.5 C 4.44 g/m*3 13.5 C 0 km/h
1274 12-10-2009 14:48:02 13.1 C 4.34 g/m*3 13.1 C 0 km/h
1275 12-10-2009 15:00:02 13.6 C 4.24 g/m*3 13.6 C 0 km/h
Sensor: Nr:Datum:Temp:Abs-Feuchte:Windchill:Wind:
Aussen-T/F 1276 12-10-2009 15:12:02 13.4 C 4.18 g/m*3 13.4 C 0 km/h
1277 12-10-2009 15:24:01 13.3 C 4.39 g/m*3 13.3 C 0 km/h
1278 12-10-2009 15:36:02 13.2 C 4.25 g/m*3 13.2 C 0 km/h
1279 12-10-2009 15:48:02 13.2 C 4.25 g/m*3 13.2 C 0 km/h
1280 12-10-2009 16:00:02 13.3 C 4.16 g/m*3 13.3 C 0 km/h
1281 12-10-2009 16:12:02 14.7 C 4.41 g/m*3 14.7 C 0 km/h
1282 12-10-2009 16:24:02 15.2 C 4.15 g/m*3 15.2 C 0 km/h
1283 12-10-2009 16:36:02 14.7 C 4.41 g/m*3 14.7 C 0 km/h
1284 12-10-2009 16:48:02 14.7 C 4.41 g/m*3 14.7 C 0 km/h
1285 12-10-2009 17:00:02 14.7 C 4.28 g/m*3 14.7 C 0 km/h
1286 12-10-2009 17:12:02 14.7 C 4.28 g/m*3 14.7 C 0 km/h
1287 12-10-2009 17:24:02 14.1 C 4 g/m*3 14.1 C 0 km/h
1288 12-10-2009 17:36:02 13.3 C 4.16 g/m*3 13.3 C 0 km/h
1289 12-10-2009 17:48:02 13 C 4.42 g/m*3 13 C 0 km/h
1290 12-10-2009 18:00:02 12.8 C 4.59 g/m*3 12.8 C 0 km/h
1291 12-10-2009 18:12:02 12.7 C 4.68 g/m*3 12.7 C 0 km/h
1292 12-10-2009 18:24:02 12.5 C 4.62 g/m*3 12.5 C 0 km/h
1293 12-10-2009 18:36:02 12.2 C 4.86 g/m*3 12.2 C 0 km/h
1294 12-10-2009 18:48:02 12 C 5.01 g/m*3 12 C 0 km/h
1295 12-10-2009 19:00:02 11.5 C 5.16 g/m*3 11.5 C 0 km/h
1296 12-10-2009 19:12:02 11.1 C 5.24 g/m*3 11.1 C 0 km/h
1297 12-10-2009 19:24:03 10.9 C 5.27 g/m*3 10.9 C 0 km/h
1298 12-10-2009 19:36:02 10.7 C 5.3 g/m*3 10.7 C 0 km/h
1299 12-10-2009 19:48:02 10.6 C 5.27 g/m*3 10.6 C 0 km/h
1300 12-10-2009 20:00:02 10.4 C 5.3 g/m*3 10.4 C 0 km/h
Sensor: Nr:Datum:Temp:Abs-Feuchte:Windchill:Wind:
Aussen-T/F 1301 12-10-2009 20:12:02 10.2 C 5.42 g/m*3 10.2 C 0 km/h
1302 12-10-2009 20:24:02 10.3 C 5.55 g/m*3 10.3 C 0 km/h
1303 12-10-2009 20:36:02 10.4 C 5.49 g/m*3 10.4 C 0 km/h
1304 12-10-2009 20:48:02 10.4 C 5.78 g/m*3 10.4 C 0 km/h
1305 12-10-2009 21:00:02 10.4 C 5.88 g/m*3 10.4 C 0 km/h
1306 12-10-2009 21:12:02 10.2 C 6.19 g/m*3 10.2 C 0 km/h
1307 12-10-2009 21:24:02 10.1 C 6.34 g/m*3 10.1 C 0 km/h
1308 12-10-2009 21:36:02 9.8 C 6.68 g/m*3 9.8 C 0 km/h
1309 12-10-2009 21:48:02 9.5 C 6.83 g/m*3 9.5 C 0 km/h
1310 12-10-2009 22:00:03 9.1 C 7.01 g/m*3 9.1 C 0 km/h
1311 12-10-2009 22:12:02 9.2 C 7.32 g/m*3 9.2 C 0 km/h
1312 12-10-2009 22:24:02 8.9 C 7.45 g/m*3 8.9 C 0 km/h
1313 12-10-2009 22:36:02 8.7 C 7.35 g/m*3 8.7 C 0 km/h
1314 12-10-2009 22:49:01 8.7 C 7.44 g/m*3 8.7 C 0 km/h
1315 12-10-2009 23:01:01 8.6 C 7.48 g/m*3 8.6 C 0 km/h
1316 12-10-2009 23:13:01 8.3 C 7.33 g/m*3 8.3 C 0 km/h
1317 12-10-2009 23:25:01 8.1 C 7.32 g/m*3 8.1 C 0 km/h
1318 12-10-2009 23:37:01 8 C 7.36 g/m*3 8 C 0 km/h
1319 12-10-2009 23:49:01 8 C 7.44 g/m*3 8 C 0 km/h
1320 13-10-2009 00:01:01 8 C 7.44 g/m*3 8 C 0 km/h
1321 13-10-2009 00:13:01 8 C 7.44 g/m*3 8 C 0 km/h
1322 13-10-2009 00:25:01 7.8 C 7.43 g/m*3 7.8 C 0 km/h
1323 13-10-2009 00:37:01 7.6 C 7.33 g/m*3 7.6 C 0 km/h
1324 13-10-2009 00:49:01 7.7 C 7.46 g/m*3 7.7 C 0 km/h
1325 13-10-2009 01:01:01 7.6 C 7.41 g/m*3 7.6 C 0 km/h
Sensor: Nr:Datum:Temp:Abs-Feuchte:Windchill:Wind:
Aussen-T/F 1326 13-10-2009 01:13:01 7.5 C 7.36 g/m*3 7.5 C 0 km/h
1327 13-10-2009 01:25:02 7.7 C 7.46 g/m*3 7.7 C 0 km/h
1328 13-10-2009 01:37:02 7.8 C 7.59 g/m*3 7.8 C 0 km/h
1329 13-10-2009 01:49:02 7.6 C 7.49 g/m*3 7.6 C 0 km/h
1330 13-10-2009 02:01:02 7.3 C 7.27 g/m*3 7.3 C 0 km/h
1331 13-10-2009 02:13:02 7.2 C 7.22 g/m*3 7.2 C 0 km/h
1332 13-10-2009 02:25:02 7.3 C 7.35 g/m*3 7.3 C 0 km/h
1333 13-10-2009 02:37:02 7.5 C 7.44 g/m*3 7.5 C 0 km/h
1334 13-10-2009 02:49:02 7.5 C 7.44 g/m*3 7.5 C 0 km/h
1335 13-10-2009 03:01:02 7.7 C 7.54 g/m*3 7.7 C 0 km/h
1336 13-10-2009 03:13:02 7.8 C 7.59 g/m*3 7.8 C 0 km/h
1337 13-10-2009 03:25:02 7.7 C 7.54 g/m*3 7.7 C 0 km/h
1338 13-10-2009 03:37:02 7.6 C 7.49 g/m*3 7.6 C 0 km/h
1339 13-10-2009 03:49:02 7.8 C 7.59 g/m*3 7.8 C 0 km/h
1340 13-10-2009 04:01:02 7.9 C 7.64 g/m*3 7.9 C 0 km/h
1341 13-10-2009 04:13:02 8 C 7.61 g/m*3 8 C 0 km/h
1342 13-10-2009 04:25:02 7.9 C 7.56 g/m*3 7.9 C 0 km/h
1343 13-10-2009 04:37:02 7.8 C 7.51 g/m*3 7.8 C 0 km/h
1344 13-10-2009 04:49:02 7.6 C 7.33 g/m*3 7.6 C 0 km/h
1345 13-10-2009 05:01:02 7.8 C 7.51 g/m*3 7.8 C 0 km/h
1346 13-10-2009 05:13:02 7.7 C 7.46 g/m*3 7.7 C 0 km/h
1347 13-10-2009 05:25:02 7.6 C 7.41 g/m*3 7.6 C 0 km/h
1348 13-10-2009 05:37:03 7.8 C 7.51 g/m*3 7.8 C 0 km/h
1349 13-10-2009 05:49:03 7.9 C 7.56 g/m*3 7.9 C 0 km/h
1350 13-10-2009 06:01:03 7.8 C 7.51 g/m*3 7.8 C 0 km/h
Sensor: Nr:Datum:Temp:Abs-Feuchte:Windchill:Wind:
Aussen-T/F 1351 13-10-2009 06:13:03 7.5 C 7.28 g/m*3 7.5 C 0 km/h
1352 13-10-2009 06:25:03 7.3 C 7.19 g/m*3 7.3 C 0 km/h
1353 13-10-2009 06:37:03 7.3 C 7.19 g/m*3 7.3 C 0 km/h
1354 13-10-2009 06:49:03 7.1 C 7.1 g/m*3 7.1 C 0 km/h
1355 13-10-2009 07:01:01 7 C 7.13 g/m*3 7 C 0 km/h
1356 13-10-2009 07:13:01 6.9 C 7.08 g/m*3 6.9 C 0 km/h
1357 13-10-2009 07:25:02 6.8 C 7.04 g/m*3 6.8 C 0 km/h
1358 13-10-2009 07:37:01 6.7 C 7.07 g/m*3 6.7 C 0 km/h
1359 13-10-2009 07:49:02 6.5 C 6.9 g/m*3 6.5 C 0 km/h
1360 13-10-2009 08:01:01 6.4 C 6.93 g/m*3 6.4 C 0 km/h
1361 13-10-2009 08:13:01 6.3 C 6.88 g/m*3 6.3 C 0 km/h
1362 13-10-2009 08:25:02 6.4 C 6.93 g/m*3 6.4 C 0 km/h
1363 13-10-2009 08:37:01 6.5 C 6.97 g/m*3 6.5 C 0 km/h
1364 13-10-2009 08:49:02 6.5 C 6.97 g/m*3 6.5 C 0 km/h
1365 13-10-2009 09:01:02 6.5 C 6.97 g/m*3 6.5 C 0 km/h
1366 13-10-2009 09:13:02 6.9 C 7.16 g/m*3 6.9 C 0 km/h
1367 13-10-2009 09:25:02 7.3 C 7.35 g/m*3 7.3 C 0 km/h
1368 13-10-2009 09:37:02 7.2 C 7.22 g/m*3 7.2 C 0 km/h
1369 13-10-2009 09:49:02 7.2 C 7.22 g/m*3 7.2 C 0 km/h
1370 13-10-2009 10:01:02 7.2 C 7.14 g/m*3 7.2 C 0 km/h
1371 13-10-2009 10:13:02 7.5 C 7.28 g/m*3 7.5 C 0 km/h
1372 13-10-2009 10:25:02 7.9 C 7.47 g/m*3 7.9 C 0 km/h
1373 13-10-2009 10:37:02 8.4 C 7.38 g/m*3 8.4 C 0 km/h
1374 13-10-2009 10:49:02 8.6 C 6.96 g/m*3 8.6 C 0 km/h
1375 13-10-2009 11:01:02 8.7 C 6.83 g/m*3 8.7 C 0 km/h
Sensor: Nr:Datum:Temp:Abs-Feuchte:Windchill:Wind:
Aussen-T/F 1376 13-10-2009 11:13:02 9.2 C 6.79 g/m*3 9.2 C 0 km/h
1377 13-10-2009 11:25:02 9.3 C 6.65 g/m*3 9.3 C 0 km/h
1378 13-10-2009 11:37:02 9.2 C 6.52 g/m*3 9.2 C 0 km/h
1379 13-10-2009 11:49:02 9.4 C 6.51 g/m*3 9.4 C 0 km/h
1380 13-10-2009 12:01:02 9.9 C 6.54 g/m*3 9.9 C 0 km/h
1381 13-10-2009 12:13:02 10.9 C 6.56 g/m*3 10.9 C 0 km/h
1382 13-10-2009 12:25:02 10.5 C 6.11 g/m*3 10.5 C 0 km/h
1383 13-10-2009 12:37:02 10.4 C 6.26 g/m*3 10.4 C 0 km/h
1384 13-10-2009 12:49:01 11.6 C 6.24 g/m*3 11.6 C 0 km/h
1385 13-10-2009 13:01:02 11.1 C 5.54 g/m*3 11.1 C 0 km/h
1386 13-10-2009 13:13:02 11.5 C 5.58 g/m*3 11.5 C 0 km/h
1387 13-10-2009 13:25:02 11.4 C 5.13 g/m*3 11.4 C 0 km/h
1388 13-10-2009 13:37:02 12 C 5.12 g/m*3 12 C 0 km/h
1389 13-10-2009 13:49:02 13 C 5.1 g/m*3 13 C 0 km/h
1390 13-10-2009 14:01:01 12.7 C 4.9 g/m*3 12.7 C 0 km/h
1391 13-10-2009 14:13:01 12.8 C 4.59 g/m*3 12.8 C 0 km/h
1392 13-10-2009 14:25:02 12.2 C 4.53 g/m*3 12.2 C 0 km/h
1393 13-10-2009 14:37:01 12.2 C 4.64 g/m*3 12.2 C 0 km/h
1394 13-10-2009 14:49:02 14 C 4.82 g/m*3 14 C 0 km/h
1395 13-10-2009 15:01:01 14.4 C 4.57 g/m*3 14.4 C 0 km/h
1396 13-10-2009 15:13:01 14 C 4.22 g/m*3 14 C 0 km/h
1397 13-10-2009 15:25:01 12.7 C 4.34 g/m*3 12.7 C 0 km/h
1398 13-10-2009 15:37:01 13 C 4.54 g/m*3 13 C 0 km/h
1399 13-10-2009 15:49:02 13.4 C 4.42 g/m*3 13.4 C 0 km/h
1400 13-10-2009 16:01:01 13.5 C 4.44 g/m*3 13.5 C 0 km/h
Sensor: Nr:Datum:Temp:Abs-Feuchte:Windchill:Wind:
Aussen-T/F 1401 13-10-2009 16:13:01 13.4 C 4.3 g/m*3 13.4 C 0 km/h
1402 13-10-2009 16:25:02 13 C 4.08 g/m*3 13 C 0 km/h
1403 13-10-2009 16:37:02 12.8 C 4.37 g/m*3 12.8 C 0 km/h
1404 13-10-2009 16:49:02 12.5 C 4.4 g/m*3 12.5 C 0 km/h
1405 13-10-2009 17:01:01 12.6 C 4.43 g/m*3 12.6 C 0 km/h
1406 13-10-2009 17:13:01 13.1 C 4.11 g/m*3 13.1 C 0 km/h
1407 13-10-2009 17:25:01 12.6 C 4.54 g/m*3 12.6 C 0 km/h
1408 13-10-2009 17:37:02 12.4 C 4.48 g/m*3 12.4 C 0 km/h
1409 13-10-2009 17:49:02 12.1 C 4.5 g/m*3 12.1 C 0 km/h
1410 13-10-2009 18:01:01 12 C 4.48 g/m*3 12 C 0 km/h
1411 13-10-2009 18:13:01 12.2 C 4.53 g/m*3 12.2 C 0 km/h
1412 13-10-2009 18:25:02 11.9 C 4.66 g/m*3 11.9 C 0 km/h
1413 13-10-2009 18:37:02 11.5 C 4.65 g/m*3 11.5 C 0 km/h
1414 13-10-2009 18:49:02 11.3 C 4.9 g/m*3 11.3 C 0 km/h
1415 13-10-2009 19:01:03 11.2 C 4.66 g/m*3 11.2 C 0 km/h
1416 13-10-2009 19:13:03 11.2 C 4.87 g/m*3 11.2 C 0 km/h
1417 13-10-2009 19:25:02 10.9 C 4.97 g/m*3 10.9 C 0 km/h
1418 13-10-2009 19:37:02 10.8 C 5.04 g/m*3 10.8 C 0 km/h
1419 13-10-2009 19:49:02 10.4 C 5.3 g/m*3 10.4 C 0 km/h
1420 13-10-2009 20:01:02 10.4 C 5.01 g/m*3 10.4 C 0 km/h
1421 13-10-2009 20:13:02 10.4 C 5.01 g/m*3 10.4 C 0 km/h
1422 13-10-2009 20:25:01 10.1 C 4.92 g/m*3 10.1 C 0 km/h
1423 13-10-2009 20:37:02 10 C 5.26 g/m*3 10 C 0 km/h
1424 13-10-2009 20:49:02 9.8 C 5.29 g/m*3 9.8 C 0 km/h
1425 13-10-2009 21:01:02 9.6 C 5.22 g/m*3 9.6 C 0 km/h
Sensor: Nr:Datum:Temp:Abs-Feuchte:Windchill:Wind:
Aussen-T/F 1426 13-10-2009 21:13:02 9.5 C 5.37 g/m*3 9.5 C 0 km/h
1427 13-10-2009 21:25:02 9.1 C 5.32 g/m*3 9.1 C 0 km/h
1428 13-10-2009 21:37:01 8.8 C 5.4 g/m*3 8.8 C 0 km/h
1429 13-10-2009 21:49:02 8.6 C 5.5 g/m*3 8.6 C 0 km/h
1430 13-10-2009 22:01:01 8.7 C 5.62 g/m*3 8.7 C 0 km/h
1431 13-10-2009 22:13:01 8.6 C 5.41 g/m*3 8.6 C 0 km/h
1432 13-10-2009 22:26:02 8.4 C 5.43 g/m*3 8.4 C 0 km/h
1433 13-10-2009 22:38:02 8 C 5.37 g/m*3 8 C 0 km/h
1434 13-10-2009 22:50:02 7.6 C 5.4 g/m*3 7.6 C 0 km/h
1435 13-10-2009 23:02:02 7.1 C 5.3 g/m*3 7.1 C 0 km/h
1436 13-10-2009 23:14:02 6.8 C 5.35 g/m*3 6.8 C 0 km/h
1437 13-10-2009 23:26:02 6.4 C 5.22 g/m*3 6.4 C 0 km/h
1438 13-10-2009 23:38:02 6.2 C 5.22 g/m*3 6.2 C 0 km/h
1439 13-10-2009 23:50:02 5.8 C 5.16 g/m*3 5.8 C 0 km/h
1440 14-10-2009 00:02:02 5.4 C 5.16 g/m*3 5.4 C 0 km/h
1441 14-10-2009 00:14:02 5.1 C 5.06 g/m*3 5.1 C 0 km/h
1442 14-10-2009 00:26:02 4.8 C 5.1 g/m*3 4.8 C 0 km/h
1443 14-10-2009 00:38:02 4.8 C 5.16 g/m*3 4.8 C 0 km/h
1444 14-10-2009 00:50:02 4.4 C 5.03 g/m*3 4.4 C 0 km/h
1445 14-10-2009 01:02:02 4.2 C 4.96 g/m*3 4.2 C 0 km/h
1446 14-10-2009 01:14:02 4.1 C 4.99 g/m*3 4.1 C 0 km/h
1447 14-10-2009 01:26:02 4 C 4.96 g/m*3 4 C 0 km/h
1448 14-10-2009 01:38:03 3.9 C 5.05 g/m*3 3.9 C 0 km/h
1449 14-10-2009 01:50:03 3.7 C 5.05 g/m*3 3.7 C 0 km/h
1450 14-10-2009 02:02:03 3.6 C 5.01 g/m*3 3.6 C 0 km/h
Sensor: Nr:Datum:Temp:Abs-Feuchte:Windchill:Wind:
Aussen-T/F 1451 14-10-2009 02:14:03 3.5 C 5.04 g/m*3 3.5 C 0 km/h
1452 14-10-2009 02:26:03 3.3 C 4.97 g/m*3 3.3 C 0 km/h
1453 14-10-2009 02:38:03 3.1 C 4.91 g/m*3 3.1 C 0 km/h
1454 14-10-2009 02:50:03 3 C 4.88 g/m*3 3 C 0 km/h
1455 14-10-2009 03:02:03 2.9 C 4.9 g/m*3 2.9 C 0 km/h
1456 14-10-2009 03:14:03 2.7 C 4.89 g/m*3 2.7 C 0 km/h
1457 14-10-2009 03:26:03 2.5 C 4.83 g/m*3 2.5 C 0 km/h
1458 14-10-2009 03:38:03 2.5 C 4.89 g/m*3 2.5 C 0 km/h
1459 14-10-2009 03:50:03 2.4 C 4.85 g/m*3 2.4 C 0 km/h
1460 14-10-2009 04:02:03 2.2 C 4.79 g/m*3 2.2 C 0 km/h
1461 14-10-2009 04:14:03 2.2 C 4.84 g/m*3 2.2 C 0 km/h
1462 14-10-2009 04:26:03 2.1 C 4.87 g/m*3 2.1 C 0 km/h
1463 14-10-2009 04:38:03 1.9 C 4.8 g/m*3 1.9 C 0 km/h
1464 14-10-2009 04:50:03 1.9 C 4.86 g/m*3 1.9 C 0 km/h
1465 14-10-2009 05:02:03 1.7 C 4.79 g/m*3 1.7 C 0 km/h
1466 14-10-2009 05:14:03 1.7 C 4.79 g/m*3 1.7 C 0 km/h
1467 14-10-2009 05:26:03 1.4 C 4.69 g/m*3 1.4 C 0 km/h
1468 14-10-2009 05:38:03 1.4 C 4.69 g/m*3 1.4 C 0 km/h
1469 14-10-2009 05:50:04 1.2 C 4.68 g/m*3 1.2 C 0 km/h
1470 14-10-2009 06:02:04 1.1 C 4.65 g/m*3 1.1 C 0 km/h
1471 14-10-2009 06:14:04 0.9 C 4.64 g/m*3 0.9 C 0 km/h
1472 14-10-2009 06:26:04 0.8 C 4.56 g/m*3 0.8 C 0 km/h
1473 14-10-2009 06:38:04 0.6 C 4.49 g/m*3 0.6 C 0 km/h
1474 14-10-2009 06:50:04 0.7 C 4.58 g/m*3 0.7 C 0 km/h
1475 14-10-2009 07:02:01 0.5 C 4.51 g/m*3 0.5 C 0 km/h
Sensor: Nr:Datum:Temp:Abs-Feuchte:Windchill:Wind:
Aussen-T/F 1476 14-10-2009 07:14:01 0.5 C 4.51 g/m*3 0.5 C 0 km/h
1477 14-10-2009 07:26:02 0.5 C 4.51 g/m*3 0.5 C 0 km/h
1478 14-10-2009 07:38:01 0.8 C 4.66 g/m*3 0.8 C 0 km/h
1479 14-10-2009 07:50:03 1.1 C 4.81 g/m*3 1.1 C 0 km/h
1480 14-10-2009 08:02:02 1.1 C 4.81 g/m*3 1.1 C 0 km/h
1481 14-10-2009 08:14:02 1.2 C 4.84 g/m*3 1.2 C 0 km/h
1482 14-10-2009 08:26:02 1.5 C 4.94 g/m*3 1.5 C 0 km/h
1483 14-10-2009 08:38:02 1.8 C 5.1 g/m*3 1.8 C 0 km/h
1484 14-10-2009 08:50:02 2 C 5.11 g/m*3 2 C 0 km/h
1485 14-10-2009 09:02:02 2.2 C 5.18 g/m*3 2.2 C 0 km/h
1486 14-10-2009 09:14:02 2.6 C 5.32 g/m*3 2.6 C 0 km/h
1487 14-10-2009 09:26:02 2.9 C 5.43 g/m*3 2.9 C 0 km/h
1488 14-10-2009 09:38:02 3.1 C 5.39 g/m*3 3.1 C 0 km/h
1489 14-10-2009 09:50:02 2.9 C 5.2 g/m*3 2.9 C 0 km/h
1490 14-10-2009 10:02:01 2.8 C 5.1 g/m*3 2.8 C 0 km/h
1491 14-10-2009 10:14:01 3.4 C 5.25 g/m*3 3.4 C 0 km/h
1492 14-10-2009 10:26:02 4.1 C 5.44 g/m*3 4.1 C 0 km/h
1493 14-10-2009 10:38:01 4.2 C 5.22 g/m*3 4.2 C 0 km/h
1494 14-10-2009 10:50:02 4.6 C 5.23 g/m*3 4.6 C 0 km/h
1495 14-10-2009 11:02:01 4.8 C 5.16 g/m*3 4.8 C 0 km/h
1496 14-10-2009 11:14:01 4.8 C 5.03 g/m*3 4.8 C 0 km/h
1497 14-10-2009 11:26:02 4.5 C 5 g/m*3 4.5 C 0 km/h
1498 14-10-2009 11:38:01 5.7 C 5.48 g/m*3 5.7 C 0 km/h
1499 14-10-2009 11:50:02 5.9 C 5.12 g/m*3 5.9 C 0 km/h
1500 14-10-2009 12:02:02 6.3 C 5.03 g/m*3 6.3 C 0 km/h
Sensor: Nr:Datum:Temp:Abs-Feuchte:Windchill:Wind:
Aussen-T/F 1501 14-10-2009 12:14:02 6.8 C 3.9 g/m*3 6.8 C 0 km/h
1502 14-10-2009 12:26:02 7.1 C 3.59 g/m*3 7.1 C 0 km/h
1503 14-10-2009 12:38:02 7.5 C 3.2 g/m*3 7.5 C 0 km/h
1504 14-10-2009 12:50:02 7.1 C 3.2 g/m*3 7.1 C 0 km/h
1505 14-10-2009 13:02:01 7.6 C 3.22 g/m*3 7.6 C 0 km/h
1506 14-10-2009 13:14:01 8.2 C 3.18 g/m*3 8.2 C 0 km/h
1507 14-10-2009 13:26:01 8.6 C 3.09 g/m*3 8.6 C 0 km/h
1508 14-10-2009 13:38:02 8.1 C 2.91 g/m*3 8.1 C 0 km/h
1509 14-10-2009 13:50:02 7.8 C 3.26 g/m*3 7.8 C 0 km/h
1510 14-10-2009 14:02:02 7.5 C 3.04 g/m*3 7.5 C 0 km/h
1511 14-10-2009 14:14:02 7.7 C 3.41 g/m*3 7.7 C 0 km/h
1512 14-10-2009 14:26:02 8 C 3.31 g/m*3 8 C 0 km/h
1513 14-10-2009 14:38:02 7.8 C 3.35 g/m*3 7.8 C 0 km/h
1514 14-10-2009 14:50:01 7.6 C 3.38 g/m*3 7.6 C 0 km/h
1515 14-10-2009 15:02:02 8 C 3.39 g/m*3 8 C 0 km/h
1516 14-10-2009 15:14:02 8.2 C 3.35 g/m*3 8.2 C 0 km/h
1517 14-10-2009 15:26:01 8.6 C 3.18 g/m*3 8.6 C 0 km/h
1518 14-10-2009 15:38:01 8.1 C 2.91 g/m*3 8.1 C 0 km/h
1519 14-10-2009 15:50:01 7.7 C 2.92 g/m*3 7.7 C 0 km/h
1520 14-10-2009 16:02:02 8.5 C 2.9 g/m*3 8.5 C 0 km/h
1521 14-10-2009 16:14:02 8.7 C 2.85 g/m*3 8.7 C 0 km/h
1522 14-10-2009 16:26:01 9.6 C 2.93 g/m*3 9.6 C 0 km/h
1523 14-10-2009 16:38:02 9.2 C 2.86 g/m*3 9.2 C 0 km/h
1524 14-10-2009 16:50:02 9.1 C 2.93 g/m*3 9.1 C 0 km/h
1525 14-10-2009 17:02:02 8.6 C 3.01 g/m*3 8.6 C 0 km/h
Sensor: Nr:Datum:Temp:Abs-Feuchte:Windchill:Wind:
Aussen-T/F 1526 14-10-2009 17:14:02 8.5 C 2.99 g/m*3 8.5 C 0 km/h
1527 14-10-2009 17:26:01 7.7 C 2.84 g/m*3 7.7 C 0 km/h
1528 14-10-2009 17:38:02 7.7 C 2.92 g/m*3 7.7 C 0 km/h
1529 14-10-2009 17:50:02 7.9 C 3.04 g/m*3 7.9 C 0 km/h
1530 14-10-2009 18:02:02 8.4 C 3.14 g/m*3 8.4 C 0 km/h
1531 14-10-2009 18:14:02 8.3 C 3.12 g/m*3 8.3 C 0 km/h
1532 14-10-2009 18:26:02 7.8 C 3.26 g/m*3 7.8 C 0 km/h
1533 14-10-2009 18:38:02 7 C 3.18 g/m*3 7 C 0 km/h
1534 14-10-2009 18:50:02 6.3 C 3.33 g/m*3 6.3 C 0 km/h
1535 14-10-2009 19:02:02 5.8 C 3.44 g/m*3 5.8 C 0 km/h
1536 14-10-2009 19:14:03 5.7 C 3.63 g/m*3 5.7 C 0 km/h
1537 14-10-2009 19:26:02 5.4 C 3.56 g/m*3 5.4 C 0 km/h
1538 14-10-2009 19:38:02 4.9 C 3.65 g/m*3 4.9 C 0 km/h
1539 14-10-2009 19:50:02 4.4 C 3.66 g/m*3 4.4 C 0 km/h
1540 14-10-2009 20:02:02 4.4 C 3.66 g/m*3 4.4 C 0 km/h
1541 14-10-2009 20:14:02 4.4 C 3.66 g/m*3 4.4 C 0 km/h
1542 14-10-2009 20:26:02 3.9 C 3.79 g/m*3 3.9 C 0 km/h
1543 14-10-2009 20:38:02 3.6 C 3.78 g/m*3 3.6 C 0 km/h
1544 14-10-2009 20:50:01 3.2 C 3.74 g/m*3 3.2 C 0 km/h
1545 14-10-2009 21:02:02 2.8 C 3.87 g/m*3 2.8 C 0 km/h
1546 14-10-2009 21:14:02 2.5 C 3.85 g/m*3 2.5 C 0 km/h
1547 14-10-2009 21:26:02 2.3 C 3.86 g/m*3 2.3 C 0 km/h
1548 14-10-2009 21:38:01 2.2 C 3.94 g/m*3 2.2 C 0 km/h
1549 14-10-2009 21:50:02 2 C 3.89 g/m*3 2 C 0 km/h
1550 14-10-2009 22:02:02 1.9 C 3.92 g/m*3 1.9 C 0 km/h
Sensor: Nr:Datum:Temp:Abs-Feuchte:Windchill:Wind:
Aussen-T/F 1551 14-10-2009 22:14:02 1.7 C 3.92 g/m*3 1.7 C 0 km/h
1552 14-10-2009 22:26:03 1.6 C 4.06 g/m*3 1.6 C 0 km/h
1553 14-10-2009 22:38:02 1.5 C 4.14 g/m*3 1.5 C 0 km/h
1554 14-10-2009 22:50:03 1.3 C 4.03 g/m*3 1.3 C 0 km/h
1555 14-10-2009 23:02:02 1.2 C 4.05 g/m*3 1.2 C 0 km/h
1556 14-10-2009 23:14:02 1.1 C 4.08 g/m*3 1.1 C 0 km/h
1557 14-10-2009 23:27:03 0.9 C 4.07 g/m*3 0.9 C 0 km/h
1558 14-10-2009 23:39:03 0.7 C 4.02 g/m*3 0.7 C 0 km/h
1559 14-10-2009 23:51:03 0.6 C 4.04 g/m*3 0.6 C 0 km/h
1560 15-10-2009 00:03:03 0.4 C 3.98 g/m*3 0.4 C 0 km/h
1561 15-10-2009 00:15:03 0.4 C 4.03 g/m*3 0.4 C 0 km/h
1562 15-10-2009 00:27:03 0.3 C 4.01 g/m*3 0.3 C 0 km/h
1563 15-10-2009 00:39:03 0.4 C 4.08 g/m*3 0.4 C 0 km/h
1564 15-10-2009 00:51:03 0.1 C 4.05 g/m*3 0.1 C 0 km/h
1565 15-10-2009 01:03:03 0 C 4.02 g/m*3 0 C 0 km/h
1566 15-10-2009 01:15:03 -0.1 C 4.04 g/m*3 -0.1 C 0 km/h
1567 15-10-2009 01:27:03 -0.2 C 4.01 g/m*3 -0.2 C 0 km/h
1568 15-10-2009 01:39:03 -0.3 C 4.03 g/m*3 -0.3 C 0 km/h
1569 15-10-2009 01:51:03 -0.3 C 4.08 g/m*3 -0.3 C 0 km/h
1570 15-10-2009 02:03:03 -0.4 C 4.05 g/m*3 -0.4 C 0 km/h
1571 15-10-2009 02:15:03 -0.5 C 4.07 g/m*3 -0.5 C 0 km/h
1572 15-10-2009 02:27:03 -0.6 C 4.04 g/m*3 -0.6 C 0 km/h
1573 15-10-2009 02:39:03 -0.8 C 3.99 g/m*3 -0.8 C 0 km/h
1574 15-10-2009 02:51:04 -0.9 C 3.96 g/m*3 -0.9 C 0 km/h
1575 15-10-2009 03:03:04 -0.9 C 4.01 g/m*3 -0.9 C 0 km/h
Sensor: Nr:Datum:Temp:Abs-Feuchte:Windchill:Wind:
Aussen-T/F 1576 15-10-2009 03:15:04 -1 C 3.98 g/m*3 -1 C 0 km/h
1577 15-10-2009 03:27:04 -1.1 C 3.95 g/m*3 -1.1 C 0 km/h
1578 15-10-2009 03:39:04 -1.2 C 3.92 g/m*3 -1.2 C 0 km/h
1579 15-10-2009 03:51:04 -1.3 C 3.9 g/m*3 -1.3 C 0 km/h
1580 15-10-2009 04:03:04 -1.4 C 3.87 g/m*3 -1.4 C 0 km/h
1581 15-10-2009 04:15:04 -1.5 C 3.84 g/m*3 -1.5 C 0 km/h
1582 15-10-2009 04:27:04 -1.3 C 3.94 g/m*3 -1.3 C 0 km/h
1583 15-10-2009 04:39:04 -1.3 C 3.94 g/m*3 -1.3 C 0 km/h
1584 15-10-2009 04:51:04 -1.3 C 3.98 g/m*3 -1.3 C 0 km/h
1585 15-10-2009 05:03:04 -1.5 C 3.93 g/m*3 -1.5 C 0 km/h
1586 15-10-2009 05:15:04 -1.6 C 3.9 g/m*3 -1.6 C 0 km/h
1587 15-10-2009 05:27:04 -1.7 C 3.87 g/m*3 -1.7 C 0 km/h
1588 15-10-2009 05:39:04 -1.8 C 3.85 g/m*3 -1.8 C 0 km/h
1589 15-10-2009 05:51:04 -1.9 C 3.82 g/m*3 -1.9 C 0 km/h
1590 15-10-2009 06:03:04 -2 C 3.79 g/m*3 -2 C 0 km/h
1591 15-10-2009 06:15:03 -1.9 C 3.82 g/m*3 -1.9 C 0 km/h
1592 15-10-2009 06:27:03 -1.9 C 3.86 g/m*3 -1.9 C 0 km/h
1593 15-10-2009 06:39:03 -1.9 C 3.86 g/m*3 -1.9 C 0 km/h
1594 15-10-2009 06:51:02 -1.8 C 3.93 g/m*3 -1.8 C 0 km/h
1595 15-10-2009 07:03:02 -1.8 C 3.93 g/m*3 -1.8 C 0 km/h
1596 15-10-2009 07:15:02 -1.8 C 3.93 g/m*3 -1.8 C 0 km/h
1597 15-10-2009 07:27:02 -1.9 C 3.91 g/m*3 -1.9 C 0 km/h
1598 15-10-2009 07:39:02 -1.9 C 3.91 g/m*3 -1.9 C 0 km/h
1599 15-10-2009 07:51:01 -1.3 C 4.12 g/m*3 -1.3 C 0 km/h
1600 15-10-2009 08:03:02 -0.7 C 4.34 g/m*3 -0.7 C 0 km/h
Sensor: Nr:Datum:Temp:Abs-Feuchte:Windchill:Wind:
Aussen-T/F 1601 15-10-2009 08:15:02 -0.3 C 4.46 g/m*3 -0.3 C 0 km/h
1602 15-10-2009 08:27:02 -0.1 C 4.57 g/m*3 -0.1 C 0 km/h
1603 15-10-2009 08:39:02 0.1 C 4.59 g/m*3 0.1 C 0 km/h
1604 15-10-2009 08:51:02 0.3 C 4.65 g/m*3 0.3 C 0 km/h
1605 15-10-2009 09:03:02 0.4 C 4.68 g/m*3 0.4 C 0 km/h
1606 15-10-2009 09:15:02 0.7 C 4.78 g/m*3 0.7 C 0 km/h
1607 15-10-2009 09:27:02 0.9 C 4.85 g/m*3 0.9 C 0 km/h
1608 15-10-2009 09:39:02 1.2 C 4.89 g/m*3 1.2 C 0 km/h
1609 15-10-2009 09:51:02 1.1 C 4.81 g/m*3 1.1 C 0 km/h
1610 15-10-2009 10:03:01 1.2 C 4.74 g/m*3 1.2 C 0 km/h
1611 15-10-2009 10:15:02 1.4 C 4.75 g/m*3 1.4 C 0 km/h
1612 15-10-2009 10:27:02 2 C 4.89 g/m*3 2 C 0 km/h
1613 15-10-2009 10:39:01 2.5 C 5 g/m*3 2.5 C 0 km/h
1614 15-10-2009 10:51:02 3 C 4.93 g/m*3 3 C 0 km/h
1615 15-10-2009 11:03:02 3 C 4.7 g/m*3 3 C 0 km/h
1616 15-10-2009 11:15:02 3.1 C 4.67 g/m*3 3.1 C 0 km/h
1617 15-10-2009 11:27:02 3.4 C 4.76 g/m*3 3.4 C 0 km/h
1618 15-10-2009 11:39:03 4.1 C 4.86 g/m*3 4.1 C 0 km/h
1619 15-10-2009 11:51:02 3.9 C 4.67 g/m*3 3.9 C 0 km/h
1620 15-10-2009 12:03:03 4.1 C 4.61 g/m*3 4.1 C 0 km/h
1621 15-10-2009 12:15:02 4.7 C 4.6 g/m*3 4.7 C 0 km/h
1622 15-10-2009 12:27:02 4.9 C 4.39 g/m*3 4.9 C 0 km/h
1623 15-10-2009 12:39:02 5.4 C 4.4 g/m*3 5.4 C 0 km/h
1624 15-10-2009 12:51:01 5.5 C 4 g/m*3 5.5 C 0 km/h
1625 15-10-2009 13:03:01 6.1 C 3.73 g/m*3 6.1 C 0 km/h
Sensor: Nr:Datum:Temp:Abs-Feuchte:Windchill:Wind:
Aussen-T/F 1626 15-10-2009 13:15:01 6.3 C 3.63 g/m*3 6.3 C 0 km/h
1627 15-10-2009 13:27:01 6.2 C 3.53 g/m*3 6.2 C 0 km/h
1628 15-10-2009 13:39:01 6.4 C 3.5 g/m*3 6.4 C 0 km/h
1629 15-10-2009 13:51:01 7.4 C 3.58 g/m*3 7.4 C 0 km/h
1630 15-10-2009 14:03:01 7.1 C 3.28 g/m*3 7.1 C 0 km/h
1631 15-10-2009 14:15:02 7.3 C 3.32 g/m*3 7.3 C 0 km/h
1632 15-10-2009 14:27:02 8.2 C 3.35 g/m*3 8.2 C 0 km/h
1633 15-10-2009 14:39:01 8.5 C 3.5 g/m*3 8.5 C 0 km/h
1634 15-10-2009 14:51:02 8.5 C 3.33 g/m*3 8.5 C 0 km/h
1635 15-10-2009 15:03:02 8.8 C 3.31 g/m*3 8.8 C 0 km/h
1636 15-10-2009 15:15:02 8.8 C 3.22 g/m*3 8.8 C 0 km/h
1637 15-10-2009 15:27:03 9.1 C 3.28 g/m*3 9.1 C 0 km/h
1638 15-10-2009 15:39:01 9.6 C 3.3 g/m*3 9.6 C 0 km/h
1639 15-10-2009 15:51:02 9.8 C 3.25 g/m*3 9.8 C 0 km/h
1640 15-10-2009 16:03:02 9.7 C 2.95 g/m*3 9.7 C 0 km/h
1641 15-10-2009 16:15:02 10.1 C 3.12 g/m*3 10.1 C 0 km/h
1642 15-10-2009 16:27:02 10.4 C 2.99 g/m*3 10.4 C 0 km/h
1643 15-10-2009 16:39:02 10.4 C 3.08 g/m*3 10.4 C 0 km/h
1644 15-10-2009 16:51:02 10.5 C 3.01 g/m*3 10.5 C 0 km/h
1645 15-10-2009 17:03:02 10.3 C 3.06 g/m*3 10.3 C 0 km/h
1646 15-10-2009 17:15:01 10.6 C 3.03 g/m*3 10.6 C 0 km/h
1647 15-10-2009 17:27:01 10.8 C 2.87 g/m*3 10.8 C 0 km/h
1648 15-10-2009 17:39:02 10.7 C 2.85 g/m*3 10.7 C 0 km/h
1649 15-10-2009 17:51:02 9.8 C 2.78 g/m*3 9.8 C 0 km/h
1650 15-10-2009 18:03:02 10.1 C 2.84 g/m*3 10.1 C 0 km/h
Sensor: Nr:Datum:Temp:Abs-Feuchte:Windchill:Wind:
Aussen-T/F 1651 15-10-2009 18:15:01 9.7 C 2.86 g/m*3 9.7 C 0 km/h
1652 15-10-2009 18:27:01 8.9 C 2.98 g/m*3 8.9 C 0 km/h
1653 15-10-2009 18:39:02 8.1 C 3 g/m*3 8.1 C 0 km/h
1654 15-10-2009 18:51:02 7.4 C 3.18 g/m*3 7.4 C 0 km/h
1655 15-10-2009 19:03:02 7 C 3.18 g/m*3 7 C 0 km/h
1656 15-10-2009 19:15:01 6.7 C 3.19 g/m*3 6.7 C 0 km/h
1657 15-10-2009 19:27:01 6.3 C 3.33 g/m*3 6.3 C 0 km/h
1658 15-10-2009 19:39:02 5.9 C 3.39 g/m*3 5.9 C 0 km/h
1659 15-10-2009 19:51:01 5.7 C 3.49 g/m*3 5.7 C 0 km/h
1660 15-10-2009 20:03:02 5.5 C 3.44 g/m*3 5.5 C 0 km/h
1661 15-10-2009 20:15:02 5.4 C 3.49 g/m*3 5.4 C 0 km/h
1662 15-10-2009 20:27:02 5.2 C 3.58 g/m*3 5.2 C 0 km/h
1663 15-10-2009 20:39:02 4.9 C 3.85 g/m*3 4.9 C 0 km/h
1664 15-10-2009 20:51:01 5 C 3.94 g/m*3 5 C 0 km/h
1665 15-10-2009 21:03:01 5 C 4.01 g/m*3 5 C 0 km/h
1666 15-10-2009 21:15:02 5 C 4.21 g/m*3 5 C 0 km/h
1667 15-10-2009 21:27:02 4.7 C 4.26 g/m*3 4.7 C 0 km/h
1668 15-10-2009 21:39:02 4.8 C 4.36 g/m*3 4.8 C 0 km/h
1669 15-10-2009 21:51:01 4.9 C 4.39 g/m*3 4.9 C 0 km/h
1670 15-10-2009 22:03:01 5 C 4.35 g/m*3 5 C 0 km/h
1671 15-10-2009 22:15:01 5.1 C 4.51 g/m*3 5.1 C 0 km/h
1672 15-10-2009 22:27:01 5.1 C 4.58 g/m*3 5.1 C 0 km/h
1673 15-10-2009 22:39:02 5.1 C 4.65 g/m*3 5.1 C 0 km/h
1674 15-10-2009 22:51:02 5.1 C 4.72 g/m*3 5.1 C 0 km/h
1675 15-10-2009 23:03:02 5.2 C 4.75 g/m*3 5.2 C 0 km/h
Sensor: Nr:Datum:Temp:Abs-Feuchte:Windchill:Wind:
Aussen-T/F 1676 15-10-2009 23:15:02 5.3 C 4.78 g/m*3 5.3 C 0 km/h
1677 15-10-2009 23:27:02 5.6 C 4.81 g/m*3 5.6 C 0 km/h
1678 15-10-2009 23:39:02 5.7 C 4.63 g/m*3 5.7 C 0 km/h
1679 15-10-2009 23:51:01 5.6 C 4.6 g/m*3 5.6 C 0 km/h
1680 16-10-2009 00:03:02 5.3 C 4.51 g/m*3 5.3 C 0 km/h
1681 16-10-2009 00:15:01 4.9 C 4.52 g/m*3 4.9 C 0 km/h
1682 16-10-2009 00:27:01 4.3 C 4.48 g/m*3 4.3 C 0 km/h
1683 16-10-2009 00:39:02 4.1 C 4.54 g/m*3 4.1 C 0 km/h
1684 16-10-2009 00:51:02 3.8 C 4.58 g/m*3 3.8 C 0 km/h
1685 16-10-2009 01:03:02 3.6 C 4.64 g/m*3 3.6 C 0 km/h
1686 16-10-2009 01:15:02 3.6 C 4.64 g/m*3 3.6 C 0 km/h
1687 16-10-2009 01:27:02 3.5 C 4.61 g/m*3 3.5 C 0 km/h
1688 16-10-2009 01:39:02 3.3 C 4.61 g/m*3 3.3 C 0 km/h
1689 16-10-2009 01:51:01 3.2 C 4.64 g/m*3 3.2 C 0 km/h
1690 16-10-2009 02:03:02 3 C 4.64 g/m*3 3 C 0 km/h
1691 16-10-2009 02:15:01 2.9 C 4.72 g/m*3 2.9 C 0 km/h
1692 16-10-2009 02:27:01 2.7 C 4.78 g/m*3 2.7 C 0 km/h
1693 16-10-2009 02:39:02 2.5 C 4.77 g/m*3 2.5 C 0 km/h
1694 16-10-2009 02:52:03 2.2 C 4.73 g/m*3 2.2 C 0 km/h
1695 16-10-2009 03:04:03 2 C 4.67 g/m*3 2 C 0 km/h
1696 16-10-2009 03:16:03 1.8 C 4.71 g/m*3 1.8 C 0 km/h
1697 16-10-2009 03:28:03 1.8 C 4.77 g/m*3 1.8 C 0 km/h
1698 16-10-2009 03:40:02 2.1 C 4.92 g/m*3 2.1 C 0 km/h
1699 16-10-2009 03:52:02 2.2 C 4.96 g/m*3 2.2 C 0 km/h
1700 16-10-2009 04:04:02 2.4 C 5.02 g/m*3 2.4 C 0 km/h
Sensor: Nr:Datum:Temp:Abs-Feuchte:Windchill:Wind:
Aussen-T/F 1701 16-10-2009 04:16:02 2.5 C 5.06 g/m*3 2.5 C 0 km/h
1702 16-10-2009 04:28:02 2.5 C 5.06 g/m*3 2.5 C 0 km/h
1703 16-10-2009 04:40:02 2.5 C 5.06 g/m*3 2.5 C 0 km/h
1704 16-10-2009 04:52:02 2.5 C 5 g/m*3 2.5 C 0 km/h
1705 16-10-2009 05:04:02 2.2 C 4.9 g/m*3 2.2 C 0 km/h
1706 16-10-2009 05:16:02 2.5 C 5 g/m*3 2.5 C 0 km/h
1707 16-10-2009 05:28:02 2.8 C 5.04 g/m*3 2.8 C 0 km/h
1708 16-10-2009 05:40:02 2.8 C 4.99 g/m*3 2.8 C 0 km/h
1709 16-10-2009 05:52:01 2.8 C 4.93 g/m*3 2.8 C 0 km/h
1710 16-10-2009 06:04:02 2.7 C 4.89 g/m*3 2.7 C 0 km/h
1711 16-10-2009 06:16:01 2.7 C 4.89 g/m*3 2.7 C 0 km/h
1712 16-10-2009 06:28:01 3 C 4.93 g/m*3 3 C 0 km/h
1713 16-10-2009 06:40:01 2.9 C 4.9 g/m*3 2.9 C 0 km/h
1714 16-10-2009 06:52:01 2.8 C 4.87 g/m*3 2.8 C 0 km/h
1715 16-10-2009 07:04:01 2.8 C 4.93 g/m*3 2.8 C 0 km/h
1716 16-10-2009 07:16:02 2.9 C 4.96 g/m*3 2.9 C 0 km/h
1717 16-10-2009 07:28:02 3 C 4.93 g/m*3 3 C 0 km/h
1718 16-10-2009 07:40:01 3.2 C 5.06 g/m*3 3.2 C 0 km/h
1719 16-10-2009 07:52:01 3.3 C 5.04 g/m*3 3.3 C 0 km/h
1720 16-10-2009 08:04:01 3.4 C 5.07 g/m*3 3.4 C 0 km/h
1721 16-10-2009 08:16:02 3.6 C 5.26 g/m*3 3.6 C 0 km/h
1722 16-10-2009 08:28:02 3.8 C 5.4 g/m*3 3.8 C 0 km/h
1723 16-10-2009 08:40:01 3.9 C 5.43 g/m*3 3.9 C 0 km/h
1724 16-10-2009 08:52:02 4 C 5.4 g/m*3 4 C 0 km/h
1725 16-10-2009 09:04:02 4.2 C 5.48 g/m*3 4.2 C 0 km/h
Sensor: Nr:Datum:Temp:Abs-Feuchte:Windchill:Wind:
Aussen-T/F 1726 16-10-2009 09:16:02 4.3 C 5.58 g/m*3 4.3 C 0 km/h
1727 16-10-2009 09:28:02 4.7 C 5.73 g/m*3 4.7 C 0 km/h
1728 16-10-2009 09:40:02 4.9 C 5.81 g/m*3 4.9 C 0 km/h
1729 16-10-2009 09:52:02 5 C 5.91 g/m*3 5 C 0 km/h
1730 16-10-2009 10:04:01 5.1 C 6.09 g/m*3 5.1 C 0 km/h
1731 16-10-2009 10:16:02 5.2 C 6.2 g/m*3 5.2 C 0 km/h
1732 16-10-2009 10:28:02 5.4 C 6.28 g/m*3 5.4 C 0 km/h
1733 16-10-2009 10:40:02 5.6 C 6.43 g/m*3 5.6 C 0 km/h
1734 16-10-2009 10:52:02 5.6 C 6.5 g/m*3 5.6 C 0 km/h
1735 16-10-2009 11:04:02 5.7 C 6.55 g/m*3 5.7 C 0 km/h
1736 16-10-2009 11:16:02 5.8 C 6.66 g/m*3 5.8 C 0 km/h
1737 16-10-2009 11:28:02 5.9 C 6.78 g/m*3 5.9 C 0 km/h
1738 16-10-2009 11:40:02 5.9 C 6.78 g/m*3 5.9 C 0 km/h
1739 16-10-2009 11:52:02 6.2 C 6.91 g/m*3 6.2 C 0 km/h
1740 16-10-2009 12:04:02 6.3 C 7.03 g/m*3 6.3 C 0 km/h
1741 16-10-2009 12:16:01 6.5 C 7.12 g/m*3 6.5 C 0 km/h
1742 16-10-2009 12:28:01 7 C 7.36 g/m*3 7 C 0 km/h
1743 16-10-2009 12:40:02 7 C 7.36 g/m*3 7 C 0 km/h
1744 16-10-2009 12:52:02 8.3 C 8.01 g/m*3 8.3 C 0 km/h
1745 16-10-2009 13:04:02 9.5 C 8.65 g/m*3 9.5 C 0 km/h
1746 16-10-2009 13:16:01 9.5 C 8.56 g/m*3 9.5 C 0 km/h
1747 16-10-2009 13:28:01 9.5 C 8.37 g/m*3 9.5 C 0 km/h
1748 16-10-2009 13:40:02 10.4 C 8.29 g/m*3 10.4 C 0 km/h
1749 16-10-2009 13:52:02 11.1 C 7.76 g/m*3 11.1 C 0 km/h
1750 16-10-2009 14:04:02 11.2 C 7.2 g/m*3 11.2 C 0 km/h
Sensor: Nr:Datum:Temp:Abs-Feuchte:Windchill:Wind:
Aussen-T/F 1751 16-10-2009 14:16:01 11.5 C 6.82 g/m*3 11.5 C 0 km/h
1752 16-10-2009 14:28:01 11.6 C 6.65 g/m*3 11.6 C 0 km/h
1753 16-10-2009 14:40:02 11.1 C 6.04 g/m*3 11.1 C 0 km/h
1754 16-10-2009 14:52:01 10.8 C 6.03 g/m*3 10.8 C 0 km/h
1755 16-10-2009 15:04:02 10.6 C 5.86 g/m*3 10.6 C 0 km/h
1756 16-10-2009 15:16:02 10.8 C 5.93 g/m*3 10.8 C 0 km/h
1757 16-10-2009 15:28:02 11 C 5.61 g/m*3 11 C 0 km/h
1758 16-10-2009 15:40:02 11.1 C 5.54 g/m*3 11.1 C 0 km/h
1759 16-10-2009 15:52:01 12 C 5.65 g/m*3 12 C 0 km/h
1760 16-10-2009 16:04:02 11.6 C 5.3 g/m*3 11.6 C 0 km/h
1761 16-10-2009 16:16:02 11.5 C 5.37 g/m*3 11.5 C 0 km/h
1762 16-10-2009 16:28:02 11.4 C 5.23 g/m*3 11.4 C 0 km/h
1763 16-10-2009 16:40:01 12 C 5.01 g/m*3 12 C 0 km/h
1764 16-10-2009 16:52:02 11.7 C 5.12 g/m*3 11.7 C 0 km/h
1765 16-10-2009 17:04:01 11.8 C 5.16 g/m*3 11.8 C 0 km/h
1766 16-10-2009 17:16:02 11.4 C 5.23 g/m*3 11.4 C 0 km/h
1767 16-10-2009 17:28:02 11 C 5.2 g/m*3 11 C 0 km/h
1768 16-10-2009 17:40:01 9.6 C 6.14 g/m*3 9.6 C 0 km/h
1769 16-10-2009 17:52:02 8.7 C 6.57 g/m*3 8.7 C 0 km/h
1770 16-10-2009 18:04:02 8.5 C 6.74 g/m*3 8.5 C 0 km/h
1771 16-10-2009 18:16:02 8.7 C 6.49 g/m*3 8.7 C 0 km/h
1772 16-10-2009 18:28:02 8 C 6.53 g/m*3 8 C 0 km/h
1773 16-10-2009 18:40:03 7.9 C 6.57 g/m*3 7.9 C 0 km/h
1774 16-10-2009 18:52:02 7.8 C 6.61 g/m*3 7.8 C 0 km/h
1775 16-10-2009 19:04:02 8 C 6.61 g/m*3 8 C 0 km/h
Sensor: Nr:Datum:Temp:Abs-Feuchte:Windchill:Wind:
Aussen-T/F 1776 16-10-2009 19:16:02 8.2 C 6.36 g/m*3 8.2 C 0 km/h
1777 16-10-2009 19:28:02 7.8 C 6.53 g/m*3 7.8 C 0 km/h
1778 16-10-2009 19:40:02 7.9 C 6.65 g/m*3 7.9 C 0 km/h
1779 16-10-2009 19:52:02 8.2 C 6.36 g/m*3 8.2 C 0 km/h
1780 16-10-2009 20:04:02 8.6 C 6.1 g/m*3 8.6 C 0 km/h
1781 16-10-2009 20:16:02 8.6 C 5.84 g/m*3 8.6 C 0 km/h
1782 16-10-2009 20:28:02 8.6 C 5.76 g/m*3 8.6 C 0 km/h
1783 16-10-2009 20:40:02 8.8 C 5.74 g/m*3 8.8 C 0 km/h
1784 16-10-2009 20:52:01 8.5 C 5.81 g/m*3 8.5 C 0 km/h
1785 16-10-2009 21:04:02 8.2 C 5.78 g/m*3 8.2 C 0 km/h
1786 16-10-2009 21:16:01 8.1 C 5.99 g/m*3 8.1 C 0 km/h
1787 16-10-2009 21:28:01 8.2 C 6.03 g/m*3 8.2 C 0 km/h
1788 16-10-2009 21:40:02 8.3 C 6.07 g/m*3 8.3 C 0 km/h
1789 16-10-2009 21:52:02 8.4 C 6.11 g/m*3 8.4 C 0 km/h
1790 16-10-2009 22:04:01 8.4 C 6.02 g/m*3 8.4 C 0 km/h
1791 16-10-2009 22:16:02 8 C 6.12 g/m*3 8 C 0 km/h
1792 16-10-2009 22:28:02 7.8 C 6.37 g/m*3 7.8 C 0 km/h
1793 16-10-2009 22:40:02 8 C 6.37 g/m*3 8 C 0 km/h
1794 16-10-2009 22:53:03 8.1 C 6.24 g/m*3 8.1 C 0 km/h
1795 16-10-2009 23:05:03 8.1 C 6.16 g/m*3 8.1 C 0 km/h
1796 16-10-2009 23:17:03 8.1 C 6.16 g/m*3 8.1 C 0 km/h
1797 16-10-2009 23:29:03 8.1 C 6.16 g/m*3 8.1 C 0 km/h
1798 16-10-2009 23:41:03 8.1 C 6.16 g/m*3 8.1 C 0 km/h
1799 16-10-2009 23:53:04 8 C 6.28 g/m*3 8 C 0 km/h
1800 17-10-2009 00:05:04 8 C 6.45 g/m*3 8 C 0 km/h
Sensor: Nr:Datum:Temp:Abs-Feuchte:Windchill:Wind:
Aussen-T/F 1801 17-10-2009 00:17:04 7.9 C 6.57 g/m*3 7.9 C 0 km/h
1802 17-10-2009 00:29:04 8 C 6.45 g/m*3 8 C 0 km/h
1803 17-10-2009 00:41:04 8 C 6.53 g/m*3 8 C 0 km/h
1804 17-10-2009 00:53:04 8 C 6.45 g/m*3 8 C 0 km/h
1805 17-10-2009 01:05:04 8 C 6.45 g/m*3 8 C 0 km/h
1806 17-10-2009 01:17:04 8.1 C 6.49 g/m*3 8.1 C 0 km/h
1807 17-10-2009 01:29:04 8.1 C 6.41 g/m*3 8.1 C 0 km/h
1808 17-10-2009 01:41:04 8.1 C 6.41 g/m*3 8.1 C 0 km/h
1809 17-10-2009 01:53:04 8.1 C 6.41 g/m*3 8.1 C 0 km/h
1810 17-10-2009 02:05:04 8.1 C 6.41 g/m*3 8.1 C 0 km/h
1811 17-10-2009 02:17:04 8.1 C 6.41 g/m*3 8.1 C 0 km/h
1812 17-10-2009 02:29:04 8.1 C 6.41 g/m*3 8.1 C 0 km/h
1813 17-10-2009 02:41:04 8.2 C 6.36 g/m*3 8.2 C 0 km/h
1814 17-10-2009 02:53:04 8.2 C 6.36 g/m*3 8.2 C 0 km/h
1815 17-10-2009 03:05:04 8.1 C 6.32 g/m*3 8.1 C 0 km/h
1816 17-10-2009 03:17:04 8.3 C 6.24 g/m*3 8.3 C 0 km/h
1817 17-10-2009 03:29:04 8.2 C 6.2 g/m*3 8.2 C 0 km/h
1818 17-10-2009 03:41:05 8.2 C 6.2 g/m*3 8.2 C 0 km/h
1819 17-10-2009 03:53:05 8.2 C 6.11 g/m*3 8.2 C 0 km/h
1820 17-10-2009 04:05:05 8.1 C 6.16 g/m*3 8.1 C 0 km/h
1821 17-10-2009 04:17:05 8.1 C 6.07 g/m*3 8.1 C 0 km/h
1822 17-10-2009 04:29:05 8.1 C 6.16 g/m*3 8.1 C 0 km/h
1823 17-10-2009 04:41:05 8.1 C 5.99 g/m*3 8.1 C 0 km/h
1824 17-10-2009 04:53:05 8.1 C 5.99 g/m*3 8.1 C 0 km/h
1825 17-10-2009 05:05:05 8.1 C 5.99 g/m*3 8.1 C 0 km/h
Sensor: Nr:Datum:Temp:Abs-Feuchte:Windchill:Wind:
Aussen-T/F 1826 17-10-2009 05:17:05 8.2 C 5.86 g/m*3 8.2 C 0 km/h
1827 17-10-2009 05:29:05 8.2 C 5.86 g/m*3 8.2 C 0 km/h
1828 17-10-2009 05:41:05 8.1 C 5.82 g/m*3 8.1 C 0 km/h
1829 17-10-2009 05:53:05 8.1 C 5.82 g/m*3 8.1 C 0 km/h
1830 17-10-2009 06:05:05 8 C 5.87 g/m*3 8 C 0 km/h
1831 17-10-2009 06:17:05 7.7 C 5.84 g/m*3 7.7 C 0 km/h
1832 17-10-2009 06:29:05 7.5 C 5.84 g/m*3 7.5 C 0 km/h
1833 17-10-2009 06:41:05 7.1 C 5.77 g/m*3 7.1 C 0 km/h
1834 17-10-2009 06:53:05 6.8 C 5.81 g/m*3 6.8 C 0 km/h
1835 17-10-2009 07:05:05 6.9 C 5.93 g/m*3 6.9 C 0 km/h
1836 17-10-2009 07:17:05 6.7 C 5.93 g/m*3 6.7 C 0 km/h
1837 17-10-2009 07:29:06 6.5 C 6 g/m*3 6.5 C 0 km/h
1838 17-10-2009 07:41:06 6.5 C 6.07 g/m*3 6.5 C 0 km/h
1839 17-10-2009 07:53:06 6.8 C 6.19 g/m*3 6.8 C 0 km/h
1840 17-10-2009 08:05:06 6.7 C 6.15 g/m*3 6.7 C 0 km/h
1841 17-10-2009 08:17:06 6.5 C 6.15 g/m*3 6.5 C 0 km/h
1842 17-10-2009 08:29:06 6.4 C 6.18 g/m*3 6.4 C 0 km/h
1843 17-10-2009 08:41:06 6.4 C 6.18 g/m*3 6.4 C 0 km/h
1844 17-10-2009 08:53:02 6.3 C 6.14 g/m*3 6.3 C 0 km/h
1845 17-10-2009 09:05:02 6.3 C 6.14 g/m*3 6.3 C 0 km/h
1846 17-10-2009 09:17:01 6.3 C 6.22 g/m*3 6.3 C 0 km/h
1847 17-10-2009 09:29:01 6.7 C 6.38 g/m*3 6.7 C 0 km/h
1848 17-10-2009 09:41:02 7.2 C 6.44 g/m*3 7.2 C 0 km/h
1849 17-10-2009 09:53:02 7.3 C 6.24 g/m*3 7.3 C 0 km/h
1850 17-10-2009 10:05:02 7.3 C 6.24 g/m*3 7.3 C 0 km/h
Sensor: Nr:Datum:Temp:Abs-Feuchte:Windchill:Wind:
Aussen-T/F 1851 17-10-2009 10:17:02 7.6 C 6.28 g/m*3 7.6 C 0 km/h
1852 17-10-2009 10:29:02 8 C 6.2 g/m*3 8 C 0 km/h
1853 17-10-2009 10:41:02 8.2 C 6.2 g/m*3 8.2 C 0 km/h
1854 17-10-2009 10:53:02 8.4 C 6.11 g/m*3 8.4 C 0 km/h
1855 17-10-2009 11:05:02 8.7 C 6.14 g/m*3 8.7 C 0 km/h
1856 17-10-2009 11:17:02 8.9 C 6.13 g/m*3 8.9 C 0 km/h
1857 17-10-2009 11:29:02 9.4 C 5.79 g/m*3 9.4 C 0 km/h
1858 17-10-2009 11:41:02 9.5 C 5.46 g/m*3 9.5 C 0 km/h
1859 17-10-2009 11:53:02 9.6 C 5.4 g/m*3 9.6 C 0 km/h
1860 17-10-2009 12:05:02 9.9 C 5.14 g/m*3 9.9 C 0 km/h
1861 17-10-2009 12:17:02 9.6 C 5.04 g/m*3 9.6 C 0 km/h
1862 17-10-2009 12:29:02 9.8 C 4.92 g/m*3 9.8 C 0 km/h
1863 17-10-2009 12:41:02 10 C 4.89 g/m*3 10 C 0 km/h
1864 17-10-2009 12:53:02 10.5 C 5.14 g/m*3 10.5 C 0 km/h
1865 17-10-2009 13:05:02 10.7 C 4.81 g/m*3 10.7 C 0 km/h
1866 17-10-2009 13:17:02 10.4 C 4.72 g/m*3 10.4 C 0 km/h
1867 17-10-2009 13:29:02 10.5 C 4.56 g/m*3 10.5 C 0 km/h
1868 17-10-2009 13:41:01 10.2 C 4.28 g/m*3 10.2 C 0 km/h
1869 17-10-2009 13:53:02 10.2 C 4.19 g/m*3 10.2 C 0 km/h
1870 17-10-2009 14:05:01 11 C 4.5 g/m*3 11 C 0 km/h
1871 17-10-2009 14:17:01 11.1 C 4.23 g/m*3 11.1 C 0 km/h
1872 17-10-2009 14:29:01 10.5 C 4.17 g/m*3 10.5 C 0 km/h
1873 17-10-2009 14:41:02 10.3 C 4.41 g/m*3 10.3 C 0 km/h
1874 17-10-2009 14:53:02 9.5 C 5.01 g/m*3 9.5 C 0 km/h
1875 17-10-2009 15:05:01 9.8 C 4.92 g/m*3 9.8 C 0 km/h
Sensor: Nr:Datum:Temp:Abs-Feuchte:Windchill:Wind:
Aussen-T/F 1876 17-10-2009 15:17:02 10.1 C 5.01 g/m*3 10.1 C 0 km/h
1877 17-10-2009 15:29:02 10.6 C 5.17 g/m*3 10.6 C 0 km/h
1878 17-10-2009 15:41:02 10.6 C 4.78 g/m*3 10.6 C 0 km/h
1879 17-10-2009 15:53:01 10.5 C 4.56 g/m*3 10.5 C 0 km/h
1880 17-10-2009 16:05:02 10.1 C 4.63 g/m*3 10.1 C 0 km/h
1881 17-10-2009 16:17:01 10.8 C 4.74 g/m*3 10.8 C 0 km/h
1882 17-10-2009 16:29:01 10.7 C 4.62 g/m*3 10.7 C 0 km/h
1883 17-10-2009 16:41:02 10.6 C 4.78 g/m*3 10.6 C 0 km/h
1884 17-10-2009 16:53:03 10.3 C 4.79 g/m*3 10.3 C 0 km/h
1885 17-10-2009 17:05:03 10.2 C 4.85 g/m*3 10.2 C 0 km/h
1886 17-10-2009 17:17:02 10.1 C 4.82 g/m*3 10.1 C 0 km/h
1887 17-10-2009 17:29:02 10 C 4.89 g/m*3 10 C 0 km/h
1888 17-10-2009 17:41:03 10 C 4.89 g/m*3 10 C 0 km/h
1889 17-10-2009 17:53:02 9.9 C 4.86 g/m*3 9.9 C 0 km/h
1890 17-10-2009 18:05:03 9.7 C 4.98 g/m*3 9.7 C 0 km/h
1891 17-10-2009 18:17:03 9.6 C 5.04 g/m*3 9.6 C 0 km/h
1892 17-10-2009 18:29:03 9.4 C 4.88 g/m*3 9.4 C 0 km/h
1893 17-10-2009 18:41:03 9.2 C 4.82 g/m*3 9.2 C 0 km/h
1894 17-10-2009 18:53:02 9.1 C 4.88 g/m*3 9.1 C 0 km/h
1895 17-10-2009 19:05:03 8.9 C 4.91 g/m*3 8.9 C 0 km/h
1896 17-10-2009 19:17:02 8.7 C 5.02 g/m*3 8.7 C 0 km/h
1897 17-10-2009 19:29:02 8.7 C 5.02 g/m*3 8.7 C 0 km/h
1898 17-10-2009 19:41:02 8.6 C 4.98 g/m*3 8.6 C 0 km/h
1899 17-10-2009 19:53:02 8.4 C 5.01 g/m*3 8.4 C 0 km/h
1900 17-10-2009 20:05:01 8.2 C 5.02 g/m*3 8.2 C 0 km/h
Sensor: Nr:Datum:Temp:Abs-Feuchte:Windchill:Wind:
Aussen-T/F 1901 17-10-2009 20:17:02 8.2 C 5.11 g/m*3 8.2 C 0 km/h
1902 17-10-2009 20:29:03 8.1 C 5.24 g/m*3 8.1 C 0 km/h
1903 17-10-2009 20:41:02 8.1 C 5.24 g/m*3 8.1 C 0 km/h
1904 17-10-2009 20:53:02 8.2 C 5.19 g/m*3 8.2 C 0 km/h
1905 17-10-2009 21:05:01 8.2 C 5.28 g/m*3 8.2 C 0 km/h
1906 17-10-2009 21:17:02 8.1 C 5.33 g/m*3 8.1 C 0 km/h
1907 17-10-2009 21:29:02 8.1 C 5.33 g/m*3 8.1 C 0 km/h
1908 17-10-2009 21:41:01 8 C 5.37 g/m*3 8 C 0 km/h
1909 17-10-2009 21:53:03 7.8 C 5.47 g/m*3 7.8 C 0 km/h
1910 17-10-2009 22:05:02 7.9 C 5.59 g/m*3 7.9 C 0 km/h
1911 17-10-2009 22:17:02 8 C 5.46 g/m*3 8 C 0 km/h
1912 17-10-2009 22:29:02 8 C 5.46 g/m*3 8 C 0 km/h
1913 17-10-2009 22:41:02 8 C 5.46 g/m*3 8 C 0 km/h
1914 17-10-2009 22:53:01 7.8 C 5.55 g/m*3 7.8 C 0 km/h
1915 17-10-2009 23:06:01 7.8 C 5.55 g/m*3 7.8 C 0 km/h
1916 17-10-2009 23:18:01 7.7 C 5.51 g/m*3 7.7 C 0 km/h
1917 17-10-2009 23:30:01 7.6 C 5.56 g/m*3 7.6 C 0 km/h
1918 17-10-2009 23:42:01 7.4 C 5.49 g/m*3 7.4 C 0 km/h
1919 17-10-2009 23:54:02 7.1 C 5.54 g/m*3 7.1 C 0 km/h
1920 18-10-2009 00:06:02 7 C 5.5 g/m*3 7 C 0 km/h
1921 18-10-2009 00:18:02 6.7 C 5.62 g/m*3 6.7 C 0 km/h
1922 18-10-2009 00:30:02 6.7 C 5.62 g/m*3 6.7 C 0 km/h
1923 18-10-2009 00:42:02 6.3 C 5.48 g/m*3 6.3 C 0 km/h
1924 18-10-2009 00:54:02 5.7 C 5.48 g/m*3 5.7 C 0 km/h
1925 18-10-2009 01:06:02 5.3 C 5.48 g/m*3 5.3 C 0 km/h
Sensor: Nr:Datum:Temp:Abs-Feuchte:Windchill:Wind:
Aussen-T/F 1926 18-10-2009 01:18:02 5.1 C 5.47 g/m*3 5.1 C 0 km/h
1927 18-10-2009 01:30:02 5.1 C 5.54 g/m*3 5.1 C 0 km/h
1928 18-10-2009 01:42:02 5.2 C 5.65 g/m*3 5.2 C 0 km/h
1929 18-10-2009 01:54:02 5.5 C 5.76 g/m*3 5.5 C 0 km/h
1930 18-10-2009 02:06:02 5.6 C 5.8 g/m*3 5.6 C 0 km/h
1931 18-10-2009 02:18:02 5.8 C 5.87 g/m*3 5.8 C 0 km/h
1932 18-10-2009 02:30:02 5.8 C 5.87 g/m*3 5.8 C 0 km/h
1933 18-10-2009 02:42:02 5.9 C 5.84 g/m*3 5.9 C 0 km/h
1934 18-10-2009 02:54:02 6 C 5.81 g/m*3 6 C 0 km/h
1935 18-10-2009 03:06:02 6 C 5.81 g/m*3 6 C 0 km/h
1936 18-10-2009 03:18:02 5.9 C 5.77 g/m*3 5.9 C 0 km/h
1937 18-10-2009 03:30:02 5.7 C 5.69 g/m*3 5.7 C 0 km/h
1938 18-10-2009 03:42:03 5.5 C 5.62 g/m*3 5.5 C 0 km/h
1939 18-10-2009 03:54:03 5.5 C 5.69 g/m*3 5.5 C 0 km/h
1940 18-10-2009 04:06:03 5.5 C 5.69 g/m*3 5.5 C 0 km/h
1941 18-10-2009 04:18:03 5.4 C 5.72 g/m*3 5.4 C 0 km/h
1942 18-10-2009 04:30:03 5.5 C 5.76 g/m*3 5.5 C 0 km/h
1943 18-10-2009 04:42:03 5.6 C 5.8 g/m*3 5.6 C 0 km/h
1944 18-10-2009 04:54:03 5.6 C 5.8 g/m*3 5.6 C 0 km/h
1945 18-10-2009 05:06:03 5.6 C 5.8 g/m*3 5.6 C 0 km/h
1946 18-10-2009 05:18:03 5.6 C 5.8 g/m*3 5.6 C 0 km/h
1947 18-10-2009 05:30:03 5.6 C 5.8 g/m*3 5.6 C 0 km/h
1948 18-10-2009 05:42:03 5.6 C 5.8 g/m*3 5.6 C 0 km/h
1949 18-10-2009 05:54:03 5.6 C 5.8 g/m*3 5.6 C 0 km/h
1950 18-10-2009 06:06:03 5.6 C 5.8 g/m*3 5.6 C 0 km/h
Sensor: Nr:Datum:Temp:Abs-Feuchte:Windchill:Wind:
Aussen-T/F 1951 18-10-2009 06:18:03 5.5 C 5.76 g/m*3 5.5 C 0 km/h
1952 18-10-2009 06:30:03 5.6 C 5.87 g/m*3 5.6 C 0 km/h
1953 18-10-2009 06:42:03 5.2 C 5.78 g/m*3 5.2 C 0 km/h
1954 18-10-2009 06:54:03 4.7 C 5.66 g/m*3 4.7 C 0 km/h
1955 18-10-2009 07:06:03 4.3 C 5.58 g/m*3 4.3 C 0 km/h
1956 18-10-2009 07:18:03 4.1 C 5.63 g/m*3 4.1 C 0 km/h
1957 18-10-2009 07:30:04 4.2 C 5.73 g/m*3 4.2 C 0 km/h
1958 18-10-2009 07:42:04 4.6 C 6.02 g/m*3 4.6 C 0 km/h
1959 18-10-2009 07:54:04 4.8 C 6.17 g/m*3 4.8 C 0 km/h
1960 18-10-2009 08:06:04 4.8 C 6.17 g/m*3 4.8 C 0 km/h
1961 18-10-2009 08:18:04 5 C 6.18 g/m*3 5 C 0 km/h
1962 18-10-2009 08:30:04 5.1 C 6.22 g/m*3 5.1 C 0 km/h
1963 18-10-2009 08:42:04 5.2 C 6.2 g/m*3 5.2 C 0 km/h
1964 18-10-2009 08:54:04 5.3 C 6.24 g/m*3 5.3 C 0 km/h
1965 18-10-2009 09:06:02 5.4 C 6.28 g/m*3 5.4 C 0 km/h
1966 18-10-2009 09:18:01 5.5 C 6.32 g/m*3 5.5 C 0 km/h
1967 18-10-2009 09:30:01 5.8 C 6.38 g/m*3 5.8 C 0 km/h
1968 18-10-2009 09:42:01 6.2 C 6.47 g/m*3 6.2 C 0 km/h
1969 18-10-2009 09:54:02 6.4 C 6.56 g/m*3 6.4 C 0 km/h
1970 18-10-2009 10:06:02 6.7 C 6.61 g/m*3 6.7 C 0 km/h
1971 18-10-2009 10:18:01 7.1 C 6.55 g/m*3 7.1 C 0 km/h
1972 18-10-2009 10:30:01 7.1 C 6.4 g/m*3 7.1 C 0 km/h
1973 18-10-2009 10:42:02 7.4 C 6.2 g/m*3 7.4 C 0 km/h
1974 18-10-2009 10:54:02 7.3 C 5.85 g/m*3 7.3 C 0 km/h
1975 18-10-2009 11:06:02 7.1 C 5.69 g/m*3 7.1 C 0 km/h
Sensor: Nr:Datum:Temp:Abs-Feuchte:Windchill:Wind:
Aussen-T/F 1976 18-10-2009 11:18:02 7.2 C 5.73 g/m*3 7.2 C 0 km/h
1977 18-10-2009 11:30:02 7.7 C 5.76 g/m*3 7.7 C 0 km/h
1978 18-10-2009 11:42:02 7.9 C 5.67 g/m*3 7.9 C 0 km/h
1979 18-10-2009 11:54:02 8 C 5.54 g/m*3 8 C 0 km/h
1980 18-10-2009 12:06:02 8 C 5.54 g/m*3 8 C 0 km/h
1981 18-10-2009 12:18:03 8 C 5.62 g/m*3 8 C 0 km/h
1982 18-10-2009 12:30:03 9.1 C 5.68 g/m*3 9.1 C 0 km/h
1983 18-10-2009 12:42:02 9.8 C 5.29 g/m*3 9.8 C 0 km/h
1984 18-10-2009 12:54:02 10 C 5.26 g/m*3 10 C 0 km/h
1985 18-10-2009 13:06:02 9.3 C 4.67 g/m*3 9.3 C 0 km/h
1986 18-10-2009 13:18:02 9.6 C 4.76 g/m*3 9.6 C 0 km/h
1987 18-10-2009 13:30:02 11 C 4.4 g/m*3 11 C 0 km/h
1988 18-10-2009 13:42:02 10.8 C 4.25 g/m*3 10.8 C 0 km/h
1989 18-10-2009 13:54:02 10.7 C 4.32 g/m*3 10.7 C 0 km/h
1990 18-10-2009 14:06:02 11.7 C 4.29 g/m*3 11.7 C 0 km/h
1991 18-10-2009 14:18:02 12.4 C 4.04 g/m*3 12.4 C 0 km/h
1992 18-10-2009 14:30:03 11.2 C 3.85 g/m*3 11.2 C 0 km/h
1993 18-10-2009 14:42:01 11.8 C 4.21 g/m*3 11.8 C 0 km/h
1994 18-10-2009 14:54:02 11 C 4 g/m*3 11 C 0 km/h
1995 18-10-2009 15:06:01 11.2 C 4.16 g/m*3 11.2 C 0 km/h
1996 18-10-2009 15:18:02 11.6 C 3.95 g/m*3 11.6 C 0 km/h
1997 18-10-2009 15:30:02 12.1 C 3.86 g/m*3 12.1 C 0 km/h
1998 18-10-2009 15:42:02 12.4 C 3.82 g/m*3 12.4 C 0 km/h
1999 18-10-2009 15:54:02 13.3 C 3.81 g/m*3 13.3 C 0 km/h
2000 18-10-2009 16:06:03 12.6 C 3.54 g/m*3 12.6 C 0 km/h
Sensor: Nr:Datum:Temp:Abs-Feuchte:Windchill:Wind:
Aussen-T/F 2001 18-10-2009 16:18:02 12.8 C 3.58 g/m*3 12.8 C 0 km/h
2002 18-10-2009 16:30:02 13.3 C 3.81 g/m*3 13.3 C 0 km/h
2003 18-10-2009 16:42:02 14.4 C 3.83 g/m*3 14.4 C 0 km/h
2004 18-10-2009 16:54:02 14.5 C 3.73 g/m*3 14.5 C 0 km/h
2005 18-10-2009 17:06:02 14 C 3.62 g/m*3 14 C 0 km/h
2006 18-10-2009 17:18:01 14 C 3.74 g/m*3 14 C 0 km/h
2007 18-10-2009 17:30:01 13.6 C 3.88 g/m*3 13.6 C 0 km/h
2008 18-10-2009 17:42:02 13.4 C 4.07 g/m*3 13.4 C 0 km/h
2009 18-10-2009 17:54:02 12.7 C 4.23 g/m*3 12.7 C 0 km/h
2010 18-10-2009 18:06:02 11.9 C 4.34 g/m*3 11.9 C 0 km/h
2011 18-10-2009 18:18:02 10.8 C 4.45 g/m*3 10.8 C 0 km/h
2012 18-10-2009 18:30:02 10.1 C 4.35 g/m*3 10.1 C 0 km/h
2013 18-10-2009 18:42:02 9.2 C 4.38 g/m*3 9.2 C 0 km/h
2014 18-10-2009 18:54:02 8.5 C 4.44 g/m*3 8.5 C 0 km/h
2015 18-10-2009 19:06:02 8.1 C 4.49 g/m*3 8.1 C 0 km/h
2016 18-10-2009 19:18:02 7.8 C 4.65 g/m*3 7.8 C 0 km/h
2017 18-10-2009 19:30:02 7.5 C 4.64 g/m*3 7.5 C 0 km/h
2018 18-10-2009 19:42:02 7.2 C 4.55 g/m*3 7.2 C 0 km/h
2019 18-10-2009 19:54:02 7 C 4.57 g/m*3 7 C 0 km/h
2020 18-10-2009 20:06:02 6.7 C 4.71 g/m*3 6.7 C 0 km/h
2021 18-10-2009 20:18:03 6.5 C 4.72 g/m*3 6.5 C 0 km/h
2022 18-10-2009 20:30:03 6.3 C 4.66 g/m*3 6.3 C 0 km/h
2023 18-10-2009 20:42:02 6 C 4.72 g/m*3 6 C 0 km/h
2024 18-10-2009 20:54:03 5.8 C 4.87 g/m*3 5.8 C 0 km/h
2025 18-10-2009 21:06:02 5.3 C 4.85 g/m*3 5.3 C 0 km/h
Sensor: Nr:Datum:Temp:Abs-Feuchte:Windchill:Wind:
Aussen-T/F 2026 18-10-2009 21:18:02 5.2 C 4.82 g/m*3 5.2 C 0 km/h
2027 18-10-2009 21:30:02 5.2 C 4.89 g/m*3 5.2 C 0 km/h
2028 18-10-2009 21:42:02 5 C 4.89 g/m*3 5 C 0 km/h
2029 18-10-2009 21:54:02 5 C 4.89 g/m*3 5 C 0 km/h
2030 18-10-2009 22:06:01 4.8 C 4.96 g/m*3 4.8 C 0 km/h
2031 18-10-2009 22:19:01 4.7 C 5 g/m*3 4.7 C 0 km/h
2032 18-10-2009 22:31:01 4.5 C 4.93 g/m*3 4.5 C 0 km/h
2033 18-10-2009 22:43:01 4.5 C 4.93 g/m*3 4.5 C 0 km/h
2034 18-10-2009 22:55:01 4.3 C 4.93 g/m*3 4.3 C 0 km/h
2035 18-10-2009 23:07:01 4.1 C 4.93 g/m*3 4.1 C 0 km/h
2036 18-10-2009 23:19:01 3.8 C 4.96 g/m*3 3.8 C 0 km/h
2037 18-10-2009 23:31:01 3.7 C 4.92 g/m*3 3.7 C 0 km/h
2038 18-10-2009 23:43:01 3.5 C 4.92 g/m*3 3.5 C 0 km/h
2039 18-10-2009 23:55:01 3.3 C 4.85 g/m*3 3.3 C 0 km/h
2040 19-10-2009 00:07:01 3.2 C 4.88 g/m*3 3.2 C 0 km/h
2041 19-10-2009 00:19:01 3.1 C 4.91 g/m*3 3.1 C 0 km/h
2042 19-10-2009 00:31:01 2.8 C 4.87 g/m*3 2.8 C 0 km/h
2043 19-10-2009 00:43:01 2.8 C 4.87 g/m*3 2.8 C 0 km/h
2044 19-10-2009 00:55:01 2.6 C 4.8 g/m*3 2.6 C 0 km/h
2045 19-10-2009 01:07:01 2.5 C 4.77 g/m*3 2.5 C 0 km/h
2046 19-10-2009 01:19:01 2.5 C 4.83 g/m*3 2.5 C 0 km/h
2047 19-10-2009 01:31:01 2.5 C 4.83 g/m*3 2.5 C 0 km/h
2048 19-10-2009 01:43:01 2.2 C 4.73 g/m*3 2.2 C 0 km/h
2049 19-10-2009 01:55:01 2.1 C 4.7 g/m*3 2.1 C 0 km/h
2050 19-10-2009 02:07:01 1.8 C 4.66 g/m*3 1.8 C 0 km/h
Sensor: Nr:Datum:Temp:Abs-Feuchte:Windchill:Wind:
Aussen-T/F 2051 19-10-2009 02:19:01 1.8 C 4.71 g/m*3 1.8 C 0 km/h
2052 19-10-2009 02:31:02 1.7 C 4.68 g/m*3 1.7 C 0 km/h
2053 19-10-2009 02:43:02 1.6 C 4.65 g/m*3 1.6 C 0 km/h
2054 19-10-2009 02:55:02 1.5 C 4.67 g/m*3 1.5 C 0 km/h
2055 19-10-2009 03:07:02 1.3 C 4.61 g/m*3 1.3 C 0 km/h
2056 19-10-2009 03:19:02 1.2 C 4.58 g/m*3 1.2 C 0 km/h
2057 19-10-2009 03:31:02 1.1 C 4.55 g/m*3 1.1 C 0 km/h
2058 19-10-2009 03:43:02 1.1 C 4.55 g/m*3 1.1 C 0 km/h
2059 19-10-2009 03:55:02 0.9 C 4.54 g/m*3 0.9 C 0 km/h
2060 19-10-2009 04:07:02 0.7 C 4.47 g/m*3 0.7 C 0 km/h
2061 19-10-2009 04:19:02 0.7 C 4.47 g/m*3 0.7 C 0 km/h
2062 19-10-2009 04:31:02 0.6 C 4.44 g/m*3 0.6 C 0 km/h
2063 19-10-2009 04:43:02 0.5 C 4.46 g/m*3 0.5 C 0 km/h
2064 19-10-2009 04:55:02 0.4 C 4.43 g/m*3 0.4 C 0 km/h
2065 19-10-2009 05:07:02 0.2 C 4.37 g/m*3 0.2 C 0 km/h
2066 19-10-2009 05:19:02 0.2 C 4.37 g/m*3 0.2 C 0 km/h
2067 19-10-2009 05:31:02 0.2 C 4.37 g/m*3 0.2 C 0 km/h
2068 19-10-2009 05:43:02 0.2 C 4.42 g/m*3 0.2 C 0 km/h
2069 19-10-2009 05:55:02 0 C 4.36 g/m*3 0 C 0 km/h
2070 19-10-2009 06:07:02 -0.1 C 4.33 g/m*3 -0.1 C 0 km/h
2071 19-10-2009 06:19:02 0 C 4.36 g/m*3 0 C 0 km/h
2072 19-10-2009 06:31:03 0 C 4.36 g/m*3 0 C 0 km/h
2073 19-10-2009 06:43:03 0.2 C 4.47 g/m*3 0.2 C 0 km/h
2074 19-10-2009 06:55:03 0.3 C 4.5 g/m*3 0.3 C 0 km/h
2075 19-10-2009 07:07:01 0.2 C 4.47 g/m*3 0.2 C 0 km/h
Sensor: Nr:Datum:Temp:Abs-Feuchte:Windchill:Wind:
Aussen-T/F 2076 19-10-2009 07:19:01 0.3 C 4.5 g/m*3 0.3 C 0 km/h
2077 19-10-2009 07:31:02 0.4 C 4.53 g/m*3 0.4 C 0 km/h
2078 19-10-2009 07:43:02 0.3 C 4.5 g/m*3 0.3 C 0 km/h
2079 19-10-2009 07:55:02 0.2 C 4.42 g/m*3 0.2 C 0 km/h
2080 19-10-2009 08:07:01 0.4 C 4.48 g/m*3 0.4 C 0 km/h
2081 19-10-2009 08:19:02 0.4 C 4.48 g/m*3 0.4 C 0 km/h
2082 19-10-2009 08:31:02 0.5 C 4.51 g/m*3 0.5 C 0 km/h
2083 19-10-2009 08:43:02 0.3 C 4.4 g/m*3 0.3 C 0 km/h
2084 19-10-2009 08:55:01 0.2 C 4.37 g/m*3 0.2 C 0 km/h
2085 19-10-2009 09:07:02 0.2 C 4.37 g/m*3 0.2 C 0 km/h
2086 19-10-2009 09:19:01 0.5 C 4.46 g/m*3 0.5 C 0 km/h
2087 19-10-2009 09:31:02 0.6 C 4.49 g/m*3 0.6 C 0 km/h
2088 19-10-2009 09:43:02 1 C 4.57 g/m*3 1 C 0 km/h
2089 19-10-2009 09:55:02 0.6 C 4.44 g/m*3 0.6 C 0 km/h
2090 19-10-2009 10:07:02 0.9 C 4.54 g/m*3 0.9 C 0 km/h
2091 19-10-2009 10:19:02 1.3 C 4.61 g/m*3 1.3 C 0 km/h
2092 19-10-2009 10:31:02 1.2 C 4.53 g/m*3 1.2 C 0 km/h
2093 19-10-2009 10:43:02 1.1 C 4.49 g/m*3 1.1 C 0 km/h
2094 19-10-2009 10:55:02 1.4 C 4.59 g/m*3 1.4 C 0 km/h
2095 19-10-2009 11:07:02 2.3 C 4.82 g/m*3 2.3 C 0 km/h
2096 19-10-2009 11:19:02 2.9 C 4.9 g/m*3 2.9 C 0 km/h
2097 19-10-2009 11:31:02 3.5 C 4.92 g/m*3 3.5 C 0 km/h
2098 19-10-2009 11:43:02 3.8 C 4.83 g/m*3 3.8 C 0 km/h
2099 19-10-2009 11:55:02 3.7 C 4.74 g/m*3 3.7 C 0 km/h
2100 19-10-2009 12:07:02 4.4 C 5.03 g/m*3 4.4 C 0 km/h
Sensor: Nr:Datum:Temp:Abs-Feuchte:Windchill:Wind:
Aussen-T/F 2101 19-10-2009 12:19:03 4.6 C 5.1 g/m*3 4.6 C 0 km/h
2102 19-10-2009 12:31:02 4.8 C 5.23 g/m*3 4.8 C 0 km/h
2103 19-10-2009 12:43:02 5.2 C 5.23 g/m*3 5.2 C 0 km/h
2104 19-10-2009 12:55:02 6 C 5.23 g/m*3 6 C 0 km/h
2105 19-10-2009 13:07:02 6.7 C 5.39 g/m*3 6.7 C 0 km/h
2106 19-10-2009 13:19:02 7.8 C 5.39 g/m*3 7.8 C 0 km/h
2107 19-10-2009 13:31:02 9.1 C 5.23 g/m*3 9.1 C 0 km/h
2108 19-10-2009 13:43:02 9.8 C 5.29 g/m*3 9.8 C 0 km/h
2109 19-10-2009 13:55:02 10.9 C 5.27 g/m*3 10.9 C 0 km/h
2110 19-10-2009 14:07:02 12 C 5.12 g/m*3 12 C 0 km/h
2111 19-10-2009 14:19:02 13 C 4.88 g/m*3 13 C 0 km/h
2112 19-10-2009 14:31:01 13.3 C 4.62 g/m*3 13.3 C 0 km/h
2113 19-10-2009 14:43:01 13.2 C 4.59 g/m*3 13.2 C 0 km/h
2114 19-10-2009 14:55:02 13.3 C 4.62 g/m*3 13.3 C 0 km/h
2115 19-10-2009 15:07:01 13.1 C 4.56 g/m*3 13.1 C 0 km/h
2116 19-10-2009 15:19:02 13.5 C 3.74 g/m*3 13.5 C 0 km/h
2117 19-10-2009 15:31:02 13.8 C 3.57 g/m*3 13.8 C 0 km/h
2118 19-10-2009 15:43:02 14.1 C 3.28 g/m*3 14.1 C 0 km/h
2119 19-10-2009 15:55:02 14.3 C 3.19 g/m*3 14.3 C 0 km/h
2120 19-10-2009 16:07:02 14.4 C 2.97 g/m*3 14.4 C 0 km/h
2121 19-10-2009 16:19:02 15 C 2.82 g/m*3 15 C 0 km/h
2122 19-10-2009 16:31:02 14.9 C 3.31 g/m*3 14.9 C 0 km/h
2123 19-10-2009 16:43:02 15 C 3.21 g/m*3 15 C 0 km/h
2124 19-10-2009 16:55:02 14.7 C 3.4 g/m*3 14.7 C 0 km/h
2125 19-10-2009 17:07:02 14.5 C 3.11 g/m*3 14.5 C 0 km/h
Sensor: Nr:Datum:Temp:Abs-Feuchte:Windchill:Wind:
Aussen-T/F 2126 19-10-2009 17:19:01 13.9 C 3.6 g/m*3 13.9 C 0 km/h
2127 19-10-2009 17:31:02 13 C 3.4 g/m*3 13 C 0 km/h
2128 19-10-2009 17:43:03 11.6 C 3.74 g/m*3 11.6 C 0 km/h
2129 19-10-2009 17:55:02 10 C 3.76 g/m*3 10 C 0 km/h
2130 19-10-2009 18:07:02 8.9 C 3.85 g/m*3 8.9 C 0 km/h
2131 19-10-2009 18:19:01 8.1 C 3.91 g/m*3 8.1 C 0 km/h
2132 19-10-2009 18:31:02 7.3 C 3.95 g/m*3 7.3 C 0 km/h
2133 19-10-2009 18:43:02 6.7 C 4.03 g/m*3 6.7 C 0 km/h
2134 19-10-2009 18:55:02 6.2 C 3.9 g/m*3 6.2 C 0 km/h
2135 19-10-2009 19:07:02 5.9 C 3.97 g/m*3 5.9 C 0 km/h
2136 19-10-2009 19:19:01 5.5 C 4 g/m*3 5.5 C 0 km/h
2137 19-10-2009 19:31:02 5.4 C 4.12 g/m*3 5.4 C 0 km/h
2138 19-10-2009 19:43:02 5.3 C 4.09 g/m*3 5.3 C 0 km/h
2139 19-10-2009 19:55:02 5.1 C 4.17 g/m*3 5.1 C 0 km/h
2140 19-10-2009 20:07:02 5 C 4.21 g/m*3 5 C 0 km/h
2141 19-10-2009 20:19:02 4.7 C 4.26 g/m*3 4.7 C 0 km/h
2142 19-10-2009 20:31:02 4.6 C 4.3 g/m*3 4.6 C 0 km/h
2143 19-10-2009 20:43:02 4.5 C 4.34 g/m*3 4.5 C 0 km/h
2144 19-10-2009 20:55:02 4.4 C 4.37 g/m*3 4.4 C 0 km/h
2145 19-10-2009 21:07:02 4.2 C 4.38 g/m*3 4.2 C 0 km/h
2146 19-10-2009 21:19:02 4.1 C 4.48 g/m*3 4.1 C 0 km/h
2147 19-10-2009 21:31:02 4 C 4.45 g/m*3 4 C 0 km/h
2148 19-10-2009 21:43:02 3.8 C 4.45 g/m*3 3.8 C 0 km/h
2149 19-10-2009 21:55:02 3.7 C 4.49 g/m*3 3.7 C 0 km/h
2150 19-10-2009 22:08:02 3.6 C 4.52 g/m*3 3.6 C 0 km/h
Sensor: Nr:Datum:Temp:Abs-Feuchte:Windchill:Wind:
Aussen-T/F 2151 19-10-2009 22:20:02 3.5 C 4.55 g/m*3 3.5 C 0 km/h
2152 19-10-2009 22:32:02 3.3 C 4.55 g/m*3 3.3 C 0 km/h
2153 19-10-2009 22:44:02 3.3 C 4.61 g/m*3 3.3 C 0 km/h
2154 19-10-2009 22:56:02 3.2 C 4.64 g/m*3 3.2 C 0 km/h
2155 19-10-2009 23:08:02 3.1 C 4.67 g/m*3 3.1 C 0 km/h
2156 19-10-2009 23:20:02 2.8 C 4.63 g/m*3 2.8 C 0 km/h
2157 19-10-2009 23:32:02 2.8 C 4.69 g/m*3 2.8 C 0 km/h
2158 19-10-2009 23:44:02 2.7 C 4.66 g/m*3 2.7 C 0 km/h
2159 19-10-2009 23:56:02 2.6 C 4.69 g/m*3 2.6 C 0 km/h
2160 20-10-2009 00:08:02 2.5 C 4.71 g/m*3 2.5 C 0 km/h
2161 20-10-2009 00:20:02 2.4 C 4.68 g/m*3 2.4 C 0 km/h
2162 20-10-2009 00:32:02 2.5 C 4.71 g/m*3 2.5 C 0 km/h
2163 20-10-2009 00:44:02 2.3 C 4.71 g/m*3 2.3 C 0 km/h
2164 20-10-2009 00:56:02 2.1 C 4.64 g/m*3 2.1 C 0 km/h
2165 20-10-2009 01:08:02 2.1 C 4.64 g/m*3 2.1 C 0 km/h
2166 20-10-2009 01:20:02 2 C 4.67 g/m*3 2 C 0 km/h
2167 20-10-2009 01:32:02 1.9 C 4.69 g/m*3 1.9 C 0 km/h
2168 20-10-2009 01:44:02 1.7 C 4.63 g/m*3 1.7 C 0 km/h
2169 20-10-2009 01:56:02 1.6 C 4.6 g/m*3 1.6 C 0 km/h
2170 20-10-2009 02:08:02 1.5 C 4.62 g/m*3 1.5 C 0 km/h
2171 20-10-2009 02:20:03 1.5 C 4.62 g/m*3 1.5 C 0 km/h
2172 20-10-2009 02:32:03 1.4 C 4.59 g/m*3 1.4 C 0 km/h
2173 20-10-2009 02:44:03 1.4 C 4.59 g/m*3 1.4 C 0 km/h
2174 20-10-2009 02:56:03 1.2 C 4.53 g/m*3 1.2 C 0 km/h
2175 20-10-2009 03:08:03 1.1 C 4.49 g/m*3 1.1 C 0 km/h
Sensor: Nr:Datum:Temp:Abs-Feuchte:Windchill:Wind:
Aussen-T/F 2176 20-10-2009 03:20:03 1 C 4.52 g/m*3 1 C 0 km/h
2177 20-10-2009 03:32:03 0.8 C 4.45 g/m*3 0.8 C 0 km/h
2178 20-10-2009 03:44:03 0.7 C 4.47 g/m*3 0.7 C 0 km/h
2179 20-10-2009 03:56:03 0.7 C 4.47 g/m*3 0.7 C 0 km/h
2180 20-10-2009 04:08:03 0.6 C 4.44 g/m*3 0.6 C 0 km/h
2181 20-10-2009 04:20:03 0.5 C 4.41 g/m*3 0.5 C 0 km/h
2182 20-10-2009 04:32:03 0.4 C 4.38 g/m*3 0.4 C 0 km/h
2183 20-10-2009 04:44:03 0.3 C 4.35 g/m*3 0.3 C 0 km/h
2184 20-10-2009 04:56:03 0.2 C 4.32 g/m*3 0.2 C 0 km/h
2185 20-10-2009 05:08:03 0.3 C 4.35 g/m*3 0.3 C 0 km/h
2186 20-10-2009 05:20:03 0.2 C 4.37 g/m*3 0.2 C 0 km/h
2187 20-10-2009 05:32:03 0 C 4.31 g/m*3 0 C 0 km/h
2188 20-10-2009 05:44:03 0 C 4.31 g/m*3 0 C 0 km/h
2189 20-10-2009 05:56:03 -0.1 C 4.28 g/m*3 -0.1 C 0 km/h
2190 20-10-2009 06:08:03 -0.2 C 4.25 g/m*3 -0.2 C 0 km/h
2191 20-10-2009 06:20:04 -0.2 C 4.3 g/m*3 -0.2 C 0 km/h
2192 20-10-2009 06:32:04 -0.3 C 4.27 g/m*3 -0.3 C 0 km/h
2193 20-10-2009 06:44:04 -0.3 C 4.32 g/m*3 -0.3 C 0 km/h
2194 20-10-2009 06:56:04 -0.3 C 4.32 g/m*3 -0.3 C 0 km/h
2195 20-10-2009 07:08:02 -0.5 C 4.26 g/m*3 -0.5 C 0 km/h
2196 20-10-2009 07:20:02 -0.3 C 4.32 g/m*3 -0.3 C 0 km/h
2197 20-10-2009 07:32:01 -0.3 C 4.37 g/m*3 -0.3 C 0 km/h
2198 20-10-2009 07:44:01 -0.5 C 4.31 g/m*3 -0.5 C 0 km/h
2199 20-10-2009 07:56:02 -0.5 C 4.31 g/m*3 -0.5 C 0 km/h
2200 20-10-2009 08:08:01 -0.5 C 4.31 g/m*3 -0.5 C 0 km/h
Sensor: Nr:Datum:Temp:Abs-Feuchte:Windchill:Wind:
Aussen-T/F 2201 20-10-2009 08:20:02 -0.2 C 4.44 g/m*3 -0.2 C 0 km/h
2202 20-10-2009 08:32:02 -0.1 C 4.47 g/m*3 -0.1 C 0 km/h
2203 20-10-2009 08:44:02 0 C 4.51 g/m*3 0 C 0 km/h
2204 20-10-2009 08:56:04 0.1 C 4.54 g/m*3 0.1 C 0 km/h
2205 20-10-2009 09:08:02 0.2 C 4.57 g/m*3 0.2 C 0 km/h
2206 20-10-2009 09:20:02 0.4 C 4.63 g/m*3 0.4 C 0 km/h
2207 20-10-2009 09:32:02 0.5 C 4.71 g/m*3 0.5 C 0 km/h
2208 20-10-2009 09:44:02 0.7 C 4.78 g/m*3 0.7 C 0 km/h
2209 20-10-2009 09:56:01 0.9 C 4.85 g/m*3 0.9 C 0 km/h
2210 20-10-2009 10:08:02 1.2 C 4.89 g/m*3 1.2 C 0 km/h
2211 20-10-2009 10:20:01 1.4 C 4.96 g/m*3 1.4 C 0 km/h
2212 20-10-2009 10:32:01 2.6 C 5.21 g/m*3 2.6 C 0 km/h
2213 20-10-2009 10:44:01 3.4 C 4.95 g/m*3 3.4 C 0 km/h
2214 20-10-2009 10:56:01 4.2 C 4.64 g/m*3 4.2 C 0 km/h
2215 20-10-2009 11:08:02 4.8 C 4.56 g/m*3 4.8 C 0 km/h
2216 20-10-2009 11:20:01 5.3 C 4.44 g/m*3 5.3 C 0 km/h
2217 20-10-2009 11:32:01 5.8 C 4.37 g/m*3 5.8 C 0 km/h
2218 20-10-2009 11:44:01 6.3 C 4.29 g/m*3 6.3 C 0 km/h
2219 20-10-2009 11:56:01 6.9 C 4.46 g/m*3 6.9 C 0 km/h
2220 20-10-2009 12:08:02 7 C 4.49 g/m*3 7 C 0 km/h
2221 20-10-2009 12:20:02 7.5 C 4.4 g/m*3 7.5 C 0 km/h
2222 20-10-2009 12:32:01 8 C 4.3 g/m*3 8 C 0 km/h
2223 20-10-2009 12:44:01 8.3 C 4.3 g/m*3 8.3 C 0 km/h
2224 20-10-2009 12:56:01 8.9 C 4.47 g/m*3 8.9 C 0 km/h
2225 20-10-2009 13:08:02 9.3 C 4.22 g/m*3 9.3 C 0 km/h
Sensor: Nr:Datum:Temp:Abs-Feuchte:Windchill:Wind:
Aussen-T/F 2226 20-10-2009 13:20:02 9.8 C 4.27 g/m*3 9.8 C 0 km/h
2227 20-10-2009 13:32:01 10.2 C 4.38 g/m*3 10.2 C 0 km/h
2228 20-10-2009 13:44:01 10.7 C 4.32 g/m*3 10.7 C 0 km/h
2229 20-10-2009 13:56:01 11.2 C 4.26 g/m*3 11.2 C 0 km/h
2230 20-10-2009 14:08:01 11.7 C 4.29 g/m*3 11.7 C 0 km/h
2231 20-10-2009 14:20:02 11.9 C 4.24 g/m*3 11.9 C 0 km/h
2232 20-10-2009 14:32:01 12.1 C 4.29 g/m*3 12.1 C 0 km/h
2233 20-10-2009 14:44:01 12.5 C 4.29 g/m*3 12.5 C 0 km/h
2234 20-10-2009 14:56:02 12.9 C 4.17 g/m*3 12.9 C 0 km/h
2235 20-10-2009 15:08:01 12.7 C 4.12 g/m*3 12.7 C 0 km/h
2236 20-10-2009 15:20:02 12.8 C 4.03 g/m*3 12.8 C 0 km/h
2237 20-10-2009 15:32:01 13.3 C 4.04 g/m*3 13.3 C 0 km/h
2238 20-10-2009 15:44:01 13.7 C 4.14 g/m*3 13.7 C 0 km/h
2239 20-10-2009 15:56:03 14.2 C 4.03 g/m*3 14.2 C 0 km/h
2240 20-10-2009 16:08:02 13.8 C 3.93 g/m*3 13.8 C 0 km/h
2241 20-10-2009 16:20:02 13.7 C 4.03 g/m*3 13.7 C 0 km/h
2242 20-10-2009 16:32:02 13.4 C 4.07 g/m*3 13.4 C 0 km/h
2243 20-10-2009 16:44:02 13.5 C 4.09 g/m*3 13.5 C 0 km/h
2244 20-10-2009 16:56:02 12.8 C 4.14 g/m*3 12.8 C 0 km/h
2245 20-10-2009 17:08:02 11.9 C 4.24 g/m*3 11.9 C 0 km/h
2246 20-10-2009 17:20:02 11.2 C 4.26 g/m*3 11.2 C 0 km/h
2247 20-10-2009 17:32:02 10.8 C 4.45 g/m*3 10.8 C 0 km/h
2248 20-10-2009 17:44:02 10.5 C 4.46 g/m*3 10.5 C 0 km/h
2249 20-10-2009 17:56:02 10.3 C 4.5 g/m*3 10.3 C 0 km/h
2250 20-10-2009 18:08:01 10.1 C 4.54 g/m*3 10.1 C 0 km/h
Sensor: Nr:Datum:Temp:Abs-Feuchte:Windchill:Wind:
Aussen-T/F 2251 20-10-2009 18:20:02 9.7 C 4.7 g/m*3 9.7 C 0 km/h
2252 20-10-2009 18:32:02 9.4 C 4.61 g/m*3 9.4 C 0 km/h
2253 20-10-2009 18:44:02 9.1 C 4.7 g/m*3 9.1 C 0 km/h
2254 20-10-2009 18:56:02 8.8 C 4.87 g/m*3 8.8 C 0 km/h
2255 20-10-2009 19:08:03 8.6 C 4.9 g/m*3 8.6 C 0 km/h
2256 20-10-2009 19:20:02 8.6 C 4.98 g/m*3 8.6 C 0 km/h
2257 20-10-2009 19:32:02 8.4 C 4.92 g/m*3 8.4 C 0 km/h
2258 20-10-2009 19:44:02 8.2 C 4.86 g/m*3 8.2 C 0 km/h
2259 20-10-2009 19:56:02 7.8 C 4.98 g/m*3 7.8 C 0 km/h
2260 20-10-2009 20:08:02 7.8 C 4.98 g/m*3 7.8 C 0 km/h
2261 20-10-2009 20:20:01 7.4 C 4.93 g/m*3 7.4 C 0 km/h
2262 20-10-2009 20:32:02 7.2 C 5.02 g/m*3 7.2 C 0 km/h
2263 20-10-2009 20:44:02 7 C 5.04 g/m*3 7 C 0 km/h
2264 20-10-2009 20:56:02 6.9 C 5.16 g/m*3 6.9 C 0 km/h
2265 20-10-2009 21:08:02 6.4 C 5.14 g/m*3 6.4 C 0 km/h
2266 20-10-2009 21:20:02 6.3 C 5.18 g/m*3 6.3 C 0 km/h
2267 20-10-2009 21:32:02 6 C 5.15 g/m*3 6 C 0 km/h
2268 20-10-2009 21:44:02 5.9 C 5.19 g/m*3 5.9 C 0 km/h
2269 20-10-2009 21:56:01 5.7 C 5.19 g/m*3 5.7 C 0 km/h
2270 20-10-2009 22:09:03 5.6 C 5.3 g/m*3 5.6 C 0 km/h
2271 20-10-2009 22:21:03 5.5 C 5.27 g/m*3 5.5 C 0 km/h
2272 20-10-2009 22:33:03 5.3 C 5.2 g/m*3 5.3 C 0 km/h
2273 20-10-2009 22:45:03 5.1 C 5.2 g/m*3 5.1 C 0 km/h
2274 20-10-2009 22:57:03 5 C 5.16 g/m*3 5 C 0 km/h
2275 20-10-2009 23:09:03 4.8 C 5.23 g/m*3 4.8 C 0 km/h
Sensor: Nr:Datum:Temp:Abs-Feuchte:Windchill:Wind:
Aussen-T/F 2276 20-10-2009 23:21:03 4.7 C 5.2 g/m*3 4.7 C 0 km/h
2277 20-10-2009 23:33:03 4.6 C 5.16 g/m*3 4.6 C 0 km/h
2278 20-10-2009 23:45:03 4.4 C 5.09 g/m*3 4.4 C 0 km/h
2279 20-10-2009 23:57:03 4.3 C 5.12 g/m*3 4.3 C 0 km/h
2280 21-10-2009 00:09:03 4.2 C 5.09 g/m*3 4.2 C 0 km/h
2281 21-10-2009 00:21:03 4.2 C 5.15 g/m*3 4.2 C 0 km/h
2282 21-10-2009 00:33:03 4.1 C 5.12 g/m*3 4.1 C 0 km/h
2283 21-10-2009 00:45:03 4 C 5.15 g/m*3 4 C 0 km/h
2284 21-10-2009 00:57:03 3.9 C 5.18 g/m*3 3.9 C 0 km/h
2285 21-10-2009 01:09:03 3.8 C 5.14 g/m*3 3.8 C 0 km/h
2286 21-10-2009 01:21:03 3.9 C 5.18 g/m*3 3.9 C 0 km/h
2287 21-10-2009 01:33:03 3.8 C 5.14 g/m*3 3.8 C 0 km/h
2288 21-10-2009 01:45:03 3.9 C 5.18 g/m*3 3.9 C 0 km/h
2289 21-10-2009 01:57:03 3.9 C 5.18 g/m*3 3.9 C 0 km/h
2290 21-10-2009 02:09:04 3.9 C 5.18 g/m*3 3.9 C 0 km/h
2291 21-10-2009 02:21:04 3.9 C 5.18 g/m*3 3.9 C 0 km/h
2292 21-10-2009 02:33:04 3.9 C 5.12 g/m*3 3.9 C 0 km/h
2293 21-10-2009 02:45:04 4 C 5.09 g/m*3 4 C 0 km/h
2294 21-10-2009 02:57:04 4.2 C 5.15 g/m*3 4.2 C 0 km/h
2295 21-10-2009 03:09:04 4.3 C 5.12 g/m*3 4.3 C 0 km/h
2296 21-10-2009 03:21:04 4.4 C 5.16 g/m*3 4.4 C 0 km/h
2297 21-10-2009 03:33:04 4.4 C 5.09 g/m*3 4.4 C 0 km/h
2298 21-10-2009 03:45:04 4.3 C 4.99 g/m*3 4.3 C 0 km/h
2299 21-10-2009 03:57:04 4.2 C 4.96 g/m*3 4.2 C 0 km/h
2300 21-10-2009 04:09:04 4.2 C 4.96 g/m*3 4.2 C 0 km/h
Sensor: Nr:Datum:Temp:Abs-Feuchte:Windchill:Wind:
Aussen-T/F 2301 21-10-2009 04:21:04 4.3 C 5.06 g/m*3 4.3 C 0 km/h
2302 21-10-2009 04:33:04 4.4 C 5.03 g/m*3 4.4 C 0 km/h
2303 21-10-2009 04:45:04 4.4 C 5.03 g/m*3 4.4 C 0 km/h
2304 21-10-2009 04:57:04 4.4 C 5.03 g/m*3 4.4 C 0 km/h
2305 21-10-2009 05:09:04 4.5 C 5 g/m*3 4.5 C 0 km/h
2306 21-10-2009 05:21:04 4.6 C 4.96 g/m*3 4.6 C 0 km/h
2307 21-10-2009 05:33:04 4.6 C 4.9 g/m*3 4.6 C 0 km/h
2308 21-10-2009 05:45:04 4.6 C 4.9 g/m*3 4.6 C 0 km/h
2309 21-10-2009 05:57:04 4.6 C 4.96 g/m*3 4.6 C 0 km/h
2310 21-10-2009 06:09:05 4.5 C 4.93 g/m*3 4.5 C 0 km/h
2311 21-10-2009 06:21:05 4.6 C 4.96 g/m*3 4.6 C 0 km/h
2312 21-10-2009 06:33:05 4.6 C 4.96 g/m*3 4.6 C 0 km/h
2313 21-10-2009 06:45:02 4.6 C 4.96 g/m*3 4.6 C 0 km/h
2314 21-10-2009 06:57:02 4.6 C 4.9 g/m*3 4.6 C 0 km/h
2315 21-10-2009 07:09:02 4.6 C 4.9 g/m*3 4.6 C 0 km/h
2316 21-10-2009 07:21:02 4.6 C 4.9 g/m*3 4.6 C 0 km/h
2317 21-10-2009 07:33:02 4.7 C 4.93 g/m*3 4.7 C 0 km/h
2318 21-10-2009 07:45:02 4.8 C 4.96 g/m*3 4.8 C 0 km/h
2319 21-10-2009 07:57:02 4.9 C 5 g/m*3 4.9 C 0 km/h
2320 21-10-2009 08:09:02 5 C 4.96 g/m*3 5 C 0 km/h
2321 21-10-2009 08:21:01 5 C 4.89 g/m*3 5 C 0 km/h
2322 21-10-2009 08:33:02 5.1 C 4.92 g/m*3 5.1 C 0 km/h
2323 21-10-2009 08:45:02 5.2 C 4.96 g/m*3 5.2 C 0 km/h
2324 21-10-2009 08:57:02 5.4 C 5.02 g/m*3 5.4 C 0 km/h
2325 21-10-2009 09:09:02 5.6 C 4.95 g/m*3 5.6 C 0 km/h
Sensor: Nr:Datum:Temp:Abs-Feuchte:Windchill:Wind:
Aussen-T/F 2326 21-10-2009 09:21:02 5.7 C 4.84 g/m*3 5.7 C 0 km/h
2327 21-10-2009 09:33:02 5.8 C 4.73 g/m*3 5.8 C 0 km/h
2328 21-10-2009 09:45:01 6.1 C 4.75 g/m*3 6.1 C 0 km/h
2329 21-10-2009 09:57:01 6.4 C 4.77 g/m*3 6.4 C 0 km/h
2330 21-10-2009 10:09:02 6.6 C 4.68 g/m*3 6.6 C 0 km/h
2331 21-10-2009 10:21:01 6.9 C 4.7 g/m*3 6.9 C 0 km/h
2332 21-10-2009 10:33:01 7.1 C 4.6 g/m*3 7.1 C 0 km/h
2333 21-10-2009 10:45:01 7.5 C 4.8 g/m*3 7.5 C 0 km/h
2334 21-10-2009 10:57:01 7.8 C 4.73 g/m*3 7.8 C 0 km/h
2335 21-10-2009 11:09:02 8.1 C 4.66 g/m*3 8.1 C 0 km/h
2336 21-10-2009 11:21:01 8.5 C 4.7 g/m*3 8.5 C 0 km/h
2337 21-10-2009 11:33:02 8.8 C 4.7 g/m*3 8.8 C 0 km/h
2338 21-10-2009 11:45:02 9.2 C 4.64 g/m*3 9.2 C 0 km/h
2339 21-10-2009 11:57:02 9.6 C 4.86 g/m*3 9.6 C 0 km/h
2340 21-10-2009 12:09:02 9.9 C 4.76 g/m*3 9.9 C 0 km/h
2341 21-10-2009 12:21:01 9.9 C 4.67 g/m*3 9.9 C 0 km/h
2342 21-10-2009 12:33:02 9.9 C 4.76 g/m*3 9.9 C 0 km/h
2343 21-10-2009 12:45:02 10 C 4.79 g/m*3 10 C 0 km/h
2344 21-10-2009 12:57:02 10.2 C 4.76 g/m*3 10.2 C 0 km/h
2345 21-10-2009 13:09:02 10.6 C 4.68 g/m*3 10.6 C 0 km/h
2346 21-10-2009 13:21:02 11.2 C 4.76 g/m*3 11.2 C 0 km/h
2347 21-10-2009 13:33:02 11.7 C 4.71 g/m*3 11.7 C 0 km/h
2348 21-10-2009 13:45:02 12.1 C 4.72 g/m*3 12.1 C 0 km/h
2349 21-10-2009 13:57:02 12.8 C 4.82 g/m*3 12.8 C 0 km/h
2350 21-10-2009 14:09:02 13.2 C 4.71 g/m*3 13.2 C 0 km/h
Sensor: Nr:Datum:Temp:Abs-Feuchte:Windchill:Wind:
Aussen-T/F 2351 21-10-2009 14:21:02 13.8 C 4.77 g/m*3 13.8 C 0 km/h
2352 21-10-2009 14:33:02 13.6 C 4.71 g/m*3 13.6 C 0 km/h
2353 21-10-2009 14:45:02 13.5 C 4.68 g/m*3 13.5 C 0 km/h
2354 21-10-2009 14:57:02 13.4 C 4.77 g/m*3 13.4 C 0 km/h
2355 21-10-2009 15:09:02 13.2 C 4.71 g/m*3 13.2 C 0 km/h
2356 21-10-2009 15:21:02 12.9 C 4.73 g/m*3 12.9 C 0 km/h
2357 21-10-2009 15:33:02 13.4 C 4.77 g/m*3 13.4 C 0 km/h
2358 21-10-2009 15:45:01 14.3 C 4.67 g/m*3 14.3 C 0 km/h
2359 21-10-2009 15:57:01 14.3 C 4.67 g/m*3 14.3 C 0 km/h
2360 21-10-2009 16:09:01 14.5 C 4.85 g/m*3 14.5 C 0 km/h
2361 21-10-2009 16:21:02 14.6 C 5.01 g/m*3 14.6 C 0 km/h
2362 21-10-2009 16:33:01 14.7 C 5.16 g/m*3 14.7 C 0 km/h
2363 21-10-2009 16:45:01 14.8 C 4.69 g/m*3 14.8 C 0 km/h
2364 21-10-2009 16:57:01 15 C 4.62 g/m*3 15 C 0 km/h
2365 21-10-2009 17:09:01 14.7 C 4.78 g/m*3 14.7 C 0 km/h
2366 21-10-2009 17:21:02 14.2 C 4.88 g/m*3 14.2 C 0 km/h
2367 21-10-2009 17:33:01 13.8 C 4.41 g/m*3 13.8 C 0 km/h
2368 21-10-2009 17:45:03 13.6 C 4.71 g/m*3 13.6 C 0 km/h
2369 21-10-2009 17:57:03 12.8 C 4.59 g/m*3 12.8 C 0 km/h
2370 21-10-2009 18:09:02 12 C 4.69 g/m*3 12 C 0 km/h
2371 21-10-2009 18:21:03 11.3 C 4.49 g/m*3 11.3 C 0 km/h
2372 21-10-2009 18:33:02 11 C 4.5 g/m*3 11 C 0 km/h
2373 21-10-2009 18:45:02 10.6 C 4.59 g/m*3 10.6 C 0 km/h
2374 21-10-2009 18:57:02 10.1 C 4.63 g/m*3 10.1 C 0 km/h
2375 21-10-2009 19:09:02 9.8 C 4.64 g/m*3 9.8 C 0 km/h
Sensor: Nr:Datum:Temp:Abs-Feuchte:Windchill:Wind:
Aussen-T/F 2376 21-10-2009 19:21:02 9.7 C 4.61 g/m*3 9.7 C 0 km/h
2377 21-10-2009 19:33:02 9.4 C 4.7 g/m*3 9.4 C 0 km/h
2378 21-10-2009 19:45:02 9.3 C 4.76 g/m*3 9.3 C 0 km/h
2379 21-10-2009 19:57:02 9.1 C 4.79 g/m*3 9.1 C 0 km/h
2380 21-10-2009 20:09:01 9 C 4.94 g/m*3 9 C 0 km/h
2381 21-10-2009 20:21:02 8.7 C 5.02 g/m*3 8.7 C 0 km/h
2382 21-10-2009 20:33:02 8.5 C 4.95 g/m*3 8.5 C 0 km/h
2383 21-10-2009 20:45:02 8.2 C 5.02 g/m*3 8.2 C 0 km/h
2384 21-10-2009 20:57:03 8.1 C 4.99 g/m*3 8.1 C 0 km/h
2385 21-10-2009 21:09:02 8.1 C 5.08 g/m*3 8.1 C 0 km/h
2386 21-10-2009 21:21:01 8.1 C 4.99 g/m*3 8.1 C 0 km/h
2387 21-10-2009 21:33:02 8.1 C 4.99 g/m*3 8.1 C 0 km/h
2388 21-10-2009 21:45:02 8.3 C 4.97 g/m*3 8.3 C 0 km/h
2389 21-10-2009 21:57:02 8.4 C 5.01 g/m*3 8.4 C 0 km/h
2390 21-10-2009 22:09:01 8.4 C 5.09 g/m*3 8.4 C 0 km/h
2391 21-10-2009 22:22:02 8.5 C 5.04 g/m*3 8.5 C 0 km/h
2392 21-10-2009 22:34:02 8.6 C 4.98 g/m*3 8.6 C 0 km/h
2393 21-10-2009 22:46:02 8.8 C 4.7 g/m*3 8.8 C 0 km/h
2394 21-10-2009 22:58:02 9 C 4.5 g/m*3 9 C 0 km/h
2395 21-10-2009 23:10:02 9.1 C 4.44 g/m*3 9.1 C 0 km/h
2396 21-10-2009 23:22:02 9.1 C 4.44 g/m*3 9.1 C 0 km/h
2397 21-10-2009 23:34:02 9.1 C 4.44 g/m*3 9.1 C 0 km/h
2398 21-10-2009 23:46:02 9 C 4.41 g/m*3 9 C 0 km/h
2399 21-10-2009 23:58:02 9.1 C 4.35 g/m*3 9.1 C 0 km/h
2400 22-10-2009 00:10:02 9 C 4.5 g/m*3 9 C 0 km/h
Sensor: Nr:Datum:Temp:Abs-Feuchte:Windchill:Wind:
Aussen-T/F 2401 22-10-2009 00:22:02 9 C 4.5 g/m*3 9 C 0 km/h
2402 22-10-2009 00:34:03 8.9 C 4.56 g/m*3 8.9 C 0 km/h
2403 22-10-2009 00:46:03 8.9 C 4.56 g/m*3 8.9 C 0 km/h
2404 22-10-2009 00:58:03 8.9 C 4.47 g/m*3 8.9 C 0 km/h
2405 22-10-2009 01:10:03 8.8 C 4.61 g/m*3 8.8 C 0 km/h
2406 22-10-2009 01:22:03 8.7 C 4.67 g/m*3 8.7 C 0 km/h
2407 22-10-2009 01:34:03 8.6 C 4.73 g/m*3 8.6 C 0 km/h
2408 22-10-2009 01:46:03 8.4 C 4.75 g/m*3 8.4 C 0 km/h
2409 22-10-2009 01:58:03 8.3 C 4.8 g/m*3 8.3 C 0 km/h
2410 22-10-2009 02:10:03 8.2 C 4.86 g/m*3 8.2 C 0 km/h
2411 22-10-2009 02:22:03 8.1 C 4.83 g/m*3 8.1 C 0 km/h
2412 22-10-2009 02:34:03 8 C 4.88 g/m*3 8 C 0 km/h
2413 22-10-2009 02:46:03 8 C 4.96 g/m*3 8 C 0 km/h
2414 22-10-2009 02:58:03 8 C 5.04 g/m*3 8 C 0 km/h
2415 22-10-2009 03:10:03 7.9 C 5.17 g/m*3 7.9 C 0 km/h
2416 22-10-2009 03:22:03 7.9 C 5.09 g/m*3 7.9 C 0 km/h
2417 22-10-2009 03:34:03 7.9 C 5.09 g/m*3 7.9 C 0 km/h
2418 22-10-2009 03:46:03 7.9 C 4.93 g/m*3 7.9 C 0 km/h
2419 22-10-2009 03:58:03 7.8 C 5.06 g/m*3 7.8 C 0 km/h
2420 22-10-2009 04:10:03 7.6 C 4.99 g/m*3 7.6 C 0 km/h
2421 22-10-2009 04:22:03 7.6 C 5.16 g/m*3 7.6 C 0 km/h
2422 22-10-2009 04:34:04 7.6 C 5.16 g/m*3 7.6 C 0 km/h
2423 22-10-2009 04:46:04 7.3 C 5.14 g/m*3 7.3 C 0 km/h
2424 22-10-2009 04:58:04 7.3 C 5.29 g/m*3 7.3 C 0 km/h
2425 22-10-2009 05:10:04 7 C 5.35 g/m*3 7 C 0 km/h
Sensor: Nr:Datum:Temp:Abs-Feuchte:Windchill:Wind:
Aussen-T/F 2426 22-10-2009 05:22:04 7 C 5.5 g/m*3 7 C 0 km/h
2427 22-10-2009 05:34:04 7 C 5.66 g/m*3 7 C 0 km/h
2428 22-10-2009 05:46:04 7 C 5.66 g/m*3 7 C 0 km/h
2429 22-10-2009 05:58:04 6.9 C 5.77 g/m*3 6.9 C 0 km/h
2430 22-10-2009 06:10:04 6.8 C 5.81 g/m*3 6.8 C 0 km/h
2431 22-10-2009 06:22:04 6.8 C 5.89 g/m*3 6.8 C 0 km/h
2432 22-10-2009 06:34:04 6.9 C 5.93 g/m*3 6.9 C 0 km/h
2433 22-10-2009 06:46:04 6.9 C 5.85 g/m*3 6.9 C 0 km/h
2434 22-10-2009 06:58:04 6.9 C 5.85 g/m*3 6.9 C 0 km/h
2435 22-10-2009 07:10:02 6.9 C 5.77 g/m*3 6.9 C 0 km/h
2436 22-10-2009 07:22:02 7 C 5.73 g/m*3 7 C 0 km/h
2437 22-10-2009 07:34:02 7 C 5.66 g/m*3 7 C 0 km/h
2438 22-10-2009 07:46:01 7 C 5.58 g/m*3 7 C 0 km/h
2439 22-10-2009 07:58:01 6.9 C 5.54 g/m*3 6.9 C 0 km/h
2440 22-10-2009 08:10:02 6.9 C 5.54 g/m*3 6.9 C 0 km/h
2441 22-10-2009 08:22:01 6.9 C 5.54 g/m*3 6.9 C 0 km/h
2442 22-10-2009 08:34:01 7.1 C 5.54 g/m*3 7.1 C 0 km/h
2443 22-10-2009 08:46:01 7.3 C 5.61 g/m*3 7.3 C 0 km/h
2444 22-10-2009 08:58:01 7.5 C 5.68 g/m*3 7.5 C 0 km/h
2445 22-10-2009 09:10:01 7.9 C 5.83 g/m*3 7.9 C 0 km/h
2446 22-10-2009 09:22:02 8.1 C 5.74 g/m*3 8.1 C 0 km/h
2447 22-10-2009 09:34:01 8.4 C 5.77 g/m*3 8.4 C 0 km/h
2448 22-10-2009 09:46:02 8.6 C 5.76 g/m*3 8.6 C 0 km/h
2449 22-10-2009 09:58:02 8.9 C 5.52 g/m*3 8.9 C 0 km/h
2450 22-10-2009 10:10:02 9.1 C 5.41 g/m*3 9.1 C 0 km/h
Sensor: Nr:Datum:Temp:Abs-Feuchte:Windchill:Wind:
Aussen-T/F 2451 22-10-2009 10:22:02 9.3 C 5.39 g/m*3 9.3 C 0 km/h
2452 22-10-2009 10:34:03 9.6 C 5.4 g/m*3 9.6 C 0 km/h
2453 22-10-2009 10:46:02 9.8 C 5.38 g/m*3 9.8 C 0 km/h
2454 22-10-2009 10:58:03 10 C 5.54 g/m*3 10 C 0 km/h
2455 22-10-2009 11:10:01 10.2 C 5.61 g/m*3 10.2 C 0 km/h
2456 22-10-2009 11:22:02 10.2 C 5.52 g/m*3 10.2 C 0 km/h
2457 22-10-2009 11:34:02 10.2 C 5.42 g/m*3 10.2 C 0 km/h
2458 22-10-2009 11:46:02 10.3 C 5.55 g/m*3 10.3 C 0 km/h
2459 22-10-2009 11:58:02 10.3 C 5.46 g/m*3 10.3 C 0 km/h
2460 22-10-2009 12:10:02 10.3 C 5.65 g/m*3 10.3 C 0 km/h
2461 22-10-2009 12:22:02 10.5 C 5.72 g/m*3 10.5 C 0 km/h
2462 22-10-2009 12:34:03 10.9 C 5.77 g/m*3 10.9 C 0 km/h
2463 22-10-2009 12:46:02 11.2 C 5.57 g/m*3 11.2 C 0 km/h
2464 22-10-2009 12:58:02 11.5 C 5.58 g/m*3 11.5 C 0 km/h
2465 22-10-2009 13:10:02 11.5 C 5.68 g/m*3 11.5 C 0 km/h
2466 22-10-2009 13:22:01 11.6 C 5.72 g/m*3 11.6 C 0 km/h
2467 22-10-2009 13:34:01 11.7 C 5.75 g/m*3 11.7 C 0 km/h
2468 22-10-2009 13:46:02 12.1 C 5.79 g/m*3 12.1 C 0 km/h
2469 22-10-2009 13:58:02 12.2 C 5.72 g/m*3 12.2 C 0 km/h
2470 22-10-2009 14:10:02 12 C 5.65 g/m*3 12 C 0 km/h
2471 22-10-2009 14:22:02 12.2 C 5.83 g/m*3 12.2 C 0 km/h
2472 22-10-2009 14:34:03 12.4 C 5.79 g/m*3 12.4 C 0 km/h
2473 22-10-2009 14:46:02 12.6 C 5.86 g/m*3 12.6 C 0 km/h
2474 22-10-2009 14:58:02 12.5 C 5.83 g/m*3 12.5 C 0 km/h
2475 22-10-2009 15:10:01 12.7 C 6.01 g/m*3 12.7 C 0 km/h
Sensor: Nr:Datum:Temp:Abs-Feuchte:Windchill:Wind:
Aussen-T/F 2476 22-10-2009 15:22:02 12.8 C 6.05 g/m*3 12.8 C 0 km/h
2477 22-10-2009 15:34:02 12.9 C 6.09 g/m*3 12.9 C 0 km/h
2478 22-10-2009 15:46:02 12.8 C 6.16 g/m*3 12.8 C 0 km/h
2479 22-10-2009 15:58:02 12.7 C 6.23 g/m*3 12.7 C 0 km/h
2480 22-10-2009 16:10:02 12.5 C 6.49 g/m*3 12.5 C 0 km/h
2481 22-10-2009 16:22:02 12.5 C 6.6 g/m*3 12.5 C 0 km/h
2482 22-10-2009 16:34:02 12.5 C 6.71 g/m*3 12.5 C 0 km/h
2483 22-10-2009 16:46:01 12.4 C 6.66 g/m*3 12.4 C 0 km/h
2484 22-10-2009 16:58:01 12.2 C 6.69 g/m*3 12.2 C 0 km/h
2485 22-10-2009 17:10:02 12 C 6.82 g/m*3 12 C 0 km/h
2486 22-10-2009 17:22:01 11.9 C 6.99 g/m*3 11.9 C 0 km/h
2487 22-10-2009 17:34:01 11.9 C 6.99 g/m*3 11.9 C 0 km/h
2488 22-10-2009 17:46:01 11.9 C 7.1 g/m*3 11.9 C 0 km/h
2489 22-10-2009 17:58:01 11.9 C 6.99 g/m*3 11.9 C 0 km/h
2490 22-10-2009 18:10:02 11.8 C 6.95 g/m*3 11.8 C 0 km/h
2491 22-10-2009 18:22:01 11.9 C 7.1 g/m*3 11.9 C 0 km/h
2492 22-10-2009 18:34:02 11.4 C 6.88 g/m*3 11.4 C 0 km/h
2493 22-10-2009 18:46:01 11.3 C 6.83 g/m*3 11.3 C 0 km/h
2494 22-10-2009 18:58:01 11.3 C 6.83 g/m*3 11.3 C 0 km/h
2495 22-10-2009 19:10:02 11.2 C 6.79 g/m*3 11.2 C 0 km/h
2496 22-10-2009 19:22:01 11.1 C 6.75 g/m*3 11.1 C 0 km/h
2497 22-10-2009 19:34:02 11 C 6.81 g/m*3 11 C 0 km/h
2498 22-10-2009 19:46:01 11 C 6.91 g/m*3 11 C 0 km/h
2499 22-10-2009 19:58:01 10.9 C 6.96 g/m*3 10.9 C 0 km/h
2500 22-10-2009 20:10:02 10.8 C 7.02 g/m*3 10.8 C 0 km/h
Sensor: Nr:Datum:Temp:Abs-Feuchte:Windchill:Wind:
Aussen-T/F 2501 22-10-2009 20:22:02 10.8 C 7.12 g/m*3 10.8 C 0 km/h
2502 22-10-2009 20:34:01 10.7 C 7.07 g/m*3 10.7 C 0 km/h
2503 22-10-2009 20:46:02 10.5 C 6.98 g/m*3 10.5 C 0 km/h
2504 22-10-2009 20:58:02 10.1 C 6.81 g/m*3 10.1 C 0 km/h
2505 22-10-2009 21:10:02 9.5 C 6.83 g/m*3 9.5 C 0 km/h
2506 22-10-2009 21:22:01 9.1 C 6.83 g/m*3 9.1 C 0 km/h
2507 22-10-2009 21:34:02 8.8 C 6.79 g/m*3 8.8 C 0 km/h
2508 22-10-2009 21:46:01 8.5 C 6.74 g/m*3 8.5 C 0 km/h
2509 22-10-2009 21:58:01 8.2 C 6.7 g/m*3 8.2 C 0 km/h
2510 22-10-2009 22:10:01 7.9 C 6.74 g/m*3 7.9 C 0 km/h
2511 22-10-2009 22:22:02 7.8 C 6.77 g/m*3 7.8 C 0 km/h
2512 22-10-2009 22:34:02 7.6 C 6.77 g/m*3 7.6 C 0 km/h
2513 22-10-2009 22:46:01 7.4 C 6.68 g/m*3 7.4 C 0 km/h
2514 22-10-2009 22:58:01 7.2 C 6.59 g/m*3 7.2 C 0 km/h
2515 22-10-2009 23:10:01 7.1 C 6.55 g/m*3 7.1 C 0 km/h
2516 22-10-2009 23:22:01 7 C 6.59 g/m*3 7 C 0 km/h
2517 22-10-2009 23:34:02 6.9 C 6.7 g/m*3 6.9 C 0 km/h
2518 22-10-2009 23:46:02 6.7 C 6.61 g/m*3 6.7 C 0 km/h
2519 22-10-2009 23:58:02 6.5 C 6.45 g/m*3 6.5 C 0 km/h
2520 23-10-2009 00:10:02 6.2 C 6.32 g/m*3 6.2 C 0 km/h
2521 23-10-2009 00:22:02 6 C 6.24 g/m*3 6 C 0 km/h
2522 23-10-2009 00:34:02 5.9 C 6.35 g/m*3 5.9 C 0 km/h
2523 23-10-2009 00:46:02 5.9 C 6.35 g/m*3 5.9 C 0 km/h
2524 23-10-2009 00:58:02 5.9 C 6.42 g/m*3 5.9 C 0 km/h
2525 23-10-2009 01:10:02 5.7 C 6.33 g/m*3 5.7 C 0 km/h
Sensor: Nr:Datum:Temp:Abs-Feuchte:Windchill:Wind:
Aussen-T/F 2526 23-10-2009 01:22:02 5.5 C 6.25 g/m*3 5.5 C 0 km/h
2527 23-10-2009 01:34:02 5.3 C 6.17 g/m*3 5.3 C 0 km/h
2528 23-10-2009 01:46:01 5.1 C 6.09 g/m*3 5.1 C 0 km/h
2529 23-10-2009 01:58:01 4.9 C 6.01 g/m*3 4.9 C 0 km/h
2530 23-10-2009 02:10:02 4.9 C 6.08 g/m*3 4.9 C 0 km/h
2531 23-10-2009 02:22:01 4.8 C 6.04 g/m*3 4.8 C 0 km/h
2532 23-10-2009 02:34:01 4.5 C 5.92 g/m*3 4.5 C 0 km/h
2533 23-10-2009 02:46:01 4.5 C 5.92 g/m*3 4.5 C 0 km/h
2534 23-10-2009 02:58:01 4.3 C 5.84 g/m*3 4.3 C 0 km/h
2535 23-10-2009 03:10:01 4.3 C 5.84 g/m*3 4.3 C 0 km/h
2536 23-10-2009 03:22:02 4.3 C 5.9 g/m*3 4.3 C 0 km/h
2537 23-10-2009 03:34:01 4.2 C 5.86 g/m*3 4.2 C 0 km/h
2538 23-10-2009 03:46:01 4.3 C 5.9 g/m*3 4.3 C 0 km/h
2539 23-10-2009 03:58:01 4.5 C 6.05 g/m*3 4.5 C 0 km/h
2540 23-10-2009 04:10:02 4.7 C 6.13 g/m*3 4.7 C 0 km/h
2541 23-10-2009 04:22:01 4.7 C 6.19 g/m*3 4.7 C 0 km/h
2542 23-10-2009 04:34:02 4.7 C 6.19 g/m*3 4.7 C 0 km/h
2543 23-10-2009 04:46:01 4.6 C 6.22 g/m*3 4.6 C 0 km/h
2544 23-10-2009 04:58:01 4.7 C 6.26 g/m*3 4.7 C 0 km/h
2545 23-10-2009 05:10:02 4.4 C 6.14 g/m*3 4.4 C 0 km/h
2546 23-10-2009 05:22:01 4.6 C 6.22 g/m*3 4.6 C 0 km/h
2547 23-10-2009 05:34:01 4.7 C 6.26 g/m*3 4.7 C 0 km/h
2548 23-10-2009 05:46:01 4.8 C 6.3 g/m*3 4.8 C 0 km/h
2549 23-10-2009 05:58:01 4.7 C 6.26 g/m*3 4.7 C 0 km/h
2550 23-10-2009 06:10:01 4.8 C 6.3 g/m*3 4.8 C 0 km/h
Sensor: Nr:Datum:Temp:Abs-Feuchte:Windchill:Wind:
Aussen-T/F 2551 23-10-2009 06:22:01 4.8 C 6.3 g/m*3 4.8 C 0 km/h
2552 23-10-2009 06:34:01 4.8 C 6.24 g/m*3 4.8 C 0 km/h
2553 23-10-2009 06:46:01 4.8 C 6.24 g/m*3 4.8 C 0 km/h
2554 23-10-2009 06:58:01 4.7 C 6.19 g/m*3 4.7 C 0 km/h
2555 23-10-2009 07:10:01 4.7 C 6.13 g/m*3 4.7 C 0 km/h
2556 23-10-2009 07:22:02 4.8 C 6.17 g/m*3 4.8 C 0 km/h
2557 23-10-2009 07:34:01 4.8 C 6.17 g/m*3 4.8 C 0 km/h
2558 23-10-2009 07:46:01 4.8 C 6.17 g/m*3 4.8 C 0 km/h
2559 23-10-2009 07:58:01 4.9 C 6.21 g/m*3 4.9 C 0 km/h
2560 23-10-2009 08:10:01 5 C 6.18 g/m*3 5 C 0 km/h
2561 23-10-2009 08:22:02 5 C 6.18 g/m*3 5 C 0 km/h
2562 23-10-2009 08:34:01 5.2 C 6.27 g/m*3 5.2 C 0 km/h
2563 23-10-2009 08:46:02 5.4 C 6.35 g/m*3 5.4 C 0 km/h
2564 23-10-2009 08:58:02 5.4 C 6.28 g/m*3 5.4 C 0 km/h
2565 23-10-2009 09:10:01 5.6 C 6.36 g/m*3 5.6 C 0 km/h
2566 23-10-2009 09:22:02 5.8 C 6.45 g/m*3 5.8 C 0 km/h
2567 23-10-2009 09:34:01 6.1 C 6.5 g/m*3 6.1 C 0 km/h
2568 23-10-2009 09:46:02 6.1 C 6.43 g/m*3 6.1 C 0 km/h
2569 23-10-2009 09:58:02 6.3 C 6.44 g/m*3 6.3 C 0 km/h
2570 23-10-2009 10:10:01 6.5 C 6.52 g/m*3 6.5 C 0 km/h
2571 23-10-2009 10:22:01 6.7 C 6.53 g/m*3 6.7 C 0 km/h
2572 23-10-2009 10:34:01 6.9 C 6.54 g/m*3 6.9 C 0 km/h
2573 23-10-2009 10:46:02 7 C 6.43 g/m*3 7 C 0 km/h
2574 23-10-2009 10:58:02 7.2 C 6.52 g/m*3 7.2 C 0 km/h
2575 23-10-2009 11:10:01 7.2 C 6.28 g/m*3 7.2 C 0 km/h
Sensor: Nr:Datum:Temp:Abs-Feuchte:Windchill:Wind:
Aussen-T/F 2576 23-10-2009 11:22:01 7.6 C 6.44 g/m*3 7.6 C 0 km/h
2577 23-10-2009 11:34:02 7.9 C 6.49 g/m*3 7.9 C 0 km/h
2578 23-10-2009 11:46:01 7.8 C 6.37 g/m*3 7.8 C 0 km/h
2579 23-10-2009 11:58:02 7.8 C 6.45 g/m*3 7.8 C 0 km/h
2580 23-10-2009 12:10:01 7.9 C 6.57 g/m*3 7.9 C 0 km/h
2581 23-10-2009 12:22:01 8.5 C 6.74 g/m*3 8.5 C 0 km/h
2582 23-10-2009 12:34:02 9.1 C 6.83 g/m*3 9.1 C 0 km/h
2583 23-10-2009 12:46:01 9.5 C 6.74 g/m*3 9.5 C 0 km/h
2584 23-10-2009 12:58:01 9.9 C 6.72 g/m*3 9.9 C 0 km/h
2585 23-10-2009 13:10:02 10.1 C 6.62 g/m*3 10.1 C 0 km/h
2586 23-10-2009 13:22:01 10.2 C 6.57 g/m*3 10.2 C 0 km/h
2587 23-10-2009 13:34:02 10.7 C 6.78 g/m*3 10.7 C 0 km/h
2588 23-10-2009 13:46:01 10.9 C 6.76 g/m*3 10.9 C 0 km/h
2589 23-10-2009 13:58:01 11.2 C 6.79 g/m*3 11.2 C 0 km/h
2590 23-10-2009 14:10:02 11.7 C 6.9 g/m*3 11.7 C 0 km/h
2591 23-10-2009 14:22:01 12.4 C 6.99 g/m*3 12.4 C 0 km/h
2592 23-10-2009 14:34:01 12.7 C 6.9 g/m*3 12.7 C 0 km/h
2593 23-10-2009 14:46:01 12.8 C 6.94 g/m*3 12.8 C 0 km/h
2594 23-10-2009 14:58:01 12.9 C 7.1 g/m*3 12.9 C 0 km/h
2595 23-10-2009 15:10:03 13.3 C 7.05 g/m*3 13.3 C 0 km/h
2596 23-10-2009 15:22:01 13.7 C 7.1 g/m*3 13.7 C 0 km/h
2597 23-10-2009 15:34:01 13.5 C 7.02 g/m*3 13.5 C 0 km/h
2598 23-10-2009 15:46:01 13.9 C 7.31 g/m*3 13.9 C 0 km/h
2599 23-10-2009 15:58:01 14.2 C 7.33 g/m*3 14.2 C 0 km/h
2600 23-10-2009 16:10:01 14.2 C 7.33 g/m*3 14.2 C 0 km/h
Sensor: Nr:Datum:Temp:Abs-Feuchte:Windchill:Wind:
Aussen-T/F 2601 23-10-2009 16:22:02 14.1 C 7.52 g/m*3 14.1 C 0 km/h
2602 23-10-2009 16:34:01 15 C 7.44 g/m*3 15 C 0 km/h
2603 23-10-2009 16:46:01 14.7 C 7.3 g/m*3 14.7 C 0 km/h
2604 23-10-2009 16:58:01 14.1 C 7.4 g/m*3 14.1 C 0 km/h
2605 23-10-2009 17:10:01 13.7 C 7.58 g/m*3 13.7 C 0 km/h
2606 23-10-2009 17:22:02 13.1 C 7.53 g/m*3 13.1 C 0 km/h
2607 23-10-2009 17:34:01 12.3 C 7.82 g/m*3 12.3 C 0 km/h
2608 23-10-2009 17:46:02 11.7 C 8.16 g/m*3 11.7 C 0 km/h
2609 23-10-2009 17:58:02 11.7 C 8.37 g/m*3 11.7 C 0 km/h
2610 23-10-2009 18:10:01 11.3 C 8.47 g/m*3 11.3 C 0 km/h
2611 23-10-2009 18:22:02 11.2 C 8.51 g/m*3 11.2 C 0 km/h
2612 23-10-2009 18:34:01 11.1 C 8.46 g/m*3 11.1 C 0 km/h
2613 23-10-2009 18:46:02 10.8 C 8.4 g/m*3 10.8 C 0 km/h
2614 23-10-2009 18:58:02 10.6 C 8.39 g/m*3 10.6 C 0 km/h
2615 23-10-2009 19:10:01 10.5 C 8.44 g/m*3 10.5 C 0 km/h
2616 23-10-2009 19:22:01 10.6 C 8.59 g/m*3 10.6 C 0 km/h
2617 23-10-2009 19:34:01 10.6 C 8.59 g/m*3 10.6 C 0 km/h
2618 23-10-2009 19:46:02 10.6 C 8.59 g/m*3 10.6 C 0 km/h
2619 23-10-2009 19:58:02 10.5 C 8.53 g/m*3 10.5 C 0 km/h
2620 23-10-2009 20:10:01 10.5 C 8.53 g/m*3 10.5 C 0 km/h
2621 23-10-2009 20:22:01 10.4 C 8.48 g/m*3 10.4 C 0 km/h
2622 23-10-2009 20:34:02 10.4 C 8.48 g/m*3 10.4 C 0 km/h
2623 23-10-2009 20:46:01 10.3 C 8.43 g/m*3 10.3 C 0 km/h
2624 23-10-2009 20:58:01 10.3 C 8.43 g/m*3 10.3 C 0 km/h
2625 23-10-2009 21:10:02 10.3 C 8.43 g/m*3 10.3 C 0 km/h
Sensor: Nr:Datum:Temp:Abs-Feuchte:Windchill:Wind:
Aussen-T/F 2626 23-10-2009 21:22:18 10.4 C 8.48 g/m*3 10.4 C 0 km/h
2627 23-10-2009 21:34:02 10.4 C 8.38 g/m*3 10.4 C 0 km/h
2628 23-10-2009 21:46:01 10.4 C 8.38 g/m*3 10.4 C 0 km/h
2629 23-10-2009 21:58:01 10.3 C 8.33 g/m*3 10.3 C 0 km/h
2630 23-10-2009 22:10:01 10.3 C 8.33 g/m*3 10.3 C 0 km/h
2631 23-10-2009 22:22:01 10.3 C 8.33 g/m*3 10.3 C 0 km/h
2632 23-10-2009 22:34:01 10.3 C 8.33 g/m*3 10.3 C 0 km/h
2633 23-10-2009 22:46:02 10.4 C 8.38 g/m*3 10.4 C 0 km/h
2634 23-10-2009 22:58:02 10.5 C 8.34 g/m*3 10.5 C 0 km/h
2635 23-10-2009 23:10:01 10.5 C 8.34 g/m*3 10.5 C 0 km/h
2636 23-10-2009 23:22:01 10.2 C 8.09 g/m*3 10.2 C 0 km/h
2637 23-10-2009 23:34:02 10 C 7.99 g/m*3 10 C 0 km/h
2638 23-10-2009 23:46:01 9.7 C 8.02 g/m*3 9.7 C 0 km/h
2639 23-10-2009 23:58:01 9.4 C 7.87 g/m*3 9.4 C 0 km/h
2640 24-10-2009 00:10:01 9.2 C 7.86 g/m*3 9.2 C 0 km/h
2641 24-10-2009 00:22:01 8.7 C 7.7 g/m*3 8.7 C 0 km/h
2642 24-10-2009 00:34:01 8.5 C 7.6 g/m*3 8.5 C 0 km/h
2643 24-10-2009 00:46:01 8.8 C 7.92 g/m*3 8.8 C 0 km/h
2644 24-10-2009 00:58:01 9.4 C 8.23 g/m*3 9.4 C 0 km/h
2645 24-10-2009 01:10:01 9.7 C 8.48 g/m*3 9.7 C 0 km/h
2646 24-10-2009 01:22:02 10 C 8.46 g/m*3 10 C 0 km/h
2647 24-10-2009 01:34:01 10.2 C 8.56 g/m*3 10.2 C 0 km/h
2648 24-10-2009 01:46:02 10.2 C 8.47 g/m*3 10.2 C 0 km/h
2649 24-10-2009 01:58:02 10.2 C 8.28 g/m*3 10.2 C 0 km/h
2650 24-10-2009 02:10:01 9.7 C 8.02 g/m*3 9.7 C 0 km/h
Sensor: Nr:Datum:Temp:Abs-Feuchte:Windchill:Wind:
Aussen-T/F 2651 24-10-2009 02:22:02 9.2 C 7.77 g/m*3 9.2 C 0 km/h
2652 24-10-2009 02:34:01 8.7 C 7.61 g/m*3 8.7 C 0 km/h
2653 24-10-2009 02:47:05 8.5 C 7.6 g/m*3 8.5 C 0 km/h
2654 24-10-2009 02:59:05 8.1 C 7.41 g/m*3 8.1 C 0 km/h
2655 24-10-2009 03:11:04 7.9 C 7.39 g/m*3 7.9 C 0 km/h
2656 24-10-2009 03:23:04 7.7 C 7.38 g/m*3 7.7 C 0 km/h
2657 24-10-2009 03:35:01 7.6 C 7.33 g/m*3 7.6 C 0 km/h
2658 24-10-2009 03:47:01 7.4 C 7.24 g/m*3 7.4 C 0 km/h
2659 24-10-2009 03:59:01 7.3 C 7.27 g/m*3 7.3 C 0 km/h
2660 24-10-2009 04:11:02 7 C 7.13 g/m*3 7 C 0 km/h
2661 24-10-2009 04:23:01 7.2 C 7.22 g/m*3 7.2 C 0 km/h
2662 24-10-2009 04:35:02 7.4 C 7.4 g/m*3 7.4 C 0 km/h
2663 24-10-2009 04:47:01 7.1 C 7.25 g/m*3 7.1 C 0 km/h
2664 24-10-2009 04:59:01 6.9 C 7.16 g/m*3 6.9 C 0 km/h
2665 24-10-2009 05:11:02 6.5 C 6.97 g/m*3 6.5 C 0 km/h
2666 24-10-2009 05:23:02 6.5 C 6.97 g/m*3 6.5 C 0 km/h
2667 24-10-2009 05:35:02 6.3 C 6.88 g/m*3 6.3 C 0 km/h
2668 24-10-2009 05:47:01 6.2 C 6.84 g/m*3 6.2 C 0 km/h
2669 24-10-2009 05:59:01 6.2 C 6.91 g/m*3 6.2 C 0 km/h
2670 24-10-2009 06:11:02 6.1 C 6.87 g/m*3 6.1 C 0 km/h
2671 24-10-2009 06:23:02 6.4 C 7 g/m*3 6.4 C 0 km/h
2672 24-10-2009 06:35:01 6.3 C 6.96 g/m*3 6.3 C 0 km/h
2673 24-10-2009 06:47:02 6.1 C 6.87 g/m*3 6.1 C 0 km/h
2674 24-10-2009 06:59:02 5.9 C 6.85 g/m*3 5.9 C 0 km/h
2675 24-10-2009 07:11:01 5.8 C 6.81 g/m*3 5.8 C 0 km/h
Sensor: Nr:Datum:Temp:Abs-Feuchte:Windchill:Wind:
Aussen-T/F 2676 24-10-2009 07:23:02 5.8 C 6.81 g/m*3 5.8 C 0 km/h
2677 24-10-2009 07:35:01 5.9 C 6.85 g/m*3 5.9 C 0 km/h
2678 24-10-2009 07:47:02 5.8 C 6.81 g/m*3 5.8 C 0 km/h
2679 24-10-2009 07:59:02 5.7 C 6.76 g/m*3 5.7 C 0 km/h
2680 24-10-2009 08:11:02 6.4 C 7.08 g/m*3 6.4 C 0 km/h
2681 24-10-2009 08:23:02 6.6 C 7.17 g/m*3 6.6 C 0 km/h
2682 24-10-2009 08:35:02 6.5 C 7.12 g/m*3 6.5 C 0 km/h
2683 24-10-2009 08:47:02 6.9 C 7.31 g/m*3 6.9 C 0 km/h
2684 24-10-2009 08:59:02 6.8 C 7.27 g/m*3 6.8 C 0 km/h
2685 24-10-2009 09:11:01 6.6 C 7.17 g/m*3 6.6 C 0 km/h
2686 24-10-2009 09:23:02 6.9 C 7.31 g/m*3 6.9 C 0 km/h
2687 24-10-2009 09:35:02 7 C 7.36 g/m*3 7 C 0 km/h
2688 24-10-2009 09:47:07 7.5 C 7.6 g/m*3 7.5 C 0 km/h
2689 24-10-2009 09:59:02 8.1 C 7.9 g/m*3 8.1 C 0 km/h
2690 24-10-2009 10:11:02 8.4 C 8.06 g/m*3 8.4 C 0 km/h
2691 24-10-2009 10:23:02 8.6 C 8.16 g/m*3 8.6 C 0 km/h
2692 24-10-2009 10:35:03 8.7 C 8.22 g/m*3 8.7 C 0 km/h
2693 24-10-2009 10:47:02 9.5 C 8.65 g/m*3 9.5 C 0 km/h
2694 24-10-2009 10:59:02 10.3 C 9.1 g/m*3 10.3 C 0 km/h
2695 24-10-2009 11:11:02 10.7 C 9.33 g/m*3 10.7 C 0 km/h
2696 24-10-2009 11:23:01 10.8 C 9.39 g/m*3 10.8 C 0 km/h
2697 24-10-2009 11:35:02 11.7 C 9.83 g/m*3 11.7 C 0 km/h
2698 24-10-2009 11:47:02 11.6 C 9.35 g/m*3 11.6 C 0 km/h
2699 24-10-2009 11:59:02 11.6 C 8.94 g/m*3 11.6 C 0 km/h
2700 24-10-2009 12:11:02 12.5 C 8.47 g/m*3 12.5 C 0 km/h
Sensor: Nr:Datum:Temp:Abs-Feuchte:Windchill:Wind:
Aussen-T/F 2701 24-10-2009 12:23:02 13.4 C 8.37 g/m*3 13.4 C 0 km/h
2702 24-10-2009 12:35:02 13.7 C 7.82 g/m*3 13.7 C 0 km/h
2703 24-10-2009 12:47:02 14.1 C 7.77 g/m*3 14.1 C 0 km/h
2704 24-10-2009 12:59:02 14.2 C 7.45 g/m*3 14.2 C 0 km/h
2705 24-10-2009 13:11:02 14.2 C 7.33 g/m*3 14.2 C 0 km/h
2706 24-10-2009 13:23:02 14.4 C 7.29 g/m*3 14.4 C 0 km/h
2707 24-10-2009 13:35:02 14.8 C 7.09 g/m*3 14.8 C 0 km/h
2708 24-10-2009 13:47:02 14.9 C 7.01 g/m*3 14.9 C 0 km/h
2709 24-10-2009 13:59:02 14.8 C 7.09 g/m*3 14.8 C 0 km/h
2710 24-10-2009 14:11:02 14.7 C 7.05 g/m*3 14.7 C 0 km/h
2711 24-10-2009 14:23:02 14.7 C 7.18 g/m*3 14.7 C 0 km/h
2712 24-10-2009 14:35:02 14.7 C 7.18 g/m*3 14.7 C 0 km/h
2713 24-10-2009 14:47:02 14.4 C 7.29 g/m*3 14.4 C 0 km/h
2714 24-10-2009 14:59:02 13.6 C 7.41 g/m*3 13.6 C 0 km/h
2715 24-10-2009 15:11:02 13.7 C 7.46 g/m*3 13.7 C 0 km/h
2716 24-10-2009 15:23:02 14 C 7.84 g/m*3 14 C 0 km/h
2717 24-10-2009 15:35:02 14.4 C 7.42 g/m*3 14.4 C 0 km/h
2718 24-10-2009 15:47:02 14.4 C 7.42 g/m*3 14.4 C 0 km/h
2719 24-10-2009 15:59:02 14.3 C 7.37 g/m*3 14.3 C 0 km/h
2720 24-10-2009 16:11:02 14.3 C 7.37 g/m*3 14.3 C 0 km/h
2721 24-10-2009 16:23:03 14.3 C 7.37 g/m*3 14.3 C 0 km/h
2722 24-10-2009 16:35:02 14.3 C 7.49 g/m*3 14.3 C 0 km/h
2723 24-10-2009 16:47:02 14.4 C 7.66 g/m*3 14.4 C 0 km/h
2724 24-10-2009 16:59:02 14 C 7.48 g/m*3 14 C 0 km/h
2725 24-10-2009 17:11:02 13.6 C 7.53 g/m*3 13.6 C 0 km/h
Sensor: Nr:Datum:Temp:Abs-Feuchte:Windchill:Wind:
Aussen-T/F 2726 24-10-2009 17:23:03 13.5 C 7.6 g/m*3 13.5 C 0 km/h
2727 24-10-2009 17:35:02 13.3 C 7.63 g/m*3 13.3 C 0 km/h
2728 24-10-2009 17:47:01 13.2 C 7.58 g/m*3 13.2 C 0 km/h
2729 24-10-2009 17:59:01 13.1 C 7.53 g/m*3 13.1 C 0 km/h
2730 24-10-2009 18:11:01 12.9 C 7.55 g/m*3 12.9 C 0 km/h
2731 24-10-2009 18:23:02 12.8 C 7.62 g/m*3 12.8 C 0 km/h
2732 24-10-2009 18:35:01 12.7 C 7.57 g/m*3 12.7 C 0 km/h
2733 24-10-2009 18:47:01 12.7 C 7.68 g/m*3 12.7 C 0 km/h
2734 24-10-2009 18:59:01 12.6 C 7.74 g/m*3 12.6 C 0 km/h
2735 24-10-2009 19:11:01 12.5 C 7.7 g/m*3 12.5 C 0 km/h
2736 24-10-2009 19:23:02 12.5 C 7.7 g/m*3 12.5 C 0 km/h
2737 24-10-2009 19:35:01 12.5 C 7.7 g/m*3 12.5 C 0 km/h
2738 24-10-2009 19:47:02 12.4 C 7.87 g/m*3 12.4 C 0 km/h
2739 24-10-2009 19:59:02 12.4 C 7.87 g/m*3 12.4 C 0 km/h
2740 24-10-2009 20:11:01 12.4 C 7.87 g/m*3 12.4 C 0 km/h
2741 24-10-2009 20:23:02 12.3 C 7.82 g/m*3 12.3 C 0 km/h
2742 24-10-2009 20:35:01 12.4 C 7.76 g/m*3 12.4 C 0 km/h
2743 24-10-2009 20:47:02 12.4 C 7.76 g/m*3 12.4 C 0 km/h
2744 24-10-2009 20:59:02 12.4 C 7.76 g/m*3 12.4 C 0 km/h
2745 24-10-2009 21:11:03 12.3 C 7.71 g/m*3 12.3 C 0 km/h
2746 24-10-2009 21:23:02 12.1 C 7.83 g/m*3 12.1 C 0 km/h
2747 24-10-2009 21:35:02 12.1 C 7.94 g/m*3 12.1 C 0 km/h
2748 24-10-2009 21:47:01 12.2 C 7.99 g/m*3 12.2 C 0 km/h
2749 24-10-2009 21:59:01 12.1 C 7.94 g/m*3 12.1 C 0 km/h
2750 24-10-2009 22:11:02 11.9 C 8.26 g/m*3 11.9 C 0 km/h
Sensor: Nr:Datum:Temp:Abs-Feuchte:Windchill:Wind:
Aussen-T/F 2751 24-10-2009 22:23:02 11.6 C 8.21 g/m*3 11.6 C 0 km/h
2752 24-10-2009 22:35:01 11.7 C 8.58 g/m*3 11.7 C 0 km/h
2753 24-10-2009 22:47:02 11.4 C 8.52 g/m*3 11.4 C 0 km/h
2754 24-10-2009 22:59:02 11.4 C 8.62 g/m*3 11.4 C 0 km/h
2755 24-10-2009 23:12:02 11.5 C 8.78 g/m*3 11.5 C 0 km/h
2756 24-10-2009 23:24:02 11.5 C 8.88 g/m*3 11.5 C 0 km/h
2757 24-10-2009 23:36:02 11.8 C 9.16 g/m*3 11.8 C 0 km/h
2758 24-10-2009 23:48:02 11.8 C 9.16 g/m*3 11.8 C 0 km/h
2759 25-10-2009 00:00:02 11.7 C 9.1 g/m*3 11.7 C 0 km/h
2760 25-10-2009 00:12:02 11.8 C 9.16 g/m*3 11.8 C 0 km/h
2761 25-10-2009 00:24:02 11.8 C 9.16 g/m*3 11.8 C 0 km/h
2762 25-10-2009 00:36:02 11.8 C 9.16 g/m*3 11.8 C 0 km/h
2763 25-10-2009 00:48:02 11.9 C 9.21 g/m*3 11.9 C 0 km/h
2764 25-10-2009 01:00:02 11.9 C 9.21 g/m*3 11.9 C 0 km/h
2765 25-10-2009 01:12:02 12 C 9.27 g/m*3 12 C 0 km/h
2766 25-10-2009 01:24:02 12 C 9.17 g/m*3 12 C 0 km/h
2767 25-10-2009 01:36:02 12.1 C 9.33 g/m*3 12.1 C 0 km/h
2768 25-10-2009 01:48:02 12 C 9.17 g/m*3 12 C 0 km/h
2769 25-10-2009 02:00:02 11.9 C 9.32 g/m*3 11.9 C 0 km/h
2770 25-10-2009 02:12:02 11.8 C 9.37 g/m*3 11.8 C 0 km/h
2771 25-10-2009 02:24:02 11.7 C 9.31 g/m*3 11.7 C 0 km/h
2772 25-10-2009 02:36:02 11.7 C 9.31 g/m*3 11.7 C 0 km/h
2773 25-10-2009 02:48:02 11.8 C 9.47 g/m*3 11.8 C 0 km/h
2774 25-10-2009 03:00:03 11.8 C 9.47 g/m*3 11.8 C 0 km/h
2775 25-10-2009 03:12:03 11.8 C 9.47 g/m*3 11.8 C 0 km/h
Sensor: Nr:Datum:Temp:Abs-Feuchte:Windchill:Wind:
Aussen-T/F 2776 25-10-2009 03:24:03 11.8 C 9.47 g/m*3 11.8 C 0 km/h
2777 25-10-2009 03:36:03 11.8 C 9.58 g/m*3 11.8 C 0 km/h
2778 25-10-2009 03:48:03 11.8 C 9.58 g/m*3 11.8 C 0 km/h
2779 25-10-2009 04:00:03 11.7 C 9.73 g/m*3 11.7 C 0 km/h
2780 25-10-2009 04:00:03 11.8 C 9.58 g/m*3 11.8 C 0 km/h
2781 25-10-2009 04:12:03 11.7 C 9.52 g/m*3 11.7 C 0 km/h
2782 25-10-2009 04:12:03 11.7 C 9.73 g/m*3 11.7 C 0 km/h
2783 25-10-2009 04:24:03 11.7 C 9.73 g/m*3 11.7 C 0 km/h
2784 25-10-2009 04:24:03 11.9 C 9.85 g/m*3 11.9 C 0 km/h
2785 25-10-2009 04:36:03 11.7 C 9.73 g/m*3 11.7 C 0 km/h
2786 25-10-2009 04:36:03 12.1 C 9.97 g/m*3 12.1 C 0 km/h
2787 25-10-2009 04:48:03 12.4 C 10.16 g/m*3 12.4 C 0 km/h
2788 25-10-2009 04:48:03 11.7 C 9.73 g/m*3 11.7 C 0 km/h
2789 25-10-2009 05:00:03 12.5 C 10.33 g/m*3 12.5 C 0 km/h
2790 25-10-2009 05:12:03 12.6 C 10.4 g/m*3 12.6 C 0 km/h
2791 25-10-2009 05:24:03 12.7 C 10.46 g/m*3 12.7 C 0 km/h
2792 25-10-2009 05:36:03 12.7 C 10.46 g/m*3 12.7 C 0 km/h
2793 25-10-2009 05:48:04 12.6 C 10.4 g/m*3 12.6 C 0 km/h
2794 25-10-2009 06:00:04 12.5 C 10.22 g/m*3 12.5 C 0 km/h
2795 25-10-2009 06:12:04 12.3 C 10.1 g/m*3 12.3 C 0 km/h
2796 25-10-2009 06:24:04 12.3 C 10.1 g/m*3 12.3 C 0 km/h
2797 25-10-2009 06:36:04 12.4 C 10.16 g/m*3 12.4 C 0 km/h
2798 25-10-2009 06:48:04 12.2 C 10.04 g/m*3 12.2 C 0 km/h
2799 25-10-2009 07:00:04 11.9 C 9.85 g/m*3 11.9 C 0 km/h
2800 25-10-2009 07:12:04 11.8 C 9.79 g/m*3 11.8 C 0 km/h
Sensor: Nr:Datum:Temp:Abs-Feuchte:Windchill:Wind:
Aussen-T/F 2801 25-10-2009 07:24:04 11.5 C 9.5 g/m*3 11.5 C 0 km/h
2802 25-10-2009 07:36:04 11.2 C 9.22 g/m*3 11.2 C 0 km/h
2803 25-10-2009 07:48:04 11 C 9.11 g/m*3 11 C 0 km/h
2804 25-10-2009 08:00:04 10.8 C 8.99 g/m*3 10.8 C 0 km/h
2805 25-10-2009 08:12:02 10.7 C 8.94 g/m*3 10.7 C 0 km/h
2806 25-10-2009 08:24:01 10.5 C 8.83 g/m*3 10.5 C 0 km/h
2807 25-10-2009 08:36:01 10.5 C 8.83 g/m*3 10.5 C 0 km/h
2808 25-10-2009 08:48:01 10.6 C 8.88 g/m*3 10.6 C 0 km/h
2809 25-10-2009 09:00:01 10.7 C 8.84 g/m*3 10.7 C 0 km/h
2810 25-10-2009 09:12:02 10.9 C 8.85 g/m*3 10.9 C 0 km/h
2811 25-10-2009 09:24:01 11 C 8.81 g/m*3 11 C 0 km/h
2812 25-10-2009 09:36:02 11.3 C 8.77 g/m*3 11.3 C 0 km/h
2813 25-10-2009 09:48:01 11.7 C 8.58 g/m*3 11.7 C 0 km/h
2814 25-10-2009 10:00:01 12.1 C 8.26 g/m*3 12.1 C 0 km/h
2815 25-10-2009 10:12:02 12.5 C 8.25 g/m*3 12.5 C 0 km/h
2816 25-10-2009 10:24:01 12.7 C 8.35 g/m*3 12.7 C 0 km/h
2817 25-10-2009 10:36:02 12.9 C 8.45 g/m*3 12.9 C 0 km/h
2818 25-10-2009 10:48:02 13.1 C 8.22 g/m*3 13.1 C 0 km/h
2819 25-10-2009 11:00:02 13.3 C 8.2 g/m*3 13.3 C 0 km/h
2820 25-10-2009 11:12:02 13.5 C 8.07 g/m*3 13.5 C 0 km/h
2821 25-10-2009 11:24:01 13.8 C 7.86 g/m*3 13.8 C 0 km/h
2822 25-10-2009 11:36:02 14.2 C 7.69 g/m*3 14.2 C 0 km/h
2823 25-10-2009 11:48:02 14.8 C 7.85 g/m*3 14.8 C 0 km/h
2824 25-10-2009 12:00:02 15.2 C 7.79 g/m*3 15.2 C 0 km/h
2825 25-10-2009 12:12:02 15.8 C 7.54 g/m*3 15.8 C 0 km/h
Sensor: Nr:Datum:Temp:Abs-Feuchte:Windchill:Wind:
Aussen-T/F 2826 25-10-2009 12:24:02 15.7 C 7.49 g/m*3 15.7 C 0 km/h
2827 25-10-2009 12:36:02 15.7 C 7.09 g/m*3 15.7 C 0 km/h
2828 25-10-2009 12:48:02 15.6 C 7.05 g/m*3 15.6 C 0 km/h
2829 25-10-2009 13:00:02 16.2 C 6.9 g/m*3 16.2 C 0 km/h
2830 25-10-2009 13:12:02 16.3 C 6.8 g/m*3 16.3 C 0 km/h
2831 25-10-2009 13:24:01 16.1 C 6.72 g/m*3 16.1 C 0 km/h
2832 25-10-2009 13:36:02 16.2 C 6.9 g/m*3 16.2 C 0 km/h
2833 25-10-2009 13:48:02 16.4 C 6.56 g/m*3 16.4 C 0 km/h
2834 25-10-2009 14:00:02 16.5 C 6.6 g/m*3 16.5 C 0 km/h
2835 25-10-2009 14:12:02 17.3 C 6.63 g/m*3 17.3 C 0 km/h
2836 25-10-2009 14:24:02 17.3 C 6.48 g/m*3 17.3 C 0 km/h
2837 25-10-2009 14:36:02 17.4 C 6.67 g/m*3 17.4 C 0 km/h
2838 25-10-2009 14:48:02 17.7 C 6.64 g/m*3 17.7 C 0 km/h
2839 25-10-2009 15:00:02 17.6 C 6.45 g/m*3 17.6 C 0 km/h
2840 25-10-2009 15:12:02 17.8 C 6.68 g/m*3 17.8 C 0 km/h
2841 25-10-2009 15:24:02 17.9 C 6.57 g/m*3 17.9 C 0 km/h
2842 25-10-2009 15:36:02 17.1 C 6.26 g/m*3 17.1 C 0 km/h
2843 25-10-2009 15:48:02 16.2 C 6.62 g/m*3 16.2 C 0 km/h
2844 25-10-2009 16:00:02 16 C 6.68 g/m*3 16 C 0 km/h
2845 25-10-2009 16:12:01 16.5 C 6.74 g/m*3 16.5 C 0 km/h
2846 25-10-2009 16:24:02 15.8 C 6.6 g/m*3 15.8 C 0 km/h
2847 25-10-2009 16:36:01 15.2 C 6.75 g/m*3 15.2 C 0 km/h
2848 25-10-2009 16:48:02 14.9 C 6.88 g/m*3 14.9 C 0 km/h
2849 25-10-2009 17:00:02 14.5 C 6.96 g/m*3 14.5 C 0 km/h
2850 25-10-2009 17:12:01 14.1 C 7.04 g/m*3 14.1 C 0 km/h
Sensor: Nr:Datum:Temp:Abs-Feuchte:Windchill:Wind:
Aussen-T/F 2851 25-10-2009 17:24:02 13.7 C 7.1 g/m*3 13.7 C 0 km/h
2852 25-10-2009 17:36:01 13.4 C 7.21 g/m*3 13.4 C 0 km/h
2853 25-10-2009 17:48:02 13.4 C 7.21 g/m*3 13.4 C 0 km/h
2854 25-10-2009 18:00:02 13.2 C 7.23 g/m*3 13.2 C 0 km/h
2855 25-10-2009 18:12:02 12.8 C 7.28 g/m*3 12.8 C 0 km/h
2856 25-10-2009 18:24:02 12.7 C 7.24 g/m*3 12.7 C 0 km/h
2857 25-10-2009 18:36:01 12.4 C 7.21 g/m*3 12.4 C 0 km/h
2858 25-10-2009 18:48:02 12.1 C 7.29 g/m*3 12.1 C 0 km/h
2859 25-10-2009 19:00:02 11.9 C 7.41 g/m*3 11.9 C 0 km/h
2860 25-10-2009 19:12:01 11.7 C 7.32 g/m*3 11.7 C 0 km/h
2861 25-10-2009 19:24:02 11.5 C 7.33 g/m*3 11.5 C 0 km/h
2862 25-10-2009 19:36:02 11.3 C 7.34 g/m*3 11.3 C 0 km/h
2863 25-10-2009 19:48:02 11.1 C 7.35 g/m*3 11.1 C 0 km/h
2864 25-10-2009 20:00:03 10.9 C 7.36 g/m*3 10.9 C 0 km/h
2865 25-10-2009 20:12:02 10.8 C 7.41 g/m*3 10.8 C 0 km/h
2866 25-10-2009 20:24:02 10.7 C 7.37 g/m*3 10.7 C 0 km/h
2867 25-10-2009 20:36:02 10.6 C 7.42 g/m*3 10.6 C 0 km/h
2868 25-10-2009 20:48:02 10.4 C 7.32 g/m*3 10.4 C 0 km/h
2869 25-10-2009 21:00:02 10.3 C 7.37 g/m*3 10.3 C 0 km/h
2870 25-10-2009 21:12:02 10.1 C 7.38 g/m*3 10.1 C 0 km/h
2871 25-10-2009 21:24:01 10 C 7.33 g/m*3 10 C 0 km/h
2872 25-10-2009 21:36:02 9.7 C 7.38 g/m*3 9.7 C 0 km/h
2873 25-10-2009 21:48:02 9.6 C 7.42 g/m*3 9.6 C 0 km/h
2874 25-10-2009 22:00:02 9.2 C 7.23 g/m*3 9.2 C 0 km/h
2875 25-10-2009 22:12:02 9.1 C 7.28 g/m*3 9.1 C 0 km/h
Sensor: Nr:Datum:Temp:Abs-Feuchte:Windchill:Wind:
Aussen-T/F 2876 25-10-2009 22:24:02 9.1 C 7.28 g/m*3 9.1 C 0 km/h
2877 25-10-2009 22:37:02 9.1 C 7.36 g/m*3 9.1 C 0 km/h
2878 25-10-2009 22:49:02 9.1 C 7.45 g/m*3 9.1 C 0 km/h
2879 25-10-2009 23:01:02 9.4 C 7.6 g/m*3 9.4 C 0 km/h
2880 25-10-2009 23:13:03 9.6 C 7.6 g/m*3 9.6 C 0 km/h
2881 25-10-2009 23:25:03 9.7 C 7.65 g/m*3 9.7 C 0 km/h
2882 25-10-2009 23:37:03 9.8 C 7.61 g/m*3 9.8 C 0 km/h
2883 25-10-2009 23:49:03 9.7 C 7.65 g/m*3 9.7 C 0 km/h
2884 26-10-2009 00:01:03 9.8 C 7.79 g/m*3 9.8 C 0 km/h
2885 26-10-2009 00:13:03 9.8 C 7.79 g/m*3 9.8 C 0 km/h
2886 26-10-2009 00:25:03 9.8 C 7.79 g/m*3 9.8 C 0 km/h
2887 26-10-2009 00:37:03 9.7 C 7.74 g/m*3 9.7 C 0 km/h
2888 26-10-2009 00:49:03 9.5 C 7.65 g/m*3 9.5 C 0 km/h
2889 26-10-2009 01:01:03 9.4 C 7.69 g/m*3 9.4 C 0 km/h
2890 26-10-2009 01:13:03 9.3 C 7.64 g/m*3 9.3 C 0 km/h
2891 26-10-2009 01:25:03 9.3 C 7.73 g/m*3 9.3 C 0 km/h
2892 26-10-2009 01:37:03 9.4 C 7.78 g/m*3 9.4 C 0 km/h
2893 26-10-2009 01:49:03 9.4 C 7.69 g/m*3 9.4 C 0 km/h
2894 26-10-2009 02:01:03 9.3 C 7.64 g/m*3 9.3 C 0 km/h
2895 26-10-2009 02:13:03 9.3 C 7.64 g/m*3 9.3 C 0 km/h
2896 26-10-2009 02:25:03 9.3 C 7.64 g/m*3 9.3 C 0 km/h
2897 26-10-2009 02:37:03 9.3 C 7.73 g/m*3 9.3 C 0 km/h
2898 26-10-2009 02:49:03 9.3 C 7.73 g/m*3 9.3 C 0 km/h
2899 26-10-2009 03:01:04 9.6 C 7.88 g/m*3 9.6 C 0 km/h
2900 26-10-2009 03:13:04 10.1 C 7.75 g/m*3 10.1 C 0 km/h
Sensor: Nr:Datum:Temp:Abs-Feuchte:Windchill:Wind:
Aussen-T/F 2901 26-10-2009 03:25:04 10.2 C 7.61 g/m*3 10.2 C 0 km/h
2902 26-10-2009 03:37:04 10.1 C 7.56 g/m*3 10.1 C 0 km/h
2903 26-10-2009 03:49:04 10.1 C 7.56 g/m*3 10.1 C 0 km/h
2904 26-10-2009 04:01:04 10 C 7.52 g/m*3 10 C 0 km/h
2905 26-10-2009 04:13:04 10.1 C 7.66 g/m*3 10.1 C 0 km/h
2906 26-10-2009 04:25:04 10.4 C 7.71 g/m*3 10.4 C 0 km/h
2907 26-10-2009 04:37:04 10.4 C 7.52 g/m*3 10.4 C 0 km/h
2908 26-10-2009 04:49:04 10.6 C 7.52 g/m*3 10.6 C 0 km/h
2909 26-10-2009 05:01:04 10.7 C 7.46 g/m*3 10.7 C 0 km/h
2910 26-10-2009 05:13:04 10.8 C 7.41 g/m*3 10.8 C 0 km/h
2911 26-10-2009 05:25:04 10.7 C 7.37 g/m*3 10.7 C 0 km/h
2912 26-10-2009 05:37:04 10.6 C 7.32 g/m*3 10.6 C 0 km/h
2913 26-10-2009 05:49:04 10.6 C 7.42 g/m*3 10.6 C 0 km/h
2914 26-10-2009 06:01:04 10.5 C 7.47 g/m*3 10.5 C 0 km/h
2915 26-10-2009 06:13:04 10.4 C 7.42 g/m*3 10.4 C 0 km/h
2916 26-10-2009 06:25:04 10.3 C 7.37 g/m*3 10.3 C 0 km/h
2917 26-10-2009 06:37:04 9.9 C 7.47 g/m*3 9.9 C 0 km/h
2918 26-10-2009 06:49:05 9.9 C 7.56 g/m*3 9.9 C 0 km/h
2919 26-10-2009 07:01:02 10 C 7.42 g/m*3 10 C 0 km/h
2920 26-10-2009 07:13:02 10.2 C 7.42 g/m*3 10.2 C 0 km/h
2921 26-10-2009 07:25:02 10.4 C 7.42 g/m*3 10.4 C 0 km/h
2922 26-10-2009 07:37:02 10.5 C 7.37 g/m*3 10.5 C 0 km/h
2923 26-10-2009 07:49:02 10.6 C 7.42 g/m*3 10.6 C 0 km/h
2924 26-10-2009 08:01:02 10.7 C 7.37 g/m*3 10.7 C 0 km/h
2925 26-10-2009 08:13:02 10.8 C 7.41 g/m*3 10.8 C 0 km/h
Sensor: Nr:Datum:Temp:Abs-Feuchte:Windchill:Wind:
Aussen-T/F 2926 26-10-2009 08:25:02 10.8 C 7.41 g/m*3 10.8 C 0 km/h
2927 26-10-2009 08:37:02 10.9 C 7.46 g/m*3 10.9 C 0 km/h
2928 26-10-2009 08:49:01 11 C 7.41 g/m*3 11 C 0 km/h
2929 26-10-2009 09:01:02 11 C 7.41 g/m*3 11 C 0 km/h
2930 26-10-2009 09:13:02 11.1 C 7.45 g/m*3 11.1 C 0 km/h
2931 26-10-2009 09:25:01 11.3 C 7.55 g/m*3 11.3 C 0 km/h
2932 26-10-2009 09:37:02 11.5 C 7.44 g/m*3 11.5 C 0 km/h
2933 26-10-2009 09:49:02 11.3 C 7.45 g/m*3 11.3 C 0 km/h
2934 26-10-2009 10:01:02 11.4 C 7.49 g/m*3 11.4 C 0 km/h
2935 26-10-2009 10:13:02 11.6 C 7.59 g/m*3 11.6 C 0 km/h
2936 26-10-2009 10:25:01 11.8 C 7.47 g/m*3 11.8 C 0 km/h
2937 26-10-2009 10:37:02 11.9 C 7.52 g/m*3 11.9 C 0 km/h
2938 26-10-2009 10:49:02 12.3 C 7.38 g/m*3 12.3 C 0 km/h
2939 26-10-2009 11:01:02 13.1 C 7.19 g/m*3 13.1 C 0 km/h
2940 26-10-2009 11:13:03 13.2 C 7.23 g/m*3 13.2 C 0 km/h
2941 26-10-2009 11:25:02 13.3 C 7.16 g/m*3 13.3 C 0 km/h
2942 26-10-2009 11:37:02 13.7 C 7.22 g/m*3 13.7 C 0 km/h
2943 26-10-2009 11:49:02 14 C 7.24 g/m*3 14 C 0 km/h
2944 26-10-2009 12:01:02 13.9 C 7.07 g/m*3 13.9 C 0 km/h
2945 26-10-2009 12:13:02 14.1 C 7.04 g/m*3 14.1 C 0 km/h
2946 26-10-2009 12:25:02 14.7 C 7.05 g/m*3 14.7 C 0 km/h
2947 26-10-2009 12:37:02 14.4 C 6.92 g/m*3 14.4 C 0 km/h
2948 26-10-2009 12:49:02 14.6 C 6.88 g/m*3 14.6 C 0 km/h
2949 26-10-2009 13:01:02 14.5 C 6.96 g/m*3 14.5 C 0 km/h
2950 26-10-2009 13:13:02 14.2 C 6.96 g/m*3 14.2 C 0 km/h
Sensor: Nr:Datum:Temp:Abs-Feuchte:Windchill:Wind:
Aussen-T/F 2951 26-10-2009 13:25:02 13.8 C 7.03 g/m*3 13.8 C 0 km/h
2952 26-10-2009 13:37:02 13.9 C 7.07 g/m*3 13.9 C 0 km/h
2953 26-10-2009 13:49:01 14 C 7 g/m*3 14 C 0 km/h
2954 26-10-2009 14:01:01 14.1 C 6.92 g/m*3 14.1 C 0 km/h
2955 26-10-2009 14:13:01 14 C 6.88 g/m*3 14 C 0 km/h
2956 26-10-2009 14:25:02 14 C 6.88 g/m*3 14 C 0 km/h
2957 26-10-2009 14:37:01 14 C 7 g/m*3 14 C 0 km/h
2958 26-10-2009 14:49:01 14 C 7 g/m*3 14 C 0 km/h
2959 26-10-2009 15:01:01 14 C 7 g/m*3 14 C 0 km/h
2960 26-10-2009 15:13:01 14 C 7 g/m*3 14 C 0 km/h
2961 26-10-2009 15:25:02 13.7 C 7.22 g/m*3 13.7 C 0 km/h
2962 26-10-2009 15:37:01 13.5 C 7.13 g/m*3 13.5 C 0 km/h
2963 26-10-2009 15:49:03 13.5 C 7.13 g/m*3 13.5 C 0 km/h
2964 26-10-2009 16:01:02 13.6 C 7.18 g/m*3 13.6 C 0 km/h
2965 26-10-2009 16:13:02 13.5 C 7.13 g/m*3 13.5 C 0 km/h
2966 26-10-2009 16:25:03 13.5 C 7.13 g/m*3 13.5 C 0 km/h
2967 26-10-2009 16:37:02 13.5 C 7.13 g/m*3 13.5 C 0 km/h
2968 26-10-2009 16:49:03 13.4 C 7.21 g/m*3 13.4 C 0 km/h
2969 26-10-2009 17:01:02 13.3 C 7.16 g/m*3 13.3 C 0 km/h
2970 26-10-2009 17:13:02 13.2 C 7.23 g/m*3 13.2 C 0 km/h
2971 26-10-2009 17:25:02 13.2 C 7.23 g/m*3 13.2 C 0 km/h
2972 26-10-2009 17:37:02 13.1 C 7.3 g/m*3 13.1 C 0 km/h
2973 26-10-2009 17:49:02 13.1 C 7.3 g/m*3 13.1 C 0 km/h
2974 26-10-2009 18:01:02 13.1 C 7.42 g/m*3 13.1 C 0 km/h
2975 26-10-2009 18:13:02 13.1 C 7.42 g/m*3 13.1 C 0 km/h
Sensor: Nr:Datum:Temp:Abs-Feuchte:Windchill:Wind:
Aussen-T/F 2976 26-10-2009 18:25:02 13 C 7.48 g/m*3 13 C 0 km/h
2977 26-10-2009 18:37:01 13 C 7.6 g/m*3 13 C 0 km/h
2978 26-10-2009 18:49:02 12.9 C 7.66 g/m*3 12.9 C 0 km/h
2979 26-10-2009 19:01:01 12.8 C 7.73 g/m*3 12.8 C 0 km/h
2980 26-10-2009 19:13:01 12.8 C 7.73 g/m*3 12.8 C 0 km/h
2981 26-10-2009 19:25:02 12.7 C 7.68 g/m*3 12.7 C 0 km/h
2982 26-10-2009 19:37:02 12.7 C 7.79 g/m*3 12.7 C 0 km/h
2983 26-10-2009 19:49:02 12.7 C 7.9 g/m*3 12.7 C 0 km/h
2984 26-10-2009 20:01:02 12.6 C 7.85 g/m*3 12.6 C 0 km/h
2985 26-10-2009 20:13:02 12.6 C 7.97 g/m*3 12.6 C 0 km/h
2986 26-10-2009 20:25:02 12.5 C 8.03 g/m*3 12.5 C 0 km/h
2987 26-10-2009 20:37:02 12.4 C 7.98 g/m*3 12.4 C 0 km/h
2988 26-10-2009 20:49:02 12.4 C 7.98 g/m*3 12.4 C 0 km/h
2989 26-10-2009 21:01:02 12.4 C 7.98 g/m*3 12.4 C 0 km/h
2990 26-10-2009 21:13:02 12.4 C 7.98 g/m*3 12.4 C 0 km/h
2991 26-10-2009 21:25:02 12.5 C 8.03 g/m*3 12.5 C 0 km/h
2992 26-10-2009 21:37:01 12.4 C 7.98 g/m*3 12.4 C 0 km/h
2993 26-10-2009 21:49:01 12.3 C 8.04 g/m*3 12.3 C 0 km/h
2994 26-10-2009 22:02:04 12.3 C 8.04 g/m*3 12.3 C 0 km/h
2995 26-10-2009 22:14:04 12.4 C 8.09 g/m*3 12.4 C 0 km/h
2996 26-10-2009 22:26:04 12.2 C 7.99 g/m*3 12.2 C 0 km/h
2997 26-10-2009 22:38:04 12.3 C 8.04 g/m*3 12.3 C 0 km/h
2998 26-10-2009 22:50:04 12.3 C 8.04 g/m*3 12.3 C 0 km/h
2999 26-10-2009 23:02:04 12.3 C 8.04 g/m*3 12.3 C 0 km/h
3000 26-10-2009 23:14:04 12.2 C 7.99 g/m*3 12.2 C 0 km/h
Sensor: Nr:Datum:Temp:Abs-Feuchte:Windchill:Wind:
Aussen-T/F 3001 26-10-2009 23:26:04 12.2 C 8.09 g/m*3 12.2 C 0 km/h
3002 26-10-2009 23:38:04 12.2 C 7.99 g/m*3 12.2 C 0 km/h
3003 26-10-2009 23:50:04 12.2 C 7.99 g/m*3 12.2 C 0 km/h
3004 27-10-2009 00:02:04 12.2 C 7.99 g/m*3 12.2 C 0 km/h
3005 27-10-2009 00:14:04 12.2 C 7.99 g/m*3 12.2 C 0 km/h
3006 27-10-2009 00:26:04 12.2 C 7.99 g/m*3 12.2 C 0 km/h
3007 27-10-2009 00:38:05 12.2 C 7.99 g/m*3 12.2 C 0 km/h
3008 27-10-2009 00:50:05 12.2 C 7.99 g/m*3 12.2 C 0 km/h
3009 27-10-2009 01:02:05 12 C 8.1 g/m*3 12 C 0 km/h
3010 27-10-2009 01:14:05 11.7 C 8.37 g/m*3 11.7 C 0 km/h
3011 27-10-2009 01:26:05 11.6 C 8.42 g/m*3 11.6 C 0 km/h
3012 27-10-2009 01:38:05 11.6 C 8.42 g/m*3 11.6 C 0 km/h
3013 27-10-2009 01:50:05 11.7 C 8.47 g/m*3 11.7 C 0 km/h
3014 27-10-2009 02:02:05 11.7 C 8.26 g/m*3 11.7 C 0 km/h
3015 27-10-2009 02:14:05 11.7 C 8.26 g/m*3 11.7 C 0 km/h
3016 27-10-2009 02:26:05 11.7 C 8.16 g/m*3 11.7 C 0 km/h
3017 27-10-2009 02:38:05 11.7 C 8.16 g/m*3 11.7 C 0 km/h
3018 27-10-2009 02:50:05 11.7 C 8.26 g/m*3 11.7 C 0 km/h
3019 27-10-2009 03:02:05 11.5 C 8.16 g/m*3 11.5 C 0 km/h
3020 27-10-2009 03:14:05 11.5 C 8.26 g/m*3 11.5 C 0 km/h
3021 27-10-2009 03:26:05 11.4 C 8.31 g/m*3 11.4 C 0 km/h
3022 27-10-2009 03:38:05 11.3 C 8.26 g/m*3 11.3 C 0 km/h
3023 27-10-2009 03:50:05 11.3 C 8.36 g/m*3 11.3 C 0 km/h
3024 27-10-2009 04:02:05 11.3 C 8.36 g/m*3 11.3 C 0 km/h
3025 27-10-2009 04:14:05 11.3 C 8.36 g/m*3 11.3 C 0 km/h
Sensor: Nr:Datum:Temp:Abs-Feuchte:Windchill:Wind:
Aussen-T/F 3026 27-10-2009 04:26:06 11.4 C 8.42 g/m*3 11.4 C 0 km/h
3027 27-10-2009 04:38:06 11.4 C 8.42 g/m*3 11.4 C 0 km/h
3028 27-10-2009 04:50:06 11.3 C 8.36 g/m*3 11.3 C 0 km/h
3029 27-10-2009 05:02:06 11.2 C 8.31 g/m*3 11.2 C 0 km/h
3030 27-10-2009 05:14:06 11.2 C 8.31 g/m*3 11.2 C 0 km/h
3031 27-10-2009 05:26:06 11.2 C 8.31 g/m*3 11.2 C 0 km/h
3032 27-10-2009 05:38:06 11.2 C 8.21 g/m*3 11.2 C 0 km/h
3033 27-10-2009 05:50:06 11.2 C 8.21 g/m*3 11.2 C 0 km/h
3034 27-10-2009 06:02:06 11.2 C 8.21 g/m*3 11.2 C 0 km/h
3035 27-10-2009 06:14:06 11.2 C 8.11 g/m*3 11.2 C 0 km/h
3036 27-10-2009 06:26:06 11.2 C 8.11 g/m*3 11.2 C 0 km/h
3037 27-10-2009 06:38:06 11.2 C 8.11 g/m*3 11.2 C 0 km/h
3038 27-10-2009 06:50:06 11.2 C 8.11 g/m*3 11.2 C 0 km/h
3039 27-10-2009 07:02:03 11.1 C 8.06 g/m*3 11.1 C 0 km/h
3040 27-10-2009 07:14:03 11 C 8.11 g/m*3 11 C 0 km/h
3041 27-10-2009 07:26:03 11 C 8.11 g/m*3 11 C 0 km/h
3042 27-10-2009 07:38:03 11.1 C 8.16 g/m*3 11.1 C 0 km/h
3043 27-10-2009 07:50:01 11.1 C 8.16 g/m*3 11.1 C 0 km/h
3044 27-10-2009 08:02:02 11.1 C 8.16 g/m*3 11.1 C 0 km/h
3045 27-10-2009 08:14:02 11.2 C 8.21 g/m*3 11.2 C 0 km/h
3046 27-10-2009 08:26:01 11.2 C 8.21 g/m*3 11.2 C 0 km/h
3047 27-10-2009 08:38:02 11.2 C 8.21 g/m*3 11.2 C 0 km/h
3048 27-10-2009 08:50:02 11.4 C 8.31 g/m*3 11.4 C 0 km/h
3049 27-10-2009 09:02:02 11.5 C 8.26 g/m*3 11.5 C 0 km/h
3050 27-10-2009 09:14:02 11.8 C 8.42 g/m*3 11.8 C 0 km/h
Sensor: Nr:Datum:Temp:Abs-Feuchte:Windchill:Wind:
Aussen-T/F 3051 27-10-2009 09:26:01 12 C 8.31 g/m*3 12 C 0 km/h
3052 27-10-2009 09:38:02 12.1 C 8.26 g/m*3 12.1 C 0 km/h
3053 27-10-2009 09:50:02 12.3 C 8.14 g/m*3 12.3 C 0 km/h
3054 27-10-2009 10:02:02 12.4 C 8.09 g/m*3 12.4 C 0 km/h
3055 27-10-2009 10:14:02 12.5 C 8.03 g/m*3 12.5 C 0 km/h
3056 27-10-2009 10:26:02 12.8 C 8.18 g/m*3 12.8 C 0 km/h
3057 27-10-2009 10:38:02 13.2 C 8.15 g/m*3 13.2 C 0 km/h
3058 27-10-2009 10:50:02 13.5 C 8.07 g/m*3 13.5 C 0 km/h
3059 27-10-2009 11:02:02 13.6 C 7.89 g/m*3 13.6 C 0 km/h
3060 27-10-2009 11:14:03 13.7 C 7.82 g/m*3 13.7 C 0 km/h
3061 27-10-2009 11:26:02 13.8 C 7.74 g/m*3 13.8 C 0 km/h
3062 27-10-2009 11:38:02 14.1 C 7.52 g/m*3 14.1 C 0 km/h
3063 27-10-2009 11:50:02 14.4 C 7.42 g/m*3 14.4 C 0 km/h
3064 27-10-2009 12:02:02 14.7 C 7.18 g/m*3 14.7 C 0 km/h
3065 27-10-2009 12:14:02 14.7 C 7.18 g/m*3 14.7 C 0 km/h
3066 27-10-2009 12:26:02 15.1 C 7.35 g/m*3 15.1 C 0 km/h
3067 27-10-2009 12:38:02 15.1 C 7.35 g/m*3 15.1 C 0 km/h
3068 27-10-2009 12:50:02 15.1 C 7.35 g/m*3 15.1 C 0 km/h
3069 27-10-2009 13:02:02 15.4 C 7.36 g/m*3 15.4 C 0 km/h
3070 27-10-2009 13:14:02 15.7 C 7.36 g/m*3 15.7 C 0 km/h
3071 27-10-2009 13:26:02 15.6 C 7.18 g/m*3 15.6 C 0 km/h
3072 27-10-2009 13:38:02 15.6 C 7.31 g/m*3 15.6 C 0 km/h
3073 27-10-2009 13:50:02 15.6 C 7.45 g/m*3 15.6 C 0 km/h
3074 27-10-2009 14:02:02 15.6 C 7.18 g/m*3 15.6 C 0 km/h
3075 27-10-2009 14:14:02 15.8 C 7.27 g/m*3 15.8 C 0 km/h
Sensor: Nr:Datum:Temp:Abs-Feuchte:Windchill:Wind:
Aussen-T/F 3076 27-10-2009 14:26:02 15.9 C 7.18 g/m*3 15.9 C 0 km/h
3077 27-10-2009 14:38:02 15.6 C 6.92 g/m*3 15.6 C 0 km/h
3078 27-10-2009 14:50:02 15.8 C 7 g/m*3 15.8 C 0 km/h
3079 27-10-2009 15:02:02 15.7 C 6.96 g/m*3 15.7 C 0 km/h
3080 27-10-2009 15:14:02 15.8 C 7.13 g/m*3 15.8 C 0 km/h
3081 27-10-2009 15:26:02 15.5 C 6.87 g/m*3 15.5 C 0 km/h
3082 27-10-2009 15:38:01 15.3 C 6.92 g/m*3 15.3 C 0 km/h
3083 27-10-2009 15:50:02 15.1 C 6.84 g/m*3 15.1 C 0 km/h
3084 27-10-2009 16:02:01 15 C 6.92 g/m*3 15 C 0 km/h
3085 27-10-2009 16:14:01 14.8 C 7.35 g/m*3 14.8 C 0 km/h
3086 27-10-2009 16:26:02 14.7 C 7.43 g/m*3 14.7 C 0 km/h
3087 27-10-2009 16:38:01 14.4 C 7.29 g/m*3 14.4 C 0 km/h
3088 27-10-2009 16:50:02 14 C 7.12 g/m*3 14 C 0 km/h
3089 27-10-2009 17:02:02 13.6 C 6.94 g/m*3 13.6 C 0 km/h
3090 27-10-2009 17:14:02 13 C 6.69 g/m*3 13 C 0 km/h
3091 27-10-2009 17:26:02 12.5 C 6.71 g/m*3 12.5 C 0 km/h
3092 27-10-2009 17:38:02 12 C 6.61 g/m*3 12 C 0 km/h
3093 27-10-2009 17:50:02 11.6 C 6.65 g/m*3 11.6 C 0 km/h
3094 27-10-2009 18:02:01 11.3 C 6.63 g/m*3 11.3 C 0 km/h
3095 27-10-2009 18:14:01 11.1 C 6.65 g/m*3 11.1 C 0 km/h
3096 27-10-2009 18:26:01 10.7 C 6.68 g/m*3 10.7 C 0 km/h
3097 27-10-2009 18:38:02 10.5 C 6.69 g/m*3 10.5 C 0 km/h
3098 27-10-2009 18:50:02 10.2 C 6.66 g/m*3 10.2 C 0 km/h
3099 27-10-2009 19:02:02 10.1 C 6.71 g/m*3 10.1 C 0 km/h
3100 27-10-2009 19:14:02 10 C 6.77 g/m*3 10 C 0 km/h
Sensor: Nr:Datum:Temp:Abs-Feuchte:Windchill:Wind:
Aussen-T/F 3101 27-10-2009 19:26:02 9.9 C 6.91 g/m*3 9.9 C 0 km/h
3102 27-10-2009 19:38:02 9.7 C 6.82 g/m*3 9.7 C 0 km/h
3103 27-10-2009 19:50:02 9.6 C 6.87 g/m*3 9.6 C 0 km/h
3104 27-10-2009 20:02:03 9.4 C 6.78 g/m*3 9.4 C 0 km/h
3105 27-10-2009 20:14:03 9.2 C 6.79 g/m*3 9.2 C 0 km/h
3106 27-10-2009 20:26:02 9 C 6.79 g/m*3 9 C 0 km/h
3107 27-10-2009 20:38:02 8.9 C 6.83 g/m*3 8.9 C 0 km/h
3108 27-10-2009 20:50:01 8.9 C 7.01 g/m*3 8.9 C 0 km/h
3109 27-10-2009 21:02:01 8.7 C 6.92 g/m*3 8.7 C 0 km/h
3110 27-10-2009 21:14:01 8.6 C 6.87 g/m*3 8.6 C 0 km/h
3111 27-10-2009 21:26:02 8.4 C 6.87 g/m*3 8.4 C 0 km/h
3112 27-10-2009 21:38:01 8.4 C 6.87 g/m*3 8.4 C 0 km/h
3113 27-10-2009 21:50:03 8.2 C 6.87 g/m*3 8.2 C 0 km/h
3114 27-10-2009 22:02:02 8 C 6.78 g/m*3 8 C 0 km/h
3115 27-10-2009 22:14:02 7.9 C 6.82 g/m*3 7.9 C 0 km/h
3116 27-10-2009 22:26:02 7.8 C 6.77 g/m*3 7.8 C 0 km/h
3117 27-10-2009 22:38:03 7.7 C 6.81 g/m*3 7.7 C 0 km/h
3118 27-10-2009 22:51:02 7.6 C 6.77 g/m*3 7.6 C 0 km/h
3119 27-10-2009 23:03:02 7.5 C 6.8 g/m*3 7.5 C 0 km/h
3120 27-10-2009 23:15:02 7.4 C 6.76 g/m*3 7.4 C 0 km/h
3121 27-10-2009 23:27:02 7.1 C 6.71 g/m*3 7.1 C 0 km/h
3122 27-10-2009 23:39:02 7 C 6.66 g/m*3 7 C 0 km/h
3123 27-10-2009 23:51:02 6.9 C 6.7 g/m*3 6.9 C 0 km/h
3124 28-10-2009 00:03:02 6.7 C 6.61 g/m*3 6.7 C 0 km/h
3125 28-10-2009 00:15:02 6.6 C 6.57 g/m*3 6.6 C 0 km/h
Sensor: Nr:Datum:Temp:Abs-Feuchte:Windchill:Wind:
Aussen-T/F 3126 28-10-2009 00:27:02 6.5 C 6.6 g/m*3 6.5 C 0 km/h
3127 28-10-2009 00:39:02 6.3 C 6.51 g/m*3 6.3 C 0 km/h
3128 28-10-2009 00:51:02 6.3 C 6.51 g/m*3 6.3 C 0 km/h
3129 28-10-2009 01:03:02 6.2 C 6.47 g/m*3 6.2 C 0 km/h
3130 28-10-2009 01:15:02 6.1 C 6.43 g/m*3 6.1 C 0 km/h
3131 28-10-2009 01:27:02 5.9 C 6.42 g/m*3 5.9 C 0 km/h
3132 28-10-2009 01:39:02 5.8 C 6.38 g/m*3 5.8 C 0 km/h
3133 28-10-2009 01:51:02 5.6 C 6.36 g/m*3 5.6 C 0 km/h
3134 28-10-2009 02:03:02 5.7 C 6.4 g/m*3 5.7 C 0 km/h
3135 28-10-2009 02:15:02 5.6 C 6.36 g/m*3 5.6 C 0 km/h
3136 28-10-2009 02:27:03 5.5 C 6.32 g/m*3 5.5 C 0 km/h
3137 28-10-2009 02:39:03 5.4 C 6.28 g/m*3 5.4 C 0 km/h
3138 28-10-2009 02:51:03 5.4 C 6.28 g/m*3 5.4 C 0 km/h
3139 28-10-2009 03:03:03 5.5 C 6.32 g/m*3 5.5 C 0 km/h
3140 28-10-2009 03:15:03 5.7 C 6.48 g/m*3 5.7 C 0 km/h
3141 28-10-2009 03:27:03 5.6 C 6.43 g/m*3 5.6 C 0 km/h
3142 28-10-2009 03:39:03 5.7 C 6.55 g/m*3 5.7 C 0 km/h
3143 28-10-2009 03:51:03 5.8 C 6.59 g/m*3 5.8 C 0 km/h
3144 28-10-2009 04:03:03 5.8 C 6.59 g/m*3 5.8 C 0 km/h
3145 28-10-2009 04:15:03 6 C 6.68 g/m*3 6 C 0 km/h
3146 28-10-2009 04:27:03 6 C 6.68 g/m*3 6 C 0 km/h
3147 28-10-2009 04:39:03 5.7 C 6.55 g/m*3 5.7 C 0 km/h
3148 28-10-2009 04:51:03 5.6 C 6.5 g/m*3 5.6 C 0 km/h
3149 28-10-2009 05:03:03 5.5 C 6.46 g/m*3 5.5 C 0 km/h
3150 28-10-2009 05:15:03 5.3 C 6.38 g/m*3 5.3 C 0 km/h
Sensor: Nr:Datum:Temp:Abs-Feuchte:Windchill:Wind:
Aussen-T/F 3151 28-10-2009 05:27:03 5.4 C 6.42 g/m*3 5.4 C 0 km/h
3152 28-10-2009 05:39:03 5.5 C 6.46 g/m*3 5.5 C 0 km/h
3153 28-10-2009 05:51:03 5.5 C 6.46 g/m*3 5.5 C 0 km/h
3154 28-10-2009 06:03:03 5.5 C 6.46 g/m*3 5.5 C 0 km/h
3155 28-10-2009 06:15:03 5.4 C 6.42 g/m*3 5.4 C 0 km/h
3156 28-10-2009 06:27:03 5.2 C 6.33 g/m*3 5.2 C 0 km/h
3157 28-10-2009 06:39:04 5.2 C 6.33 g/m*3 5.2 C 0 km/h
3158 28-10-2009 06:51:02 5.2 C 6.4 g/m*3 5.2 C 0 km/h
3159 28-10-2009 07:03:02 5.1 C 6.36 g/m*3 5.1 C 0 km/h
3160 28-10-2009 07:15:02 5 C 6.32 g/m*3 5 C 0 km/h
3161 28-10-2009 07:27:02 5 C 6.32 g/m*3 5 C 0 km/h
3162 28-10-2009 07:39:02 5.1 C 6.36 g/m*3 5.1 C 0 km/h
3163 28-10-2009 07:51:02 5.1 C 6.36 g/m*3 5.1 C 0 km/h
3164 28-10-2009 08:03:02 5.2 C 6.4 g/m*3 5.2 C 0 km/h
3165 28-10-2009 08:15:02 5.2 C 6.4 g/m*3 5.2 C 0 km/h
3166 28-10-2009 08:27:02 5.1 C 6.36 g/m*3 5.1 C 0 km/h
3167 28-10-2009 08:39:02 5.4 C 6.56 g/m*3 5.4 C 0 km/h
3168 28-10-2009 08:51:01 5.8 C 6.73 g/m*3 5.8 C 0 km/h
3169 28-10-2009 09:03:02 6 C 6.75 g/m*3 6 C 0 km/h
3170 28-10-2009 09:15:01 6.3 C 6.88 g/m*3 6.3 C 0 km/h
3171 28-10-2009 09:27:01 6.8 C 7.04 g/m*3 6.8 C 0 km/h
3172 28-10-2009 09:39:02 6.3 C 6.74 g/m*3 6.3 C 0 km/h
3173 28-10-2009 09:51:01 6.3 C 6.74 g/m*3 6.3 C 0 km/h
3174 28-10-2009 10:03:02 6.8 C 6.88 g/m*3 6.8 C 0 km/h
3175 28-10-2009 10:15:01 7.2 C 6.99 g/m*3 7.2 C 0 km/h
Sensor: Nr:Datum:Temp:Abs-Feuchte:Windchill:Wind:
Aussen-T/F 3176 28-10-2009 10:27:01 7.4 C 7 g/m*3 7.4 C 0 km/h
3177 28-10-2009 10:39:02 7.4 C 6.92 g/m*3 7.4 C 0 km/h
3178 28-10-2009 10:51:02 7.2 C 6.83 g/m*3 7.2 C 0 km/h
3179 28-10-2009 11:03:02 7.9 C 7.23 g/m*3 7.9 C 0 km/h
3180 28-10-2009 11:15:01 8.6 C 7.3 g/m*3 8.6 C 0 km/h
3181 28-10-2009 11:27:01 9 C 7.14 g/m*3 9 C 0 km/h
3182 28-10-2009 11:39:02 9.6 C 7.24 g/m*3 9.6 C 0 km/h
3183 28-10-2009 11:51:02 10 C 7.24 g/m*3 10 C 0 km/h
3184 28-10-2009 12:03:02 10.3 C 7.09 g/m*3 10.3 C 0 km/h
3185 28-10-2009 12:15:02 10.7 C 7.17 g/m*3 10.7 C 0 km/h
3186 28-10-2009 12:27:02 11.2 C 7.3 g/m*3 11.2 C 0 km/h
3187 28-10-2009 12:39:02 11.6 C 7.38 g/m*3 11.6 C 0 km/h
3188 28-10-2009 12:51:02 11.4 C 7.29 g/m*3 11.4 C 0 km/h
3189 28-10-2009 13:03:02 12 C 7.46 g/m*3 12 C 0 km/h
3190 28-10-2009 13:15:03 12.8 C 7.84 g/m*3 12.8 C 0 km/h
3191 28-10-2009 13:27:03 13.5 C 7.72 g/m*3 13.5 C 0 km/h
3192 28-10-2009 13:39:02 14.1 C 7.77 g/m*3 14.1 C 0 km/h
3193 28-10-2009 13:51:02 14.9 C 7.77 g/m*3 14.9 C 0 km/h
3194 28-10-2009 14:03:02 15.4 C 7.62 g/m*3 15.4 C 0 km/h
3195 28-10-2009 14:15:03 16 C 7.36 g/m*3 16 C 0 km/h
3196 28-10-2009 14:27:03 16 C 7.49 g/m*3 16 C 0 km/h
3197 28-10-2009 14:39:02 16.2 C 7.58 g/m*3 16.2 C 0 km/h
3198 28-10-2009 14:51:03 16.4 C 7.4 g/m*3 16.4 C 0 km/h
3199 28-10-2009 15:03:02 15.8 C 7.27 g/m*3 15.8 C 0 km/h
3200 28-10-2009 15:15:02 15.1 C 7.48 g/m*3 15.1 C 0 km/h
Sensor: Nr:Datum:Temp:Abs-Feuchte:Windchill:Wind:
Aussen-T/F 3201 28-10-2009 15:27:02 14.7 C 7.68 g/m*3 14.7 C 0 km/h
3202 28-10-2009 15:39:02 14.1 C 7.65 g/m*3 14.1 C 0 km/h
3203 28-10-2009 15:51:02 13.8 C 7.74 g/m*3 13.8 C 0 km/h
3204 28-10-2009 16:03:02 13.5 C 7.84 g/m*3 13.5 C 0 km/h
3205 28-10-2009 16:15:02 13.3 C 7.97 g/m*3 13.3 C 0 km/h
3206 28-10-2009 16:27:02 13.1 C 7.99 g/m*3 13.1 C 0 km/h
3207 28-10-2009 16:39:02 12.7 C 8.01 g/m*3 12.7 C 0 km/h
3208 28-10-2009 16:51:02 12.5 C 7.92 g/m*3 12.5 C 0 km/h
3209 28-10-2009 17:03:02 12 C 7.78 g/m*3 12 C 0 km/h
3210 28-10-2009 17:15:02 11.7 C 7.84 g/m*3 11.7 C 0 km/h
3211 28-10-2009 17:27:02 11.4 C 7.7 g/m*3 11.4 C 0 km/h
3212 28-10-2009 17:39:01 11.2 C 7.7 g/m*3 11.2 C 0 km/h
3213 28-10-2009 17:51:02 11 C 7.71 g/m*3 11 C 0 km/h
3214 28-10-2009 18:03:01 10.7 C 7.56 g/m*3 10.7 C 0 km/h
3215 28-10-2009 18:15:02 10.5 C 7.57 g/m*3 10.5 C 0 km/h
3216 28-10-2009 18:27:02 10.2 C 7.42 g/m*3 10.2 C 0 km/h
3217 28-10-2009 18:39:01 10 C 7.42 g/m*3 10 C 0 km/h
3218 28-10-2009 18:51:02 9.7 C 7.56 g/m*3 9.7 C 0 km/h
3219 28-10-2009 19:03:01 9.6 C 7.51 g/m*3 9.6 C 0 km/h
3220 28-10-2009 19:15:01 9.3 C 7.46 g/m*3 9.3 C 0 km/h
3221 28-10-2009 19:27:02 9.2 C 7.5 g/m*3 9.2 C 0 km/h
3222 28-10-2009 19:39:01 9 C 7.41 g/m*3 9 C 0 km/h
3223 28-10-2009 19:51:02 8.9 C 7.53 g/m*3 8.9 C 0 km/h
3224 28-10-2009 20:03:02 8.6 C 7.3 g/m*3 8.6 C 0 km/h
3225 28-10-2009 20:15:02 8.4 C 7.3 g/m*3 8.4 C 0 km/h
Sensor: Nr:Datum:Temp:Abs-Feuchte:Windchill:Wind:
Aussen-T/F 3226 28-10-2009 20:27:02 8.2 C 7.2 g/m*3 8.2 C 0 km/h
3227 28-10-2009 20:39:03 8.1 C 7.24 g/m*3 8.1 C 0 km/h
3228 28-10-2009 20:51:02 8 C 7.19 g/m*3 8 C 0 km/h
3229 28-10-2009 21:03:02 7.8 C 7.18 g/m*3 7.8 C 0 km/h
3230 28-10-2009 21:15:02 7.6 C 7.09 g/m*3 7.6 C 0 km/h
3231 28-10-2009 21:27:02 7.5 C 7.04 g/m*3 7.5 C 0 km/h
3232 28-10-2009 21:39:01 7.3 C 7.03 g/m*3 7.3 C 0 km/h
3233 28-10-2009 21:51:01 7.1 C 6.86 g/m*3 7.1 C 0 km/h
3234 28-10-2009 22:04:02 7 C 6.9 g/m*3 7 C 0 km/h
3235 28-10-2009 22:16:02 6.9 C 6.93 g/m*3 6.9 C 0 km/h
3236 28-10-2009 22:28:02 7 C 6.9 g/m*3 7 C 0 km/h
3237 28-10-2009 22:40:02 7 C 6.97 g/m*3 7 C 0 km/h
3238 28-10-2009 22:52:02 6.6 C 6.87 g/m*3 6.6 C